MYDAX CHILLER For M1 mirror 
            

Key: (Temperatures in Centigrade) 
A) System is ON or OFF
B) Actual Tank Temperature as sensed by the Output RTD                   
C) Set point Temperature 
D) Calculated temperature of the refrigerant line at the suction pressure transducer
E) Pressure in PSIg of the refrigerant line at the suction pressure transducer
F & G) Temperature in the refrigerant line at the Superheat and Condenser RTDs
H) Temperature in the refrigerant line at the Discharge RTD (2-stage design only)
I) Temperature in the refrigerant line at the Subcooler RTD (inactive)
J) Valve drives of evaporator 

----------- DATE ----------: A    B     C     D     E    F    G    H   I J

 last update: Thu May 25 16:41:31 PDT 2017
Thu May 25 16:40:48 PDT 2017 ON: 20.00 +20.0 20.04 -15.0 28.2 16.1 32.1 7 10 Alarm State:  0
Thu May 25 16:39:46 PDT 2017 ON: 20.00 +20.0 20.06 -15.1 28.1 16.2 32.0 7 10 Alarm State:  0
Thu May 25 16:38:45 PDT 2017 ON: 19.99 +20.0 20.04 -15.1 28.1 16.2 32.0 7 10 Alarm State:  0
Thu May 25 16:37:43 PDT 2017 ON: 19.99 +20.0 20.04 -15.1 28.1 16.2 32.1 7 10 Alarm State:  0
Thu May 25 16:36:42 PDT 2017 ON: 20.00 +20.0 20.06 -15.3 27.7 16.5 31.9 7 9 Alarm State:  0
Thu May 25 16:35:40 PDT 2017 ON: 19.99 +20.0 20.06 -15.0 28.2 16.1 32.1 7 10 Alarm State:  0
Thu May 25 16:34:39 PDT 2017 ON: 19.99 +20.0 20.05 -15.2 27.9 16.3 32.1 7 10 Alarm State:  0
Thu May 25 16:33:37 PDT 2017 ON: 19.99 +20.0 20.06 -15.6 27.3 16.8 31.9 7 9 Alarm State:  0
Thu May 25 16:32:36 PDT 2017 ON: 19.99 +20.0 20.04 -15.3 27.7 16.5 32.1 7 10 Alarm State:  0
Thu May 25 16:31:34 PDT 2017 ON: 20.00 +20.0 20.06 -15.3 27.7 16.5 32.0 7 9 Alarm State:  0
Thu May 25 16:30:33 PDT 2017 ON: 19.99 +20.0 20.06 -15.5 27.4 16.7 32.0 7 10 Alarm State:  0
Thu May 25 16:29:31 PDT 2017 ON: 19.99 +20.0 20.05 -15.3 27.7 16.5 32.1 7 9 Alarm State:  0
Thu May 25 16:28:30 PDT 2017 ON: 20.00 +20.0 20.06 -15.3 27.8 16.4 32.1 7 9 Alarm State:  0
Thu May 25 16:27:28 PDT 2017 ON: 19.99 +20.0 20.06 -15.6 27.3 16.8 31.8 7 9 Alarm State:  0
Thu May 25 16:26:27 PDT 2017 ON: 19.99 +20.0 20.05 -15.1 28.1 16.2 32.1 7 9 Alarm State:  0
Thu May 25 16:25:25 PDT 2017 ON: 20.00 +20.0 20.06 -15.3 27.8 16.4 32.1 7 9 Alarm State:  0
Thu May 25 16:24:24 PDT 2017 ON: 19.99 +20.0 20.07 -15.4 27.6 16.5 32.0 7 9 Alarm State:  0
Thu May 25 16:23:22 PDT 2017 ON: 19.99 +20.0 20.05 -14.8 28.5 16.0 32.2 7 10 Alarm State:  0
Thu May 25 16:22:21 PDT 2017 ON: 20.00 +20.0 20.05 -15.3 27.8 16.4 31.9 7 9 Alarm State:  0
Thu May 25 16:21:19 PDT 2017 ON: 20.00 +20.0 20.07 -15.3 27.7 16.5 32.0 7 9 Alarm State:  0
Thu May 25 16:20:18 PDT 2017 ON: 19.99 +20.0 20.05 -15.4 27.6 16.5 32.0 7 10 Alarm State:  0
Thu May 25 16:19:16 PDT 2017 ON: 20.00 +20.0 20.06 -15.1 28.0 16.3 32.1 7 9 Alarm State:  0
Thu May 25 16:18:15 PDT 2017 ON: 19.99 +20.0 20.06 -15.5 27.5 16.6 31.9 7 9 Alarm State:  0
Thu May 25 16:17:13 PDT 2017 ON: 20.00 +20.0 20.06 -15.4 27.6 16.5 32.0 7 9 Alarm State:  0
Thu May 25 16:16:12 PDT 2017 ON: 20.00 +20.0 20.07 -15.3 27.7 16.5 31.9 7 9 Alarm State:  0
Thu May 25 16:15:10 PDT 2017 ON: 20.00 +20.0 20.05 -15.3 27.8 16.4 32.0 7 10 Alarm State:  0
Thu May 25 16:14:09 PDT 2017 ON: 19.99 +20.0 20.05 -15.2 27.9 16.3 32.1 7 9 Alarm State:  0
Thu May 25 16:13:07 PDT 2017 ON: 20.00 +20.0 20.04 -15.1 28.1 16.2 32.1 7 10 Alarm State:  0
Thu May 25 16:12:06 PDT 2017 ON: 20.00 +20.0 20.06 -15.3 27.8 16.4 32.0 7 9 Alarm State:  0
Thu May 25 16:11:04 PDT 2017 ON: 19.99 +20.0 20.05 -15.2 27.9 16.3 32.1 7 10 Alarm State:  0
Thu May 25 16:10:03 PDT 2017 ON: 19.99 +20.0 20.04 -15.1 28.1 16.2 32.1 7 10 Alarm State:  0
Thu May 25 16:09:01 PDT 2017 ON: 20.00 +20.0 20.06 -15.1 28.0 16.3 32.2 7 9 Alarm State:  0
Thu May 25 16:07:50 PDT 2017  Alarm State: 0
Thu May 25 16:07:50 PDT 2017 Chiller did not report ON, got this reading: 
Thu May 25 16:06:48 PDT 2017 ON: 19.99 +20.0 20.04 -15.1 28.1 16.2 32.2 7 10 Alarm State:  0
Thu May 25 16:05:47 PDT 2017 ON: 20.00 +20.0 20.06 -15.2 27.9 16.3 32.0 7 9 Alarm State:  0
Thu May 25 16:04:45 PDT 2017 ON: 20.00 +20.0 20.08 -15.5 27.5 16.6 31.9 7 9 Alarm State:  0
Thu May 25 16:03:44 PDT 2017 ON: 19.99 +20.0 20.04 -15.1 28.1 16.2 32.1 7 10 Alarm State:  0
Thu May 25 16:02:42 PDT 2017 ON: 19.99 +20.0 20.05 -15.3 27.8 16.4 32.1 7 9 Alarm State:  0
Thu May 25 16:01:41 PDT 2017 ON: 20.00 +20.0 20.06 -15.5 27.5 16.6 32.0 7 9 Alarm State:  0
Thu May 25 16:00:39 PDT 2017 ON: 19.99 +20.0 20.05 -15.4 27.6 16.5 32.1 7 9 Alarm State:  0
Thu May 25 15:59:38 PDT 2017 ON: 20.00 +20.0 20.05 -15.4 27.6 16.5 32.0 7 9 Alarm State:  0
Thu May 25 15:58:36 PDT 2017 ON: 20.00 +20.0 20.06 -15.1 28.1 16.2 32.1 7 9 Alarm State:  0
Thu May 25 15:57:35 PDT 2017 ON: 19.99 +20.0 20.06 -15.1 28.1 16.2 32.2 7 9 Alarm State:  0
Thu May 25 15:56:33 PDT 2017 ON: 19.99 +20.0 20.05 -15.2 27.9 16.3 32.1 7 9 Alarm State:  0
Thu May 25 15:55:32 PDT 2017 ON: 20.00 +20.0 20.06 -15.5 27.4 16.7 31.9 7 9 Alarm State:  0
Thu May 25 15:54:30 PDT 2017 ON: 20.00 +20.0 20.05 -15.4 27.6 16.5 31.8 7 10 Alarm State:  0
Thu May 25 15:53:29 PDT 2017 ON: 20.00 +20.0 20.06 -15.1 28.1 16.2 32.1 7 10 Alarm State:  0
Thu May 25 15:52:27 PDT 2017 ON: 19.99 +20.0 20.05 -15.0 28.2 16.1 32.2 7 10 Alarm State:  0
Thu May 25 15:51:26 PDT 2017 ON: 20.00 +20.0 20.07 -15.3 27.7 16.5 32.0 7 9 Alarm State:  0
Thu May 25 15:50:24 PDT 2017 ON: 19.99 +20.0 20.05 -15.3 27.8 16.4 32.0 7 9 Alarm State:  0
Thu May 25 15:49:23 PDT 2017 ON: 20.00 +20.0 20.06 -14.9 28.3 16.1 32.2 7 9 Alarm State:  0
Thu May 25 15:48:21 PDT 2017 ON: 19.99 +20.0 20.05 -15.2 27.9 16.3 32.1 7 10 Alarm State:  0
Thu May 25 15:47:20 PDT 2017 ON: 19.99 +20.0 20.05 -15.3 27.7 16.5 32.0 7 9 Alarm State:  0
Thu May 25 15:46:18 PDT 2017 ON: 20.00 +20.0 20.04 -14.9 28.3 16.1 32.2 7 10 Alarm State:  0
Thu May 25 15:45:17 PDT 2017 ON: 19.99 +20.0 20.05 -15.1 28.1 16.2 32.0 7 10 Alarm State:  0
Thu May 25 15:44:15 PDT 2017 ON: 19.99 +20.0 20.05 -15.1 28.0 16.3 32.1 7 10 Alarm State:  0
Thu May 25 15:43:14 PDT 2017 ON: 20.00 +20.0 20.05 -15.3 27.8 16.4 32.0 7 9 Alarm State:  0
Thu May 25 15:42:12 PDT 2017 ON: 20.00 +20.0 20.07 -15.5 27.5 16.6 31.9 7 9 Alarm State:  0
Thu May 25 15:41:11 PDT 2017 ON: 19.99 +20.0 20.03 -14.9 28.3 16.1 32.1 7 11 Alarm State:  0
Thu May 25 15:40:09 PDT 2017 ON: 20.00 +20.0 20.06 -15.5 27.5 16.6 31.9 7 9 Alarm State:  0
Thu May 25 15:39:08 PDT 2017 ON: 19.99 +20.0 20.05 -14.9 28.3 16.1 32.2 7 10 Alarm State:  0
Thu May 25 15:38:06 PDT 2017 ON: 20.00 +20.0 20.05 -15.1 28.1 16.2 32.1 7 10 Alarm State:  0
Thu May 25 15:37:05 PDT 2017 ON: 19.99 +20.0 20.06 -15.4 27.6 16.5 32.0 7 9 Alarm State:  0
Thu May 25 15:36:03 PDT 2017 ON: 19.99 +20.0 20.04 -15.0 28.2 16.1 32.2 7 10 Alarm State:  0
Thu May 25 15:35:02 PDT 2017 ON: 20.00 +20.0 20.05 -15.2 27.9 16.3 32.0 7 10 Alarm State:  0
Thu May 25 15:34:00 PDT 2017 ON: 19.99 +20.0 20.07 -15.5 27.5 16.6 31.9 7 9 Alarm State:  0
Thu May 25 15:32:59 PDT 2017 ON: 20.00 +20.0 20.06 -15.3 27.8 16.4 32.1 7 9 Alarm State:  0
Thu May 25 15:31:57 PDT 2017 ON: 20.00 +20.0 20.06 -15.5 27.4 16.7 31.8 7 10 Alarm State:  0
Thu May 25 15:30:56 PDT 2017 ON: 19.99 +20.0 20.05 -15.1 28.0 16.3 32.1 7 10 Alarm State:  0
Thu May 25 15:29:54 PDT 2017 ON: 20.00 +20.0 20.05 -15.1 28.0 16.3 32.0 7 10 Alarm State:  0
Thu May 25 15:28:53 PDT 2017 ON: 19.99 +20.0 20.05 -14.9 28.3 16.1 32.2 7 10 Alarm State:  0
Thu May 25 15:27:51 PDT 2017 ON: 19.99 +20.0 20.06 -15.3 27.7 16.5 32.0 7 9 Alarm State:  0
Thu May 25 15:26:50 PDT 2017 ON: 19.99 +20.0 20.05 -15.3 27.8 16.4 32.0 7 10 Alarm State:  0
Thu May 25 15:25:49 PDT 2017 ON: 19.99 +20.0 20.04 -15.2 27.9 16.3 32.0 7 10 Alarm State:  0
Thu May 25 15:24:47 PDT 2017 ON: 20.00 +20.0 20.05 -15.1 28.0 16.3 32.1 7 9 Alarm State:  0
Thu May 25 15:23:46 PDT 2017 ON: 20.00 +20.0 20.07 -15.3 27.8 16.4 32.0 7 9 Alarm State:  0
Thu May 25 15:22:44 PDT 2017 ON: 19.99 +20.0 20.03 -14.7 28.6 15.9 32.2 7 11 Alarm State:  0
Thu May 25 15:21:43 PDT 2017 ON: 19.99 +20.0 20.05 -15.3 27.7 16.5 32.1 7 10 Alarm State:  0
Thu May 25 15:20:41 PDT 2017 ON: 19.99 +20.0 20.05 -14.9 28.3 16.1 32.2 7 9 Alarm State:  0
Thu May 25 15:19:40 PDT 2017 ON: 20.00 +20.0 20.06 -15.2 27.9 16.3 32.1 7 9 Alarm State:  0
Thu May 25 15:18:28 PDT 2017  Alarm State: 0
Thu May 25 15:18:28 PDT 2017 Chiller did not report ON, got this reading: 
Thu May 25 15:17:27 PDT 2017 ON: 19.99 +20.0 20.05 -15.3 27.7 16.5 32.0 7 9 Alarm State:  0
Thu May 25 15:16:25 PDT 2017 ON: 20.00 +20.0 20.05 -15.3 27.8 16.4 32.0 7 10 Alarm State:  0
Thu May 25 15:15:24 PDT 2017 ON: 19.99 +20.0 20.04 -15.1 28.1 16.2 32.1 7 10 Alarm State:  0
Thu May 25 15:14:22 PDT 2017 ON: 19.99 +20.0 20.04 -14.9 28.4 16.0 32.2 7 10 Alarm State:  0
Thu May 25 15:13:21 PDT 2017 ON: 19.99 +20.0 20.05 -15.3 27.8 16.4 32.0 7 9 Alarm State:  0
Thu May 25 15:12:19 PDT 2017 ON: 20.00 +20.0 20.05 -15.2 27.9 16.3 32.1 7 10 Alarm State:  0
Thu May 25 15:11:18 PDT 2017 ON: 20.00 +20.0 20.04 -14.8 28.5 16.0 32.2 7 11 Alarm State:  0
Thu May 25 15:10:16 PDT 2017 ON: 19.99 +20.0 20.05 -15.3 27.7 16.5 32.0 7 10 Alarm State:  0
Thu May 25 15:09:15 PDT 2017 ON: 20.00 +20.0 20.05 -15.1 28.0 16.3 32.1 7 9 Alarm State:  0
Thu May 25 15:08:13 PDT 2017 ON: 20.00 +20.0 20.07 -15.2 27.9 16.3 32.1 7 9 Alarm State:  0
Thu May 25 15:07:12 PDT 2017 ON: 19.99 +20.0 20.05 -14.9 28.3 16.1 32.1 7 10 Alarm State:  0
Thu May 25 15:06:10 PDT 2017 ON: 19.99 +20.0 20.05 -15.0 28.2 16.1 32.1 7 9 Alarm State:  0
Thu May 25 15:05:09 PDT 2017 ON: 20.00 +20.0 20.07 -15.1 28.1 16.2 32.0 7 9 Alarm State:  0
Thu May 25 15:04:07 PDT 2017 ON: 19.99 +20.0 20.07 -15.3 27.7 16.5 32.0 7 9 Alarm State:  0
Thu May 25 15:03:06 PDT 2017 ON: 19.99 +20.0 20.05 -15.1 28.0 16.3 32.1 7 10 Alarm State:  0
Thu May 25 15:02:04 PDT 2017 ON: 20.00 +20.0 20.04 -15.1 28.0 16.3 32.0 7 10 Alarm State:  0
Thu May 25 15:01:03 PDT 2017 ON: 20.00 +20.0 20.06 -15.3 27.8 16.4 31.9 7 9 Alarm State:  0
Thu May 25 15:00:01 PDT 2017 ON: 20.00 +20.0 20.06 -15.3 27.8 16.4 32.1 7 9 Alarm State:  0
Thu May 25 14:59:00 PDT 2017 ON: 20.00 +20.0 20.06 -15.1 28.0 16.3 32.1 7 10 Alarm State:  0
Thu May 25 14:57:58 PDT 2017 ON: 19.98 +20.0 20.04 -14.9 28.3 16.1 32.2 7 10 Alarm State:  0
Thu May 25 14:56:57 PDT 2017 ON: 20.00 +20.0 20.05 -15.1 28.0 16.3 32.1 7 9 Alarm State:  0
Thu May 25 14:55:55 PDT 2017 ON: 19.99 +20.0 20.03 -14.8 28.5 16.0 32.2 7 10 Alarm State:  0
Thu May 25 14:54:54 PDT 2017 ON: 20.00 +20.0 20.06 -15.4 27.6 16.5 32.0 7 10 Alarm State:  0
Thu May 25 14:53:52 PDT 2017 ON: 19.99 +20.0 20.05 -15.1 28.1 16.2 32.1 7 10 Alarm State:  0
Thu May 25 14:52:51 PDT 2017 ON: 20.00 +20.0 20.06 -15.4 27.6 16.5 31.9 8 9 Alarm State:  0
Thu May 25 14:51:49 PDT 2017 ON: 19.99 +20.0 20.06 -15.2 27.9 16.3 32.1 7 9 Alarm State:  0
Thu May 25 14:50:48 PDT 2017 ON: 20.00 +20.0 20.05 -15.2 27.9 16.3 32.0 7 10 Alarm State:  0
Thu May 25 14:49:46 PDT 2017 ON: 20.00 +20.0 20.06 -15.3 27.7 16.5 31.9 7 10 Alarm State:  0
Thu May 25 14:48:45 PDT 2017 ON: 19.99 +20.0 20.05 -15.1 28.0 16.3 32.1 7 10 Alarm State:  0
Thu May 25 14:47:43 PDT 2017 ON: 20.00 +20.0 20.06 -15.2 27.9 16.3 32.1 7 9 Alarm State:  0
Thu May 25 14:46:42 PDT 2017 ON: 19.99 +20.0 20.05 -15.5 27.5 16.6 31.7 7 10 Alarm State:  0
Thu May 25 14:45:40 PDT 2017 ON: 20.00 +20.0 20.04 -15.2 27.9 16.3 32.0 7 10 Alarm State:  0
Thu May 25 14:44:39 PDT 2017 ON: 19.99 +20.0 20.05 -15.1 28.0 16.3 32.1 7 10 Alarm State:  0
Thu May 25 14:43:37 PDT 2017 ON: 20.00 +20.0 20.04 -15.0 28.2 16.1 32.1 7 10 Alarm State:  0
Thu May 25 14:42:36 PDT 2017 ON: 19.99 +20.0 20.06 -14.9 28.4 16.0 32.2 7 10 Alarm State:  0
Thu May 25 14:41:34 PDT 2017 ON: 19.99 +20.0 20.04 -15.1 28.0 16.3 32.1 7 10 Alarm State:  0
Thu May 25 14:40:33 PDT 2017 ON: 20.00 +20.0 20.07 -15.3 27.7 16.5 32.0 7 9 Alarm State:  0
Thu May 25 14:39:31 PDT 2017 ON: 19.99 +20.0 20.05 -15.1 28.1 16.2 32.1 7 10 Alarm State:  0
Thu May 25 14:38:30 PDT 2017 ON: 19.99 +20.0 20.05 -15.2 27.9 16.3 32.1 7 10 Alarm State:  0
Thu May 25 14:37:28 PDT 2017 ON: 19.99 +20.0 20.05 -15.3 27.7 16.5 31.9 7 10 Alarm State:  0
Thu May 25 14:36:27 PDT 2017 ON: 20.00 +20.0 20.06 -15.2 27.9 16.3 32.1 7 9 Alarm State:  0
Thu May 25 14:35:25 PDT 2017 ON: 19.99 +20.0 20.07 -15.3 27.7 16.5 32.0 7 9 Alarm State:  0
Thu May 25 14:34:24 PDT 2017 ON: 20.00 +20.0 20.04 -14.9 28.3 16.1 32.2 7 10 Alarm State:  0
Thu May 25 14:33:22 PDT 2017 ON: 19.99 +20.0 20.04 -15.1 28.0 16.3 32.1 7 10 Alarm State:  0
Thu May 25 14:32:21 PDT 2017 ON: 20.00 +20.0 20.06 -15.5 27.5 16.6 32.0 7 9 Alarm State:  0
Thu May 25 14:31:19 PDT 2017 ON: 20.00 +20.0 20.06 -15.3 27.8 16.4 32.0 7 10 Alarm State:  0
Thu May 25 14:30:18 PDT 2017 ON: 19.99 +20.0 20.04 -15.0 28.2 16.1 32.1 7 11 Alarm State:  0
Thu May 25 14:29:16 PDT 2017 ON: 19.99 +20.0 20.05 -15.2 27.9 16.3 32.1 7 10 Alarm State:  0
Thu May 25 14:28:15 PDT 2017 ON: 20.00 +20.0 20.07 -15.4 27.6 16.5 31.9 7 9 Alarm State:  0
Thu May 25 14:27:14 PDT 2017 ON: 19.99 +20.0 20.04 -15.1 28.1 16.2 32.1 7 10 Alarm State:  0
Thu May 25 14:26:12 PDT 2017 ON: 20.00 +20.0 20.05 -14.9 28.3 16.1 32.1 7 10 Alarm State:  0
Thu May 25 14:25:11 PDT 2017 ON: 19.99 +20.0 20.05 -15.2 27.9 16.3 32.1 7 10 Alarm State:  0
Thu May 25 14:24:09 PDT 2017 ON: 19.99 +20.0 20.05 -15.1 28.0 16.3 32.2 7 9 Alarm State:  0
Thu May 25 14:23:08 PDT 2017 ON: 20.00 +20.0 20.06 -15.3 27.8 16.4 32.0 7 9 Alarm State:  0
Thu May 25 14:22:06 PDT 2017 ON: 19.99 +20.0 20.06 -14.8 28.5 16.0 32.2 7 10 Alarm State:  0
Thu May 25 14:21:05 PDT 2017 ON: 20.00 +20.0 20.05 -15.1 28.1 16.2 32.1 7 10 Alarm State:  0
Thu May 25 14:20:03 PDT 2017 ON: 20.00 +20.0 20.05 -15.4 27.6 16.5 31.8 7 10 Alarm State:  0
Thu May 25 14:19:02 PDT 2017 ON: 19.99 +20.0 20.04 -15.2 27.9 16.3 32.1 7 10 Alarm State:  0
Thu May 25 14:18:00 PDT 2017 ON: 20.00 +20.0 20.07 -15.3 27.7 16.5 32.0 7 9 Alarm State:  0
Thu May 25 14:16:59 PDT 2017 ON: 19.99 +20.0 20.04 -14.8 28.5 16.0 32.2 7 10 Alarm State:  0
Thu May 25 14:15:57 PDT 2017 ON: 20.00 +20.0 20.06 -15.3 27.7 16.5 32.0 7 9 Alarm State:  0
Thu May 25 14:14:56 PDT 2017 ON: 20.00 +20.0 20.05 -15.3 27.8 16.4 31.9 7 10 Alarm State:  0
Thu May 25 14:13:54 PDT 2017 ON: 19.99 +20.0 20.05 -14.9 28.4 16.0 32.2 7 10 Alarm State:  0
Thu May 25 14:12:53 PDT 2017 ON: 19.99 +20.0 20.04 -15.1 28.1 16.2 32.2 7 10 Alarm State:  0
Thu May 25 14:11:51 PDT 2017 ON: 20.00 +20.0 20.06 -15.2 27.9 16.3 32.1 7 9 Alarm State:  0
Thu May 25 14:10:50 PDT 2017 ON: 19.99 +20.0 20.06 -15.3 27.8 16.4 32.0 7 9 Alarm State:  0
Thu May 25 14:09:48 PDT 2017 ON: 19.99 +20.0 20.04 -15.1 28.0 16.3 32.1 7 10 Alarm State:  0
Thu May 25 14:08:47 PDT 2017 ON: 20.00 +20.0 20.06 -15.1 28.0 16.3 32.1 7 9 Alarm State:  0
Thu May 25 14:07:45 PDT 2017 ON: 19.99 +20.0 20.06 -15.3 27.7 16.5 32.0 7 10 Alarm State:  0
Thu May 25 14:06:44 PDT 2017 ON: 19.99 +20.0 20.04 -15.1 28.0 16.3 32.1 7 10 Alarm State:  0
Thu May 25 14:05:42 PDT 2017 ON: 20.00 +20.0 20.05 -15.3 27.8 16.4 32.0 7 9 Alarm State:  0
Thu May 25 14:04:41 PDT 2017 ON: 20.00 +20.0 20.06 -15.3 27.8 16.4 32.1 7 10 Alarm State:  0
Thu May 25 14:03:39 PDT 2017 ON: 19.99 +20.0 20.07 -15.3 27.7 16.5 32.0 7 9 Alarm State:  0
Thu May 25 14:02:38 PDT 2017 ON: 19.99 +20.0 20.03 -15.2 27.9 16.3 32.1 7 10 Alarm State:  0
Thu May 25 14:01:36 PDT 2017 ON: 20.00 +20.0 20.05 -15.1 28.0 16.3 32.1 7 9 Alarm State:  0
Thu May 25 14:00:35 PDT 2017 ON: 20.00 +20.0 20.08 -15.7 27.2 16.8 31.7 8 9 Alarm State:  0
Thu May 25 13:59:33 PDT 2017 ON: 19.99 +20.0 20.05 -15.0 28.2 16.1 32.1 7 10 Alarm State:  0
Thu May 25 13:58:32 PDT 2017 ON: 20.00 +20.0 20.05 -15.3 27.8 16.4 32.1 7 9 Alarm State:  0
Thu May 25 13:57:30 PDT 2017 ON: 20.00 +20.0 20.06 -15.2 27.9 16.3 32.0 7 10 Alarm State:  0
Thu May 25 13:56:29 PDT 2017 ON: 19.99 +20.0 20.06 -14.9 28.3 16.1 32.2 7 10 Alarm State:  0
Thu May 25 13:55:27 PDT 2017 ON: 19.99 +20.0 20.06 -15.3 27.7 16.5 32.0 7 9 Alarm State:  0
Thu May 25 13:54:26 PDT 2017 ON: 19.99 +20.0 20.06 -15.4 27.6 16.5 32.0 7 9 Alarm State:  0
Thu May 25 13:53:24 PDT 2017 ON: 19.99 +20.0 20.06 -15.2 27.9 16.3 32.1 7 9 Alarm State:  0
Thu May 25 13:52:23 PDT 2017 ON: 19.99 +20.0 20.06 -15.2 27.9 16.3 32.0 7 10 Alarm State:  0
Thu May 25 13:51:21 PDT 2017 ON: 19.99 +20.0 20.06 -15.1 28.0 16.3 32.1 7 9 Alarm State:  0
Thu May 25 13:50:20 PDT 2017 ON: 20.00 +20.0 20.06 -15.3 27.7 16.5 32.0 7 9 Alarm State:  0
Thu May 25 13:49:18 PDT 2017 ON: 19.99 +20.0 20.05 -15.3 27.8 16.4 32.0 7 10 Alarm State:  0
Thu May 25 13:48:17 PDT 2017 ON: 20.00 +20.0 20.05 -15.0 28.2 16.1 32.2 7 9 Alarm State:  0
Thu May 25 13:47:15 PDT 2017 ON: 20.00 +20.0 20.07 -15.0 28.2 16.1 32.1 7 9 Alarm State:  0
Thu May 25 13:46:14 PDT 2017 ON: 19.99 +20.0 20.05 -15.0 28.2 16.1 32.1 7 10 Alarm State:  0
Thu May 25 13:45:12 PDT 2017 ON: 20.00 +20.0 20.04 -15.1 28.1 16.2 32.1 7 10 Alarm State:  0
Thu May 25 13:44:11 PDT 2017 ON: 20.00 +20.0 20.07 -15.6 27.3 16.8 31.7 8 9 Alarm State:  0
Thu May 25 13:43:09 PDT 2017 ON: 20.00 +20.0 20.06 -15.0 28.2 16.1 32.2 7 10 Alarm State:  0
Thu May 25 13:42:08 PDT 2017 ON: 19.99 +20.0 20.05 -15.3 27.7 16.5 32.0 7 10 Alarm State:  0
Thu May 25 13:41:06 PDT 2017 ON: 19.99 +20.0 20.05 -15.4 27.6 16.5 32.0 7 9 Alarm State:  0
Thu May 25 13:40:05 PDT 2017 ON: 20.00 +20.0 20.06 -15.3 27.8 16.4 32.1 7 9 Alarm State:  0
Thu May 25 13:39:03 PDT 2017 ON: 19.99 +20.0 20.06 -15.2 27.9 16.3 32.1 7 10 Alarm State:  0
Thu May 25 13:38:02 PDT 2017 ON: 19.99 +20.0 20.06 -15.2 27.9 16.3 32.1 7 9 Alarm State:  0
Thu May 25 13:37:00 PDT 2017 ON: 19.99 +20.0 20.04 -15.2 27.9 16.3 32.1 7 10 Alarm State:  0
Thu May 25 13:35:59 PDT 2017 ON: 20.00 +20.0 20.05 -15.1 28.1 16.2 32.1 7 10 Alarm State:  0
Thu May 25 13:34:57 PDT 2017 ON: 19.99 +20.0 20.06 -15.0 28.2 16.1 32.2 7 9 Alarm State:  0
Thu May 25 13:33:56 PDT 2017 ON: 20.00 +20.0 20.06 -14.9 28.4 16.0 32.3 7 9 Alarm State:  0
Thu May 25 13:32:54 PDT 2017 ON: 19.99 +20.0 20.06 -15.2 27.9 16.3 32.0 7 10 Alarm State:  0
Thu May 25 13:31:53 PDT 2017 ON: 20.00 +20.0 20.05 -15.3 27.7 16.5 32.1 7 9 Alarm State:  0
Thu May 25 13:30:52 PDT 2017 ON: 20.00 +20.0 20.06 -15.3 27.8 16.4 32.1 7 9 Alarm State:  0
Thu May 25 13:29:50 PDT 2017 ON: 20.00 +20.0 20.06 -15.1 28.0 16.3 32.1 7 10 Alarm State:  0
Thu May 25 13:28:49 PDT 2017 ON: 19.99 +20.0 20.05 -15.4 27.6 16.5 32.0 7 10 Alarm State:  0
Thu May 25 13:27:47 PDT 2017 ON: 20.00 +20.0 20.06 -15.5 27.5 16.6 31.9 8 9 Alarm State:  0
Thu May 25 13:26:46 PDT 2017 ON: 20.00 +20.0 20.06 -15.2 27.9 16.3 32.0 7 9 Alarm State:  0
Thu May 25 13:25:44 PDT 2017 ON: 19.99 +20.0 20.04 -15.0 28.2 16.1 32.1 7 10 Alarm State:  0
Thu May 25 13:24:43 PDT 2017 ON: 19.99 +20.0 20.04 -15.0 28.2 16.1 32.2 7 10 Alarm State:  0
Thu May 25 13:23:41 PDT 2017 ON: 20.00 +20.0 20.05 -15.3 27.7 16.5 32.0 7 10 Alarm State:  0
Thu May 25 13:22:40 PDT 2017 ON: 20.00 +20.0 20.05 -15.0 28.2 16.1 32.1 7 10 Alarm State:  0
Thu May 25 13:21:38 PDT 2017 ON: 19.99 +20.0 20.04 -15.1 28.1 16.2 32.1 7 10 Alarm State:  0
Thu May 25 13:20:37 PDT 2017 ON: 20.00 +20.0 20.05 -15.1 28.0 16.3 32.1 7 10 Alarm State:  0
Thu May 25 13:19:35 PDT 2017 ON: 20.00 +20.0 20.06 -15.4 27.6 16.5 32.0 8 9 Alarm State:  0
Thu May 25 13:18:34 PDT 2017 ON: 19.99 +20.0 20.04 -15.2 27.9 16.3 32.1 7 10 Alarm State:  0
Thu May 25 13:17:32 PDT 2017 ON: 19.99 +20.0 20.05 -15.1 28.0 16.3 32.1 7 9 Alarm State:  0
Thu May 25 13:16:31 PDT 2017 ON: 20.00 +20.0 20.06 -15.4 27.6 16.5 32.0 7 9 Alarm State:  0
Thu May 25 13:15:29 PDT 2017 ON: 20.00 +20.0 20.07 -15.3 27.7 16.5 32.0 7 9 Alarm State:  0
Thu May 25 13:14:28 PDT 2017 ON: 19.99 +20.0 20.04 -15.0 28.2 16.1 32.1 7 10 Alarm State:  0
Thu May 25 13:13:26 PDT 2017 ON: 20.00 +20.0 20.06 -15.3 27.7 16.5 31.9 7 9 Alarm State:  0
Thu May 25 13:12:25 PDT 2017 ON: 20.00 +20.0 20.05 -15.3 27.8 16.4 32.1 7 10 Alarm State:  0
Thu May 25 13:11:23 PDT 2017 ON: 19.99 +20.0 20.06 -15.3 27.7 16.5 32.0 7 9 Alarm State:  0
Thu May 25 13:10:22 PDT 2017 ON: 19.99 +20.0 20.05 -15.3 27.8 16.4 32.0 7 9 Alarm State:  0
Thu May 25 13:09:20 PDT 2017 ON: 20.00 +20.0 20.06 -15.5 27.4 16.7 31.7 7 9 Alarm State:  0
Thu May 25 13:08:19 PDT 2017 ON: 19.99 +20.0 20.06 -15.2 27.9 16.3 32.1 7 10 Alarm State:  0
Thu May 25 13:07:17 PDT 2017 ON: 19.99 +20.0 20.05 -15.3 27.8 16.4 32.1 7 10 Alarm State:  0
Thu May 25 13:06:16 PDT 2017 ON: 20.00 +20.0 20.04 -14.9 28.3 16.1 32.1 7 10 Alarm State:  0
Thu May 25 13:05:14 PDT 2017 ON: 20.00 +20.0 20.07 -15.3 27.7 16.5 32.0 7 9 Alarm State:  0
Thu May 25 13:04:13 PDT 2017 ON: 19.99 +20.0 20.06 -15.1 28.0 16.3 32.2 7 10 Alarm State:  0
Thu May 25 13:03:11 PDT 2017 ON: 19.99 +20.0 20.06 -15.3 27.8 16.4 32.0 7 9 Alarm State:  0
Thu May 25 13:02:10 PDT 2017 ON: 20.00 +20.0 20.05 -15.3 27.8 16.4 32.0 7 10 Alarm State:  0
Thu May 25 13:01:08 PDT 2017 ON: 20.00 +20.0 20.05 -15.0 28.2 16.1 32.1 7 10 Alarm State:  0
Thu May 25 13:00:07 PDT 2017 ON: 19.99 +20.0 20.06 -15.5 27.4 16.7 31.6 7 10 Alarm State:  0
Thu May 25 12:59:05 PDT 2017 ON: 19.99 +20.0 20.04 -15.0 28.2 16.1 32.2 7 10 Alarm State:  0
Thu May 25 12:58:04 PDT 2017 ON: 20.00 +20.0 20.06 -15.2 27.9 16.3 32.1 7 9 Alarm State:  0
Thu May 25 12:57:02 PDT 2017 ON: 20.00 +20.0 20.06 -15.3 27.7 16.5 32.0 7 10 Alarm State:  0
Thu May 25 12:56:01 PDT 2017 ON: 19.99 +20.0 20.06 -15.4 27.6 16.5 32.0 7 9 Alarm State:  0
Thu May 25 12:54:59 PDT 2017 ON: 19.99 +20.0 20.06 -15.5 27.5 16.6 31.9 7 9 Alarm State:  0
Thu May 25 12:53:58 PDT 2017 ON: 20.00 +20.0 20.05 -15.2 27.9 16.3 32.1 7 9 Alarm State:  0
Thu May 25 12:52:56 PDT 2017 ON: 20.00 +20.0 20.07 -15.4 27.6 16.5 31.7 7 9 Alarm State:  0
Thu May 25 12:51:55 PDT 2017 ON: 20.00 +20.0 20.06 -15.2 27.9 16.3 32.1 7 9 Alarm State:  0
Thu May 25 12:50:53 PDT 2017 ON: 19.99 +20.0 20.04 -15.2 27.9 16.3 32.0 7 10 Alarm State:  0
Thu May 25 12:49:52 PDT 2017 ON: 20.00 +20.0 20.06 -15.5 27.5 16.6 31.9 7 9 Alarm State:  0
Thu May 25 12:48:50 PDT 2017 ON: 20.00 +20.0 20.06 -15.1 28.1 16.2 32.2 7 9 Alarm State:  0
Thu May 25 12:47:49 PDT 2017 ON: 19.99 +20.0 20.04 -14.9 28.4 16.0 32.2 7 11 Alarm State:  0
Thu May 25 12:46:47 PDT 2017 ON: 19.99 +20.0 20.05 -15.2 27.9 16.3 32.1 7 9 Alarm State:  0
Thu May 25 12:45:46 PDT 2017 ON: 20.00 +20.0 20.04 -15.2 27.9 16.3 32.0 7 9 Alarm State:  0
Thu May 25 12:44:44 PDT 2017 ON: 20.01 +20.0 20.05 -15.3 27.8 16.4 31.9 7 10 Alarm State:  0
Thu May 25 12:43:43 PDT 2017 ON: 20.01 +20.0 20.06 -15.1 28.1 16.2 32.1 7 10 Alarm State:  0
Thu May 25 12:42:41 PDT 2017 ON: 19.99 +20.0 20.06 -14.9 28.4 16.0 32.1 7 10 Alarm State:  0
Thu May 25 12:41:40 PDT 2017 ON: 19.99 +20.0 20.06 -15.5 27.5 16.6 31.8 7 9 Alarm State:  0
Thu May 25 12:40:39 PDT 2017 ON: 19.99 +20.0 20.05 -15.3 27.8 16.4 32.0 7 9 Alarm State:  0
Thu May 25 12:39:37 PDT 2017 ON: 20.01 +20.0 20.06 -15.3 27.7 16.5 32.1 7 9 Alarm State:  0
Thu May 25 12:38:36 PDT 2017 ON: 20.00 +20.0 20.07 -15.6 27.3 16.8 31.7 7 9 Alarm State:  0
Thu May 25 12:37:34 PDT 2017 ON: 19.99 +20.0 20.04 -14.6 28.8 15.8 32.2 7 10 Alarm State:  0
Thu May 25 12:36:33 PDT 2017 ON: 19.99 +20.0 20.06 -15.5 27.5 16.6 32.0 7 9 Alarm State:  0
Thu May 25 12:35:31 PDT 2017 ON: 20.01 +20.0 20.06 -15.5 27.5 16.6 31.8 7 9 Alarm State:  0
Thu May 25 12:34:30 PDT 2017 ON: 19.99 +20.0 20.05 -15.1 28.1 16.2 32.1 7 10 Alarm State:  0
Thu May 25 12:33:28 PDT 2017 ON: 19.99 +20.0 20.05 -15.2 27.9 16.3 32.1 7 9 Alarm State:  0
Thu May 25 12:32:27 PDT 2017 ON: 20.00 +20.0 20.05 -15.0 28.2 16.1 32.2 7 10 Alarm State:  0
Thu May 25 12:31:25 PDT 2017 ON: 20.00 +20.0 20.07 -15.1 28.0 16.3 32.1 7 9 Alarm State:  0
Thu May 25 12:30:24 PDT 2017 ON: 19.99 +20.0 20.04 -14.9 28.3 16.1 32.2 7 10 Alarm State:  0
Thu May 25 12:29:22 PDT 2017 ON: 19.99 +20.0 20.04 -14.9 28.3 16.1 32.2 7 10 Alarm State:  0
Thu May 25 12:28:21 PDT 2017 ON: 20.01 +20.0 20.07 -15.3 27.7 16.5 32.0 7 9 Alarm State:  0
Thu May 25 12:27:19 PDT 2017 ON: 19.99 +20.0 20.06 -15.1 28.0 16.3 32.2 7 10 Alarm State:  0
Thu May 25 12:26:18 PDT 2017 ON: 19.98 +20.0 20.03 -15.3 27.7 16.5 32.0 7 10 Alarm State:  0
Thu May 25 12:25:16 PDT 2017 ON: 20.00 +20.0 20.04 -15.2 27.9 16.3 32.0 7 10 Alarm State:  0
Thu May 25 12:24:15 PDT 2017 ON: 20.00 +20.0 20.07 -15.4 27.6 16.5 32.0 8 9 Alarm State:  0
Thu May 25 12:23:13 PDT 2017 ON: 20.00 +20.0 20.05 -14.9 28.3 16.1 32.1 7 10 Alarm State:  0
Thu May 25 12:22:12 PDT 2017 ON: 20.00 +20.0 20.05 -15.0 28.2 16.1 32.0 7 10 Alarm State:  0
Thu May 25 12:21:10 PDT 2017 ON: 19.99 +20.0 20.05 -15.0 28.2 16.1 32.1 7 9 Alarm State:  0
Thu May 25 12:20:09 PDT 2017 ON: 20.01 +20.0 20.06 -15.2 27.9 16.3 32.0 7 9 Alarm State:  0
Thu May 25 12:19:07 PDT 2017 ON: 19.99 +20.0 20.06 -15.1 28.0 16.3 32.1 7 10 Alarm State:  0
Thu May 25 12:18:06 PDT 2017 ON: 19.99 +20.0 20.06 -15.1 28.1 16.2 32.1 7 9 Alarm State:  0
Thu May 25 12:17:04 PDT 2017 ON: 20.00 +20.0 20.05 -15.1 28.1 16.2 32.0 7 9 Alarm State:  0
Thu May 25 12:15:53 PDT 2017  Alarm State: 0
Thu May 25 12:15:53 PDT 2017 Chiller did not report ON, got this reading: 
Thu May 25 12:14:51 PDT 2017 ON: 20.00 +20.0 20.05 -15.3 27.7 16.5 32.0 7 10 Alarm State:  0
Thu May 25 12:13:50 PDT 2017 ON: 19.99 +20.0 20.04 -15.1 28.1 16.2 32.1 7 10 Alarm State:  0
Thu May 25 12:12:48 PDT 2017 ON: 20.00 +20.0 20.06 -15.5 27.5 16.6 32.0 7 9 Alarm State:  0
Thu May 25 12:11:47 PDT 2017 ON: 20.00 +20.0 20.07 -15.4 27.6 16.5 32.0 7 9 Alarm State:  0
Thu May 25 12:10:45 PDT 2017 ON: 19.99 +20.0 20.04 -15.1 28.1 16.2 32.1 7 10 Alarm State:  0
Thu May 25 12:09:44 PDT 2017 ON: 19.99 +20.0 20.04 -15.1 28.0 16.3 32.1 7 10 Alarm State:  0
Thu May 25 12:08:42 PDT 2017 ON: 20.01 +20.0 20.06 -15.4 27.6 16.5 31.7 7 9 Alarm State:  0
Thu May 25 12:07:41 PDT 2017 ON: 19.99 +20.0 20.06 -15.3 27.7 16.5 32.0 7 10 Alarm State:  0
Thu May 25 12:06:39 PDT 2017 ON: 19.99 +20.0 20.04 -15.3 27.8 16.4 32.0 7 10 Alarm State:  0
Thu May 25 12:05:38 PDT 2017 ON: 20.00 +20.0 20.05 -15.1 28.0 16.3 32.0 7 9 Alarm State:  0
Thu May 25 12:04:36 PDT 2017 ON: 20.00 +20.0 20.07 -15.3 27.7 16.5 32.0 7 9 Alarm State:  0
Thu May 25 12:03:35 PDT 2017 ON: 19.99 +20.0 20.05 -14.9 28.3 16.1 32.1 7 10 Alarm State:  0
Thu May 25 12:02:33 PDT 2017 ON: 19.99 +20.0 20.05 -15.3 27.8 16.4 32.1 7 9 Alarm State:  0
Thu May 25 12:01:32 PDT 2017 ON: 19.99 +20.0 20.04 -15.2 27.9 16.3 32.0 7 10 Alarm State:  0
Thu May 25 12:00:30 PDT 2017 ON: 19.99 +20.0 20.03 -14.9 28.3 16.1 32.2 7 11 Alarm State:  0
Thu May 25 11:59:29 PDT 2017 ON: 20.00 +20.0 20.05 -15.3 27.8 16.4 32.1 7 9 Alarm State:  0
Thu May 25 11:58:27 PDT 2017 ON: 19.99 +20.0 20.06 -15.2 27.9 16.3 32.1 7 9 Alarm State:  0
Thu May 25 11:57:26 PDT 2017 ON: 20.00 +20.0 20.05 -15.3 27.8 16.4 32.0 7 10 Alarm State:  0
Thu May 25 11:56:24 PDT 2017 ON: 20.00 +20.0 20.06 -15.1 28.1 16.2 32.1 7 9 Alarm State:  0
Thu May 25 11:55:23 PDT 2017 ON: 19.99 +20.0 20.05 -15.0 28.2 16.1 32.2 7 10 Alarm State:  0
Thu May 25 11:54:21 PDT 2017 ON: 19.99 +20.0 20.05 -15.2 27.9 16.3 32.0 7 10 Alarm State:  0
Thu May 25 11:53:20 PDT 2017 ON: 20.00 +20.0 20.05 -15.4 27.6 16.5 32.0 7 9 Alarm State:  0
Thu May 25 11:52:18 PDT 2017 ON: 19.99 +20.0 20.07 -15.5 27.5 16.6 31.9 7 9 Alarm State:  0
Thu May 25 11:51:17 PDT 2017 ON: 20.00 +20.0 20.05 -15.3 27.7 16.5 32.1 7 9 Alarm State:  0
Thu May 25 11:50:15 PDT 2017 ON: 20.00 +20.0 20.06 -15.4 27.6 16.5 32.0 7 9 Alarm State:  0
Thu May 25 11:49:14 PDT 2017 ON: 19.99 +20.0 20.05 -15.3 27.8 16.4 32.0 7 10 Alarm State:  0
Thu May 25 11:48:03 PDT 2017  Alarm State: 0
Thu May 25 11:48:03 PDT 2017 Chiller did not report ON, got this reading: 
Thu May 25 11:47:01 PDT 2017 ON: 20.00 +20.0 20.07 -15.1 28.0 16.3 32.1 7 9 Alarm State:  0
Thu May 25 11:45:59 PDT 2017 ON: 20.00 +20.0 20.06 -15.1 28.1 16.2 32.0 7 10 Alarm State:  0
Thu May 25 11:44:58 PDT 2017 ON: 19.99 +20.0 20.04 -15.0 28.2 16.1 32.1 7 11 Alarm State:  0
Thu May 25 11:43:56 PDT 2017 ON: 19.99 +20.0 20.03 -14.9 28.4 16.0 32.2 7 10 Alarm State:  0
Thu May 25 11:42:55 PDT 2017 ON: 20.01 +20.0 20.08 -15.5 27.5 16.6 32.0 8 8 Alarm State:  0
Thu May 25 11:41:53 PDT 2017 ON: 19.99 +20.0 20.06 -15.1 28.1 16.2 32.1 7 10 Alarm State:  0
Thu May 25 11:40:52 PDT 2017 ON: 19.99 +20.0 20.05 -15.1 28.0 16.3 32.0 7 10 Alarm State:  0
Thu May 25 11:39:50 PDT 2017 ON: 19.99 +20.0 20.05 -15.0 28.2 16.1 32.1 7 9 Alarm State:  0
Thu May 25 11:38:49 PDT 2017 ON: 20.01 +20.0 20.06 -15.1 28.1 16.2 32.1 7 9 Alarm State:  0
Thu May 25 11:37:47 PDT 2017 ON: 19.99 +20.0 20.05 -15.1 28.0 16.3 32.1 7 10 Alarm State:  0
Thu May 25 11:36:46 PDT 2017 ON: 19.99 +20.0 20.04 -15.1 28.0 16.3 32.1 7 10 Alarm State:  0
Thu May 25 11:35:44 PDT 2017 ON: 20.00 +20.0 20.04 -15.1 28.1 16.2 32.1 7 10 Alarm State:  0
Thu May 25 11:34:43 PDT 2017 ON: 20.00 +20.0 20.07 -15.3 27.8 16.4 32.1 7 9 Alarm State:  0
Thu May 25 11:33:41 PDT 2017 ON: 19.99 +20.0 20.04 -15.1 28.0 16.3 32.1 7 11 Alarm State:  0
Thu May 25 11:32:40 PDT 2017 ON: 19.99 +20.0 20.04 -15.3 27.8 16.4 32.1 7 10 Alarm State:  0
Thu May 25 11:31:38 PDT 2017 ON: 20.00 +20.0 20.06 -15.5 27.5 16.6 32.0 7 9 Alarm State:  0
Thu May 25 11:30:37 PDT 2017 ON: 20.00 +20.0 20.07 -15.1 28.0 16.3 32.1 7 9 Alarm State:  0
Thu May 25 11:29:36 PDT 2017 ON: 19.99 +20.0 20.06 -15.1 28.1 16.2 32.2 7 10 Alarm State:  0
Thu May 25 11:28:34 PDT 2017 ON: 19.99 +20.0 20.04 -15.1 28.1 16.2 32.1 7 10 Alarm State:  0
Thu May 25 11:27:33 PDT 2017 ON: 20.00 +20.0 20.05 -15.3 27.7 16.5 32.0 7 10 Alarm State:  0
Thu May 25 11:26:31 PDT 2017 ON: 20.00 +20.0 20.08 -15.5 27.5 16.6 31.9 8 9 Alarm State:  0
Thu May 25 11:25:30 PDT 2017 ON: 19.99 +20.0 20.03 -14.7 28.7 15.8 32.2 7 11 Alarm State:  0
Thu May 25 11:24:28 PDT 2017 ON: 20.00 +20.0 20.04 -15.1 28.1 16.2 32.0 7 10 Alarm State:  0
Thu May 25 11:23:27 PDT 2017 ON: 20.00 +20.0 20.07 -15.3 27.8 16.4 32.1 7 9 Alarm State:  0
Thu May 25 11:22:25 PDT 2017 ON: 19.99 +20.0 20.05 -15.2 27.9 16.3 32.1 7 10 Alarm State:  0
Thu May 25 11:21:24 PDT 2017 ON: 19.99 +20.0 20.03 -15.1 28.0 16.3 32.1 7 10 Alarm State:  0
Thu May 25 11:20:22 PDT 2017 ON: 20.00 +20.0 20.05 -15.1 28.1 16.2 32.1 7 10 Alarm State:  0
Thu May 25 11:19:21 PDT 2017 ON: 20.01 +20.0 20.08 -15.9 26.9 17.0 31.4 7 9 Alarm State:  0
Thu May 25 11:18:19 PDT 2017 ON: 19.99 +20.0 20.07 -15.4 27.6 16.5 32.0 8 9 Alarm State:  0
Thu May 25 11:17:18 PDT 2017 ON: 19.99 +20.0 20.05 -15.3 27.7 16.5 32.0 7 9 Alarm State:  0
Thu May 25 11:16:16 PDT 2017 ON: 20.00 +20.0 20.05 -15.3 27.7 16.5 32.0 7 10 Alarm State:  0
Thu May 25 11:15:15 PDT 2017 ON: 19.99 +20.0 20.05 -15.2 27.9 16.3 32.1 7 10 Alarm State:  0
Thu May 25 11:14:13 PDT 2017 ON: 19.99 +20.0 20.04 -15.1 28.0 16.3 32.1 7 10 Alarm State:  0
Thu May 25 11:13:12 PDT 2017 ON: 20.00 +20.0 20.05 -15.5 27.5 16.6 31.7 7 9 Alarm State:  0
Thu May 25 11:12:10 PDT 2017 ON: 20.00 +20.0 20.06 -15.0 28.2 16.1 32.2 7 9 Alarm State:  0
Thu May 25 11:11:09 PDT 2017 ON: 19.99 +20.0 20.07 -15.3 27.8 16.4 32.1 7 9 Alarm State:  0
Thu May 25 11:10:07 PDT 2017 ON: 19.99 +20.0 20.04 -15.0 28.2 16.1 32.2 7 10 Alarm State:  0
Thu May 25 11:09:06 PDT 2017 ON: 20.00 +20.0 20.05 -15.2 27.9 16.3 32.0 7 9 Alarm State:  0
Thu May 25 11:08:04 PDT 2017 ON: 20.00 +20.0 20.06 -15.2 27.9 16.3 32.0 7 9 Alarm State:  0
Thu May 25 11:07:03 PDT 2017 ON: 19.99 +20.0 20.06 -15.2 27.9 16.3 32.1 7 10 Alarm State:  0
Thu May 25 11:06:01 PDT 2017 ON: 19.99 +20.0 20.04 -15.1 28.1 16.2 32.1 7 10 Alarm State:  0
Thu May 25 11:05:00 PDT 2017 ON: 20.00 +20.0 20.06 -15.5 27.5 16.6 31.9 7 9 Alarm State:  0
Thu May 25 11:03:58 PDT 2017 ON: 20.00 +20.0 20.07 -15.4 27.6 16.5 32.0 8 9 Alarm State:  0
Thu May 25 11:02:57 PDT 2017 ON: 19.99 +20.0 20.05 -15.3 27.8 16.4 32.0 7 10 Alarm State:  0
Thu May 25 11:01:55 PDT 2017 ON: 19.99 +20.0 20.04 -14.9 28.4 16.0 32.2 7 10 Alarm State:  0
Thu May 25 11:00:54 PDT 2017 ON: 20.00 +20.0 20.05 -15.2 27.9 16.3 32.0 7 9 Alarm State:  0
Thu May 25 10:59:52 PDT 2017 ON: 20.00 +20.0 20.07 -15.1 28.0 16.3 32.1 7 9 Alarm State:  0
Thu May 25 10:58:51 PDT 2017 ON: 20.00 +20.0 20.06 -14.9 28.4 16.0 32.2 7 10 Alarm State:  0
Thu May 25 10:57:49 PDT 2017 ON: 19.99 +20.0 20.05 -15.1 28.0 16.3 32.0 7 10 Alarm State:  0
Thu May 25 10:56:48 PDT 2017 ON: 19.99 +20.0 20.04 -15.1 28.0 16.3 32.0 7 10 Alarm State:  0
Thu May 25 10:55:46 PDT 2017 ON: 20.00 +20.0 20.05 -15.2 27.9 16.3 32.1 7 9 Alarm State:  0
Thu May 25 10:54:45 PDT 2017 ON: 20.00 +20.0 20.06 -15.3 27.7 16.5 32.0 7 9 Alarm State:  0
Thu May 25 10:53:43 PDT 2017 ON: 19.99 +20.0 20.05 -15.2 27.9 16.3 32.1 7 10 Alarm State:  0
Thu May 25 10:52:32 PDT 2017  Alarm State: 0
Thu May 25 10:52:32 PDT 2017 Chiller did not report ON, got this reading: 
Thu May 25 10:51:31 PDT 2017 ON: 19.99 +20.0 20.06 -15.3 27.7 16.5 32.0 7 9 Alarm State:  0
Thu May 25 10:50:29 PDT 2017 ON: 20.00 +20.0 20.04 -14.9 28.3 16.1 32.1 7 10 Alarm State:  0
Thu May 25 10:49:28 PDT 2017 ON: 20.00 +20.0 20.06 -15.4 27.6 16.5 31.9 7 9 Alarm State:  0
Thu May 25 10:48:26 PDT 2017 ON: 19.99 +20.0 20.06 -15.1 28.0 16.3 32.1 7 10 Alarm State:  0
Thu May 25 10:47:25 PDT 2017 ON: 19.99 +20.0 20.04 -15.1 28.1 16.2 32.2 7 10 Alarm State:  0
Thu May 25 10:46:23 PDT 2017 ON: 20.00 +20.0 20.06 -15.2 27.9 16.3 32.1 7 9 Alarm State:  0
Thu May 25 10:45:22 PDT 2017 ON: 20.00 +20.0 20.04 -14.9 28.4 16.0 32.1 7 10 Alarm State:  0
Thu May 25 10:44:20 PDT 2017 ON: 20.00 +20.0 20.05 -15.3 27.8 16.4 32.0 7 10 Alarm State:  0
Thu May 25 10:43:19 PDT 2017 ON: 20.00 +20.0 20.05 -15.4 27.6 16.5 31.8 7 9 Alarm State:  0
Thu May 25 10:42:17 PDT 2017 ON: 20.00 +20.0 20.05 -15.0 28.2 16.1 32.1 7 10 Alarm State:  0
Thu May 25 10:41:16 PDT 2017 ON: 20.00 +20.0 20.05 -15.1 28.0 16.3 32.1 7 10 Alarm State:  0
Thu May 25 10:40:14 PDT 2017 ON: 20.00 +20.0 20.07 -15.1 28.1 16.2 32.0 7 9 Alarm State:  0
Thu May 25 10:39:13 PDT 2017 ON: 19.99 +20.0 20.05 -15.1 28.0 16.3 32.1 7 10 Alarm State:  0
Thu May 25 10:38:11 PDT 2017 ON: 19.99 +20.0 20.05 -15.2 27.9 16.3 32.1 7 9 Alarm State:  0
Thu May 25 10:37:10 PDT 2017 ON: 20.00 +20.0 20.06 -15.3 27.8 16.4 32.0 7 9 Alarm State:  0
Thu May 25 10:36:08 PDT 2017 ON: 20.01 +20.0 20.07 -15.4 27.6 16.5 31.8 7 9 Alarm State:  0
Thu May 25 10:35:07 PDT 2017 ON: 19.99 +20.0 20.05 -14.9 28.3 16.1 32.2 7 10 Alarm State:  0
Thu May 25 10:34:05 PDT 2017 ON: 19.98 +20.0 20.04 -14.9 28.3 16.1 32.2 7 10 Alarm State:  0
Thu May 25 10:33:04 PDT 2017 ON: 20.00 +20.0 20.06 -15.3 27.7 16.5 32.0 7 9 Alarm State:  0
Thu May 25 10:32:02 PDT 2017 ON: 20.01 +20.0 20.04 -15.1 28.1 16.2 32.1 7 10 Alarm State:  0
Thu May 25 10:31:01 PDT 2017 ON: 19.99 +20.0 20.06 -15.2 27.9 16.3 32.1 7 10 Alarm State:  0
Thu May 25 10:29:59 PDT 2017 ON: 19.99 +20.0 20.05 -15.2 27.9 16.3 32.1 7 9 Alarm State:  0
Thu May 25 10:28:58 PDT 2017 ON: 20.00 +20.0 20.06 -15.2 27.9 16.3 32.0 7 10 Alarm State:  0
Thu May 25 10:27:56 PDT 2017 ON: 19.99 +20.0 20.05 -15.3 27.8 16.4 32.1 7 10 Alarm State:  0
Thu May 25 10:26:55 PDT 2017 ON: 20.00 +20.0 20.06 -15.2 27.9 16.3 32.0 7 9 Alarm State:  0
Thu May 25 10:25:53 PDT 2017 ON: 20.00 +20.0 20.06 -15.1 28.0 16.3 32.1 7 9 Alarm State:  0
Thu May 25 10:24:52 PDT 2017 ON: 19.99 +20.0 20.06 -15.1 28.1 16.2 32.1 7 10 Alarm State:  0
Thu May 25 10:23:50 PDT 2017 ON: 19.99 +20.0 20.04 -15.2 27.9 16.3 32.1 7 10 Alarm State:  0
Thu May 25 10:22:49 PDT 2017 ON: 20.00 +20.0 20.05 -15.3 27.7 16.5 32.0 7 9 Alarm State:  0
Thu May 25 10:21:47 PDT 2017 ON: 20.00 +20.0 20.05 -15.3 27.8 16.4 31.8 7 10 Alarm State:  0
Thu May 25 10:20:46 PDT 2017 ON: 19.98 +20.0 20.04 -14.8 28.5 16.0 32.2 7 10 Alarm State:  0
Thu May 25 10:19:44 PDT 2017 ON: 19.99 +20.0 20.05 -15.3 27.8 16.4 32.0 7 9 Alarm State:  0
Thu May 25 10:18:43 PDT 2017 ON: 20.00 +20.0 20.05 -15.1 28.0 16.3 32.0 7 10 Alarm State:  0
Thu May 25 10:17:41 PDT 2017 ON: 19.99 +20.0 20.05 -15.3 27.8 16.4 32.0 7 10 Alarm State:  0
Thu May 25 10:16:40 PDT 2017 ON: 19.99 +20.0 20.04 -15.3 27.8 16.4 32.0 7 10 Alarm State:  0
Thu May 25 10:15:38 PDT 2017 ON: 20.00 +20.0 20.07 -15.3 27.8 16.4 32.1 7 9 Alarm State:  0
Thu May 25 10:14:37 PDT 2017 ON: 20.00 +20.0 20.06 -15.3 27.7 16.5 32.0 7 10 Alarm State:  0
Thu May 25 10:13:35 PDT 2017 ON: 19.99 +20.0 20.05 -15.2 27.9 16.3 32.1 7 10 Alarm State:  0
Thu May 25 10:12:34 PDT 2017 ON: 19.99 +20.0 20.05 -15.2 27.9 16.3 32.0 7 9 Alarm State:  0
Thu May 25 10:11:32 PDT 2017 ON: 19.99 +20.0 20.05 -15.1 28.0 16.3 32.2 7 10 Alarm State:  0
Thu May 25 10:10:31 PDT 2017 ON: 20.00 +20.0 20.08 -15.4 27.6 16.5 32.0 7 9 Alarm State:  0
Thu May 25 10:09:29 PDT 2017 ON: 19.98 +20.0 20.05 -15.2 27.9 16.3 32.1 7 10 Alarm State:  0
Thu May 25 10:08:28 PDT 2017 ON: 19.99 +20.0 20.04 -15.3 27.8 16.4 32.1 7 10 Alarm State:  0
Thu May 25 10:07:26 PDT 2017 ON: 20.00 +20.0 20.06 -14.9 28.3 16.1 32.2 7 9 Alarm State:  0
Thu May 25 10:06:25 PDT 2017 ON: 19.99 +20.0 20.05 -15.3 27.8 16.4 32.0 7 10 Alarm State:  0
Thu May 25 10:05:23 PDT 2017 ON: 19.99 +20.0 20.05 -15.1 28.0 16.3 32.1 7 9 Alarm State:  0
Thu May 25 10:04:22 PDT 2017 ON: 20.00 +20.0 20.06 -15.3 27.8 16.4 32.1 7 9 Alarm State:  0
Thu May 25 10:03:20 PDT 2017 ON: 19.99 +20.0 20.04 -15.0 28.2 16.1 32.2 7 11 Alarm State:  0
Thu May 25 10:02:19 PDT 2017 ON: 19.99 +20.0 20.05 -15.2 27.9 16.3 32.1 7 10 Alarm State:  0
Thu May 25 10:01:17 PDT 2017 ON: 20.00 +20.0 20.06 -15.4 27.6 16.5 32.0 7 9 Alarm State:  0
Thu May 25 10:00:16 PDT 2017 ON: 20.00 +20.0 20.07 -15.4 27.6 16.5 31.9 7 9 Alarm State:  0
Thu May 25 09:59:14 PDT 2017 ON: 19.99 +20.0 20.07 -15.3 27.8 16.4 32.1 7 9 Alarm State:  0
Thu May 25 09:58:13 PDT 2017 ON: 20.00 +20.0 20.05 -15.1 28.1 16.2 32.1 7 9 Alarm State:  0
Thu May 25 09:57:11 PDT 2017 ON: 20.00 +20.0 20.05 -14.8 28.5 16.0 32.2 7 10 Alarm State:  0
Thu May 25 09:56:10 PDT 2017 ON: 19.99 +20.0 20.05 -15.3 27.7 16.5 32.0 7 10 Alarm State:  0
Thu May 25 09:55:08 PDT 2017 ON: 20.00 +20.0 20.05 -15.0 28.2 16.1 32.1 7 9 Alarm State:  0
Thu May 25 09:54:07 PDT 2017 ON: 20.00 +20.0 20.06 -15.3 27.8 16.4 32.1 7 9 Alarm State:  0
Thu May 25 09:53:05 PDT 2017 ON: 20.00 +20.0 20.06 -15.5 27.5 16.6 32.0 7 9 Alarm State:  0
Thu May 25 09:52:04 PDT 2017 ON: 19.99 +20.0 20.05 -15.3 27.8 16.4 32.0 7 10 Alarm State:  0
Thu May 25 09:51:02 PDT 2017 ON: 20.00 +20.0 20.06 -15.3 27.7 16.5 32.0 7 9 Alarm State:  0
Thu May 25 09:50:01 PDT 2017 ON: 20.00 +20.0 20.06 -15.3 27.8 16.4 32.0 7 10 Alarm State:  0
Thu May 25 09:48:59 PDT 2017 ON: 19.99 +20.0 20.06 -15.3 27.7 16.5 32.0 7 9 Alarm State:  0
Thu May 25 09:47:58 PDT 2017 ON: 19.99 +20.0 20.04 -15.1 28.1 16.2 32.1 7 10 Alarm State:  0
Thu May 25 09:46:56 PDT 2017 ON: 20.00 +20.0 20.06 -15.3 27.8 16.4 32.0 7 10 Alarm State:  0
Thu May 25 09:45:55 PDT 2017 ON: 20.00 +20.0 20.07 -15.2 27.9 16.3 32.1 7 9 Alarm State:  0
Thu May 25 09:44:53 PDT 2017 ON: 19.99 +20.0 20.05 -15.2 27.9 16.3 32.0 7 10 Alarm State:  0
Thu May 25 09:43:52 PDT 2017 ON: 20.00 +20.0 20.05 -15.2 27.9 16.3 32.1 7 10 Alarm State:  0
Thu May 25 09:42:50 PDT 2017 ON: 19.99 +20.0 20.04 -15.1 28.1 16.2 32.2 7 10 Alarm State:  0
Thu May 25 09:41:49 PDT 2017 ON: 20.00 +20.0 20.05 -15.0 28.2 16.1 32.1 7 10 Alarm State:  0
Thu May 25 09:40:47 PDT 2017 ON: 20.00 +20.0 20.05 -15.1 28.0 16.3 32.1 7 10 Alarm State:  0
Thu May 25 09:39:46 PDT 2017 ON: 19.99 +20.0 20.05 -15.3 27.7 16.5 32.0 7 9 Alarm State:  0
Thu May 25 09:38:34 PDT 2017  Alarm State: 0
Thu May 25 09:38:34 PDT 2017 Chiller did not report ON, got this reading: 
Thu May 25 09:37:33 PDT 2017 ON: 20.00 +20.0 20.06 -15.3 27.7 16.5 32.0 7 10 Alarm State:  0
Thu May 25 09:36:31 PDT 2017 ON: 19.98 +20.0 20.05 -15.2 27.9 16.3 32.1 7 10 Alarm State:  0
Thu May 25 09:35:30 PDT 2017 ON: 19.99 +20.0 20.04 -15.3 27.8 16.4 32.1 7 9 Alarm State:  0
Thu May 25 09:34:28 PDT 2017 ON: 20.00 +20.0 20.06 -15.4 27.6 16.5 32.0 7 9 Alarm State:  0
Thu May 25 09:33:27 PDT 2017 ON: 20.00 +20.0 20.06 -15.5 27.5 16.6 32.0 8 9 Alarm State:  0
Thu May 25 09:32:25 PDT 2017 ON: 19.99 +20.0 20.06 -15.1 28.0 16.3 32.1 7 10 Alarm State:  0
Thu May 25 09:31:24 PDT 2017 ON: 20.00 +20.0 20.06 -15.3 27.7 16.5 32.0 7 9 Alarm State:  0
Thu May 25 09:30:22 PDT 2017 ON: 20.01 +20.0 20.06 -15.1 28.0 16.3 32.1 7 9 Alarm State:  0
Thu May 25 09:29:21 PDT 2017 ON: 19.99 +20.0 20.07 -15.5 27.5 16.6 31.9 7 10 Alarm State:  0
Thu May 25 09:28:19 PDT 2017 ON: 19.99 +20.0 20.04 -15.0 28.2 16.1 32.1 7 10 Alarm State:  0
Thu May 25 09:27:18 PDT 2017 ON: 19.99 +20.0 20.03 -15.1 28.0 16.3 32.0 7 10 Alarm State:  0
Thu May 25 09:26:16 PDT 2017 ON: 20.00 +20.0 20.06 -15.7 27.1 16.9 31.6 7 9 Alarm State:  0
Thu May 25 09:25:15 PDT 2017 ON: 20.00 +20.0 20.07 -15.3 27.7 16.5 32.0 7 9 Alarm State:  0
Thu May 25 09:24:13 PDT 2017 ON: 19.99 +20.0 20.06 -15.1 28.1 16.2 32.1 7 10 Alarm State:  0
Thu May 25 09:23:12 PDT 2017 ON: 19.99 +20.0 20.05 -15.0 28.2 16.1 32.1 7 10 Alarm State:  0
Thu May 25 09:22:10 PDT 2017 ON: 20.00 +20.0 20.04 -14.8 28.5 16.0 32.2 7 10 Alarm State:  0
Thu May 25 09:21:09 PDT 2017 ON: 19.99 +20.0 20.08 -15.5 27.4 16.7 31.8 7 9 Alarm State:  0
Thu May 25 09:20:07 PDT 2017 ON: 19.99 +20.0 20.05 -15.1 28.0 16.3 32.1 7 10 Alarm State:  0
Thu May 25 09:19:06 PDT 2017 ON: 19.99 +20.0 20.04 -15.2 27.9 16.3 32.0 7 10 Alarm State:  0
Thu May 25 09:18:04 PDT 2017 ON: 19.99 +20.0 20.04 -15.3 27.7 16.5 32.0 7 10 Alarm State:  0
Thu May 25 09:17:03 PDT 2017 ON: 19.99 +20.0 20.04 -14.9 28.4 16.0 32.2 7 10 Alarm State:  0
Thu May 25 09:16:01 PDT 2017 ON: 20.00 +20.0 20.07 -15.3 27.7 16.5 32.0 7 9 Alarm State:  0
Thu May 25 09:15:00 PDT 2017 ON: 19.99 +20.0 20.06 -15.3 27.7 16.5 32.0 7 9 Alarm State:  0
Thu May 25 09:13:58 PDT 2017 ON: 19.99 +20.0 20.04 -15.2 27.9 16.3 32.1 7 10 Alarm State:  0
Thu May 25 09:12:57 PDT 2017 ON: 20.00 +20.0 20.06 -15.0 28.2 16.1 32.1 7 9 Alarm State:  0
Thu May 25 09:11:55 PDT 2017 ON: 20.00 +20.0 20.06 -15.5 27.5 16.6 31.8 7 10 Alarm State:  0
Thu May 25 09:10:54 PDT 2017 ON: 19.99 +20.0 20.04 -14.7 28.6 15.9 32.2 7 11 Alarm State:  0
Thu May 25 09:09:52 PDT 2017 ON: 19.99 +20.0 20.03 -15.1 28.1 16.2 32.1 7 10 Alarm State:  0
Thu May 25 09:08:51 PDT 2017 ON: 20.00 +20.0 20.04 -15.2 27.9 16.3 32.0 7 10 Alarm State:  0
Thu May 25 09:07:49 PDT 2017 ON: 19.99 +20.0 20.05 -15.1 28.0 16.3 32.1 7 10 Alarm State:  0
Thu May 25 09:06:48 PDT 2017 ON: 20.00 +20.0 20.06 -15.2 27.9 16.3 31.9 7 10 Alarm State:  0
Thu May 25 09:05:46 PDT 2017 ON: 19.99 +20.0 20.05 -15.2 27.9 16.3 32.0 7 10 Alarm State:  0
Thu May 25 09:04:45 PDT 2017 ON: 20.00 +20.0 20.06 -15.4 27.6 16.5 32.0 7 9 Alarm State:  0
Thu May 25 09:03:43 PDT 2017 ON: 20.00 +20.0 20.05 -14.9 28.3 16.1 32.1 7 10 Alarm State:  0
Thu May 25 09:02:42 PDT 2017 ON: 19.99 +20.0 20.05 -15.0 28.2 16.1 32.1 7 10 Alarm State:  0
Thu May 25 09:01:40 PDT 2017 ON: 20.00 +20.0 20.04 -15.0 28.2 16.1 32.1 7 10 Alarm State:  0
Thu May 25 09:00:39 PDT 2017 ON: 19.99 +20.0 20.05 -15.3 27.8 16.4 32.0 7 10 Alarm State:  0
Thu May 25 08:59:37 PDT 2017 ON: 20.00 +20.0 20.05 -15.3 27.7 16.5 32.0 7 9 Alarm State:  0
Thu May 25 08:58:36 PDT 2017 ON: 19.99 +20.0 20.05 -15.5 27.5 16.6 31.8 7 10 Alarm State:  0
Thu May 25 08:57:34 PDT 2017 ON: 19.99 +20.0 20.05 -15.2 27.9 16.3 32.1 8 10 Alarm State:  0
Thu May 25 08:56:33 PDT 2017 ON: 20.00 +20.0 20.06 -15.2 27.9 16.3 32.0 7 9 Alarm State:  0
Thu May 25 08:55:31 PDT 2017 ON: 20.00 +20.0 20.06 -15.2 27.9 16.3 32.1 7 10 Alarm State:  0
Thu May 25 08:54:30 PDT 2017 ON: 19.99 +20.0 20.05 -15.3 27.8 16.4 32.0 7 9 Alarm State:  0
Thu May 25 08:53:29 PDT 2017 ON: 20.00 +20.0 20.05 -15.3 27.8 16.4 32.0 7 9 Alarm State:  0
Thu May 25 08:52:27 PDT 2017 ON: 20.00 +20.0 20.06 -15.5 27.5 16.6 31.8 7 9 Alarm State:  0
Thu May 25 08:51:26 PDT 2017 ON: 19.99 +20.0 20.04 -15.3 27.7 16.5 31.8 7 11 Alarm State:  0
Thu May 25 08:50:24 PDT 2017 ON: 19.99 +20.0 20.05 -15.1 28.0 16.3 32.1 7 9 Alarm State:  0
Thu May 25 08:49:23 PDT 2017 ON: 20.00 +20.0 20.06 -15.5 27.4 16.7 31.9 7 9 Alarm State:  0
Thu May 25 08:48:21 PDT 2017 ON: 20.00 +20.0 20.05 -15.1 28.0 16.3 32.1 7 10 Alarm State:  0
Thu May 25 08:47:10 PDT 2017  Alarm State: 0
Thu May 25 08:47:10 PDT 2017 Chiller did not report ON, got this reading: 
Thu May 25 08:46:08 PDT 2017 ON: 20.00 +20.0 20.04 -14.9 28.3 16.1 32.2 7 10 Alarm State:  0
Thu May 25 08:45:07 PDT 2017 ON: 20.00 +20.0 20.07 -15.3 27.7 16.5 32.0 7 9 Alarm State:  0
Thu May 25 08:44:05 PDT 2017 ON: 19.99 +20.0 20.05 -15.1 28.0 16.3 32.1 7 10 Alarm State:  0
Thu May 25 08:43:04 PDT 2017 ON: 20.00 +20.0 20.06 -15.1 28.0 16.3 32.1 7 9 Alarm State:  0
Thu May 25 08:42:02 PDT 2017 ON: 19.99 +20.0 20.05 -15.4 27.6 16.5 32.0 7 9 Alarm State:  0
Thu May 25 08:41:01 PDT 2017 ON: 20.00 +20.0 20.04 -14.9 28.3 16.1 32.1 7 10 Alarm State:  0
Thu May 25 08:39:59 PDT 2017 ON: 20.00 +20.0 20.05 -15.3 27.8 16.4 32.0 7 10 Alarm State:  0
Thu May 25 08:38:58 PDT 2017 ON: 19.99 +20.0 20.06 -15.3 27.8 16.4 32.0 7 9 Alarm State:  0
Thu May 25 08:37:56 PDT 2017 ON: 19.99 +20.0 20.04 -14.9 28.4 16.0 32.2 7 10 Alarm State:  0
Thu May 25 08:36:55 PDT 2017 ON: 20.00 +20.0 20.06 -15.3 27.8 16.4 32.0 7 9 Alarm State:  0
Thu May 25 08:35:53 PDT 2017 ON: 20.00 +20.0 20.06 -15.1 28.0 16.3 32.1 7 10 Alarm State:  0
Thu May 25 08:34:52 PDT 2017 ON: 19.99 +20.0 20.04 -15.2 27.9 16.3 32.0 7 10 Alarm State:  0
Thu May 25 08:33:50 PDT 2017 ON: 20.00 +20.0 20.05 -15.3 27.7 16.5 32.0 7 9 Alarm State:  0
Thu May 25 08:32:49 PDT 2017 ON: 20.00 +20.0 20.06 -15.4 27.6 16.5 32.0 7 9 Alarm State:  0
Thu May 25 08:31:47 PDT 2017 ON: 20.00 +20.0 20.05 -15.0 28.2 16.1 32.1 7 10 Alarm State:  0
Thu May 25 08:30:46 PDT 2017 ON: 19.99 +20.0 20.06 -15.4 27.6 16.5 31.7 7 10 Alarm State:  0
Thu May 25 08:29:44 PDT 2017 ON: 19.99 +20.0 20.05 -15.2 27.9 16.3 32.1 7 10 Alarm State:  0
Thu May 25 08:28:43 PDT 2017 ON: 19.99 +20.0 20.05 -15.3 27.8 16.4 31.9 7 9 Alarm State:  0
Thu May 25 08:27:41 PDT 2017 ON: 20.00 +20.0 20.06 -15.5 27.4 16.7 31.8 7 9 Alarm State:  0
Thu May 25 08:26:40 PDT 2017 ON: 20.00 +20.0 20.06 -15.3 27.8 16.4 32.0 7 10 Alarm State:  0
Thu May 25 08:25:38 PDT 2017 ON: 19.99 +20.0 20.05 -15.1 28.1 16.2 32.1 7 10 Alarm State:  0
Thu May 25 08:24:37 PDT 2017 ON: 19.99 +20.0 20.04 -15.0 28.2 16.1 32.1 7 10 Alarm State:  0
Thu May 25 08:23:35 PDT 2017 ON: 20.00 +20.0 20.06 -15.3 27.7 16.5 32.0 7 9 Alarm State:  0
Thu May 25 08:22:34 PDT 2017 ON: 20.00 +20.0 20.07 -15.2 27.9 16.3 32.1 7 9 Alarm State:  0
Thu May 25 08:21:32 PDT 2017 ON: 20.00 +20.0 20.06 -15.1 28.0 16.3 32.1 7 10 Alarm State:  0
Thu May 25 08:20:31 PDT 2017 ON: 19.99 +20.0 20.06 -15.3 27.8 16.4 32.0 7 9 Alarm State:  0
Thu May 25 08:19:29 PDT 2017 ON: 19.99 +20.0 20.04 -15.3 27.7 16.5 31.9 7 10 Alarm State:  0
Thu May 25 08:18:28 PDT 2017 ON: 20.00 +20.0 20.04 -14.7 28.6 15.9 32.2 7 10 Alarm State:  0
Thu May 25 08:17:26 PDT 2017 ON: 20.00 +20.0 20.05 -15.1 28.1 16.2 32.0 7 10 Alarm State:  0
Thu May 25 08:16:25 PDT 2017 ON: 19.99 +20.0 20.07 -15.5 27.5 16.6 31.9 7 9 Alarm State:  0
Thu May 25 08:15:23 PDT 2017 ON: 19.99 +20.0 20.04 -15.2 27.9 16.3 32.1 7 10 Alarm State:  0
Thu May 25 08:14:22 PDT 2017 ON: 20.00 +20.0 20.06 -15.0 28.2 16.1 32.1 7 9 Alarm State:  0
Thu May 25 08:13:20 PDT 2017 ON: 20.00 +20.0 20.06 -15.1 28.1 16.2 32.1 7 10 Alarm State:  0
Thu May 25 08:12:19 PDT 2017 ON: 19.99 +20.0 20.05 -15.2 27.9 16.3 32.1 7 10 Alarm State:  0
Thu May 25 08:11:17 PDT 2017 ON: 19.99 +20.0 20.05 -15.3 27.8 16.4 32.0 7 10 Alarm State:  0
Thu May 25 08:10:16 PDT 2017 ON: 19.99 +20.0 20.04 -14.9 28.4 16.0 32.1 7 10 Alarm State:  0
Thu May 25 08:09:14 PDT 2017 ON: 20.00 +20.0 20.06 -15.4 27.6 16.5 32.0 7 9 Alarm State:  0
Thu May 25 08:08:13 PDT 2017 ON: 20.00 +20.0 20.07 -15.3 27.7 16.5 31.9 7 9 Alarm State:  0
Thu May 25 08:07:11 PDT 2017 ON: 19.99 +20.0 20.06 -15.1 28.1 16.2 32.1 7 10 Alarm State:  0
Thu May 25 08:06:10 PDT 2017 ON: 19.99 +20.0 20.05 -15.2 27.9 16.3 32.0 7 10 Alarm State:  0
Thu May 25 08:05:08 PDT 2017 ON: 20.00 +20.0 20.07 -15.3 27.7 16.5 32.0 7 9 Alarm State:  0
Thu May 25 08:04:07 PDT 2017 ON: 20.00 +20.0 20.06 -15.4 27.6 16.5 31.7 7 10 Alarm State:  0
Thu May 25 08:03:05 PDT 2017 ON: 19.99 +20.0 20.04 -15.2 27.9 16.3 32.0 7 10 Alarm State:  0
Thu May 25 08:02:04 PDT 2017 ON: 20.00 +20.0 20.06 -15.3 27.7 16.5 32.0 7 9 Alarm State:  0
Thu May 25 08:01:02 PDT 2017 ON: 19.99 +20.0 20.06 -15.5 27.5 16.6 31.9 8 9 Alarm State:  0
Thu May 25 08:00:01 PDT 2017 ON: 20.00 +20.0 20.05 -15.1 28.0 16.3 32.1 7 9 Alarm State:  0
Thu May 25 07:58:59 PDT 2017 ON: 20.00 +20.0 20.06 -15.3 27.8 16.4 31.9 7 10 Alarm State:  0
Thu May 25 07:57:58 PDT 2017 ON: 20.00 +20.0 20.05 -15.1 28.0 16.3 32.0 7 10 Alarm State:  0
Thu May 25 07:56:56 PDT 2017 ON: 20.00 +20.0 20.06 -15.3 27.8 16.4 32.1 7 9 Alarm State:  0
Thu May 25 07:55:55 PDT 2017 ON: 19.99 +20.0 20.05 -15.5 27.5 16.6 32.0 8 10 Alarm State:  0
Thu May 25 07:54:53 PDT 2017 ON: 20.00 +20.0 20.05 -15.2 27.9 16.3 32.1 7 9 Alarm State:  0
Thu May 25 07:53:52 PDT 2017 ON: 20.00 +20.0 20.06 -15.5 27.5 16.6 32.0 7 9 Alarm State:  0
Thu May 25 07:52:50 PDT 2017 ON: 20.00 +20.0 20.06 -15.3 27.7 16.5 32.0 7 10 Alarm State:  0
Thu May 25 07:51:49 PDT 2017 ON: 19.99 +20.0 20.05 -15.1 28.0 16.3 32.1 7 10 Alarm State:  0
Thu May 25 07:50:47 PDT 2017 ON: 19.99 +20.0 20.05 -15.3 27.8 16.4 32.0 7 9 Alarm State:  0
Thu May 25 07:49:46 PDT 2017 ON: 20.00 +20.0 20.06 -15.3 27.8 16.4 32.0 7 9 Alarm State:  0
Thu May 25 07:48:44 PDT 2017 ON: 19.99 +20.0 20.06 -15.2 27.9 16.3 32.1 7 9 Alarm State:  0
Thu May 25 07:47:43 PDT 2017 ON: 19.99 +20.0 20.05 -15.2 27.9 16.3 32.0 7 9 Alarm State:  0
Thu May 25 07:46:41 PDT 2017 ON: 20.00 +20.0 20.05 -15.2 27.9 16.3 32.0 7 9 Alarm State:  0
Thu May 25 07:45:40 PDT 2017 ON: 20.00 +20.0 20.06 -15.3 27.7 16.5 32.0 7 10 Alarm State:  0
Thu May 25 07:44:38 PDT 2017 ON: 20.00 +20.0 20.05 -15.3 27.8 16.4 32.0 7 10 Alarm State:  0
Thu May 25 07:43:37 PDT 2017 ON: 20.00 +20.0 20.05 -15.1 28.0 16.3 32.0 7 10 Alarm State:  0
Thu May 25 07:42:35 PDT 2017 ON: 20.00 +20.0 20.05 -15.1 28.0 16.3 32.1 7 10 Alarm State:  0
Thu May 25 07:41:34 PDT 2017 ON: 19.99 +20.0 20.05 -15.4 27.6 16.5 32.0 7 9 Alarm State:  0
Thu May 25 07:40:32 PDT 2017 ON: 20.00 +20.0 20.04 -14.9 28.4 16.0 32.2 7 10 Alarm State:  0
Thu May 25 07:39:31 PDT 2017 ON: 19.99 +20.0 20.06 -15.1 28.0 16.3 32.1 7 10 Alarm State:  0
Thu May 25 07:38:29 PDT 2017 ON: 19.99 +20.0 20.03 -14.9 28.4 16.0 32.2 7 10 Alarm State:  0
Thu May 25 07:37:28 PDT 2017 ON: 20.00 +20.0 20.05 -15.3 27.7 16.5 32.0 7 9 Alarm State:  0
Thu May 25 07:36:26 PDT 2017 ON: 20.00 +20.0 20.05 -15.3 27.7 16.5 31.9 7 10 Alarm State:  0
Thu May 25 07:35:25 PDT 2017 ON: 20.00 +20.0 20.06 -15.1 28.0 16.3 32.1 7 10 Alarm State:  0
Thu May 25 07:34:24 PDT 2017 ON: 19.99 +20.0 20.05 -15.0 28.2 16.1 32.1 7 10 Alarm State:  0
Thu May 25 07:33:22 PDT 2017 ON: 19.99 +20.0 20.04 -15.1 28.1 16.2 32.1 7 10 Alarm State:  0
Thu May 25 07:32:21 PDT 2017 ON: 20.00 +20.0 20.06 -15.5 27.4 16.7 31.7 7 9 Alarm State:  0
Thu May 25 07:31:19 PDT 2017 ON: 19.99 +20.0 20.05 -15.4 27.6 16.5 31.9 7 10 Alarm State:  0
Thu May 25 07:30:18 PDT 2017 ON: 19.99 +20.0 20.05 -15.4 27.6 16.5 32.0 7 9 Alarm State:  0
Thu May 25 07:29:16 PDT 2017 ON: 19.99 +20.0 20.07 -15.4 27.6 16.5 32.0 7 9 Alarm State:  0
Thu May 25 07:28:15 PDT 2017 ON: 19.99 +20.0 20.06 -15.3 27.7 16.5 32.1 7 9 Alarm State:  0
Thu May 25 07:27:13 PDT 2017 ON: 19.99 +20.0 20.06 -15.3 27.7 16.5 32.0 7 10 Alarm State:  0
Thu May 25 07:26:12 PDT 2017 ON: 19.99 +20.0 20.05 -15.3 27.8 16.4 32.1 7 9 Alarm State:  0
Thu May 25 07:25:10 PDT 2017 ON: 19.99 +20.0 20.05 -15.3 27.8 16.4 32.0 7 10 Alarm State:  0
Thu May 25 07:24:09 PDT 2017 ON: 20.00 +20.0 20.06 -15.3 27.7 16.5 32.0 7 9 Alarm State:  0
Thu May 25 07:23:07 PDT 2017 ON: 19.99 +20.0 20.05 -15.1 28.1 16.2 32.1 7 9 Alarm State:  0
Thu May 25 07:22:06 PDT 2017 ON: 20.00 +20.0 20.05 -15.1 28.0 16.3 32.1 7 10 Alarm State:  0
Thu May 25 07:21:04 PDT 2017 ON: 19.99 +20.0 20.05 -14.9 28.4 16.0 32.2 7 10 Alarm State:  0
Thu May 25 07:20:03 PDT 2017 ON: 19.99 +20.0 20.05 -15.2 27.9 16.3 32.0 7 9 Alarm State:  0
Thu May 25 07:19:01 PDT 2017 ON: 20.00 +20.0 20.06 -15.1 28.1 16.2 32.1 7 9 Alarm State:  0
Thu May 25 07:18:00 PDT 2017 ON: 19.99 +20.0 20.06 -15.3 27.7 16.5 32.0 7 10 Alarm State:  0
Thu May 25 07:16:58 PDT 2017 ON: 19.99 +20.0 20.03 -14.9 28.3 16.1 32.2 7 10 Alarm State:  0
Thu May 25 07:15:57 PDT 2017 ON: 20.00 +20.0 20.05 -15.1 28.1 16.2 32.0 7 10 Alarm State:  0
Thu May 25 07:14:55 PDT 2017 ON: 20.00 +20.0 20.05 -15.3 27.8 16.4 32.0 7 10 Alarm State:  0
Thu May 25 07:13:54 PDT 2017 ON: 20.00 +20.0 20.05 -15.1 28.0 16.3 32.0 7 9 Alarm State:  0
Thu May 25 07:12:52 PDT 2017 ON: 19.99 +20.0 20.06 -15.3 27.7 16.5 32.1 7 9 Alarm State:  0
Thu May 25 07:11:51 PDT 2017 ON: 20.00 +20.0 20.07 -15.3 27.8 16.4 32.0 7 9 Alarm State:  0
Thu May 25 07:10:49 PDT 2017 ON: 19.99 +20.0 20.05 -15.2 27.9 16.3 32.0 7 10 Alarm State:  0
Thu May 25 07:09:48 PDT 2017 ON: 20.00 +20.0 20.05 -15.5 27.5 16.6 31.9 7 9 Alarm State:  0
Thu May 25 07:08:46 PDT 2017 ON: 20.00 +20.0 20.06 -15.4 27.6 16.5 32.0 8 9 Alarm State:  0
Thu May 25 07:07:45 PDT 2017 ON: 19.99 +20.0 20.06 -15.1 28.0 16.3 32.1 7 10 Alarm State:  0
Thu May 25 07:06:43 PDT 2017 ON: 19.98 +20.0 20.05 -15.1 28.1 16.2 32.1 7 10 Alarm State:  0
Thu May 25 07:05:42 PDT 2017 ON: 19.99 +20.0 20.04 -15.1 28.1 16.2 32.1 7 9 Alarm State:  0
Thu May 25 07:04:40 PDT 2017 ON: 20.00 +20.0 20.06 -15.3 27.8 16.4 31.9 7 9 Alarm State:  0
Thu May 25 07:03:39 PDT 2017 ON: 19.99 +20.0 20.06 -15.0 28.2 16.1 32.1 7 9 Alarm State:  0
Thu May 25 07:02:37 PDT 2017 ON: 19.99 +20.0 20.06 -15.4 27.6 16.5 32.0 7 9 Alarm State:  0
Thu May 25 07:01:36 PDT 2017 ON: 20.00 +20.0 20.05 -15.3 27.8 16.4 32.0 7 9 Alarm State:  0
Thu May 25 07:00:34 PDT 2017 ON: 20.00 +20.0 20.06 -15.4 27.6 16.5 32.0 8 9 Alarm State:  0
Thu May 25 06:59:33 PDT 2017 ON: 19.99 +20.0 20.05 -15.1 28.0 16.3 32.1 7 10 Alarm State:  0
Thu May 25 06:58:31 PDT 2017 ON: 19.99 +20.0 20.05 -15.3 27.7 16.5 32.0 7 9 Alarm State:  0
Thu May 25 06:57:30 PDT 2017 ON: 20.00 +20.0 20.05 -15.2 27.9 16.3 32.0 7 9 Alarm State:  0
Thu May 25 06:56:28 PDT 2017 ON: 20.00 +20.0 20.06 -15.2 27.9 16.3 32.1 7 9 Alarm State:  0
Thu May 25 06:55:27 PDT 2017 ON: 19.99 +20.0 20.06 -15.3 27.7 16.5 32.0 7 10 Alarm State:  0
Thu May 25 06:54:25 PDT 2017 ON: 19.99 +20.0 20.05 -15.3 27.7 16.5 32.0 7 9 Alarm State:  0
Thu May 25 06:53:24 PDT 2017 ON: 20.00 +20.0 20.05 -15.4 27.6 16.5 32.0 7 9 Alarm State:  0
Thu May 25 06:52:22 PDT 2017 ON: 20.00 +20.0 20.06 -15.2 27.9 16.3 32.0 7 9 Alarm State:  0
Thu May 25 06:51:21 PDT 2017 ON: 20.00 +20.0 20.07 -15.3 27.7 16.5 32.0 7 9 Alarm State:  0
Thu May 25 06:50:19 PDT 2017 ON: 19.99 +20.0 20.05 -15.0 28.2 16.1 32.1 7 9 Alarm State:  0
Thu May 25 06:49:18 PDT 2017 ON: 20.00 +20.0 20.06 -15.5 27.5 16.6 31.9 7 9 Alarm State:  0
Thu May 25 06:48:17 PDT 2017 ON: 20.00 +20.0 20.06 -15.4 27.6 16.5 32.0 7 9 Alarm State:  0
Thu May 25 06:47:15 PDT 2017 ON: 19.99 +20.0 20.05 -15.3 27.8 16.4 32.1 7 10 Alarm State:  0
Thu May 25 06:46:14 PDT 2017 ON: 19.99 +20.0 20.03 -14.9 28.3 16.1 32.1 7 10 Alarm State:  0
Thu May 25 06:45:12 PDT 2017 ON: 20.00 +20.0 20.06 -15.0 28.2 16.1 32.1 7 9 Alarm State:  0
Thu May 25 06:44:11 PDT 2017 ON: 20.00 +20.0 20.05 -15.1 28.0 16.3 32.0 7 10 Alarm State:  0
Thu May 25 06:43:09 PDT 2017 ON: 19.99 +20.0 20.05 -15.1 28.0 16.3 32.1 7 10 Alarm State:  0
Thu May 25 06:42:08 PDT 2017 ON: 20.00 +20.0 20.06 -15.7 27.2 16.8 31.8 7 9 Alarm State:  0
Thu May 25 06:41:06 PDT 2017 ON: 19.99 +20.0 20.07 -15.3 27.8 16.4 32.1 7 9 Alarm State:  0
Thu May 25 06:40:05 PDT 2017 ON: 20.00 +20.0 20.05 -14.9 28.3 16.1 32.2 7 10 Alarm State:  0
Thu May 25 06:39:03 PDT 2017 ON: 19.99 +20.0 20.04 -15.4 27.6 16.5 31.7 7 10 Alarm State:  0
Thu May 25 06:38:02 PDT 2017 ON: 20.00 +20.0 20.05 -15.2 27.9 16.3 32.0 7 10 Alarm State:  0
Thu May 25 06:37:00 PDT 2017 ON: 19.99 +20.0 20.05 -15.1 28.1 16.2 32.1 7 10 Alarm State:  0
Thu May 25 06:35:59 PDT 2017 ON: 19.99 +20.0 20.06 -15.1 28.1 16.2 32.1 7 9 Alarm State:  0
Thu May 25 06:34:57 PDT 2017 ON: 19.99 +20.0 20.07 -15.5 27.4 16.7 31.8 7 9 Alarm State:  0
Thu May 25 06:33:56 PDT 2017 ON: 20.00 +20.0 20.06 -15.3 27.7 16.5 32.0 7 9 Alarm State:  0
Thu May 25 06:32:54 PDT 2017 ON: 20.00 +20.0 20.06 -15.3 27.8 16.4 32.1 7 9 Alarm State:  0
Thu May 25 06:31:53 PDT 2017 ON: 20.00 +20.0 20.06 -15.1 28.1 16.2 32.1 7 9 Alarm State:  0
Thu May 25 06:30:51 PDT 2017 ON: 20.00 +20.0 20.05 -15.1 28.0 16.3 32.1 7 10 Alarm State:  0
Thu May 25 06:29:50 PDT 2017 ON: 20.00 +20.0 20.06 -15.3 27.7 16.5 32.0 7 9 Alarm State:  0
Thu May 25 06:28:48 PDT 2017 ON: 20.00 +20.0 20.05 -15.1 28.1 16.2 32.0 7 9 Alarm State:  0
Thu May 25 06:27:47 PDT 2017 ON: 19.99 +20.0 20.06 -15.3 27.7 16.5 31.9 7 9 Alarm State:  0
Thu May 25 06:26:45 PDT 2017 ON: 19.99 +20.0 20.06 -15.4 27.6 16.5 32.0 7 9 Alarm State:  0
Thu May 25 06:25:44 PDT 2017 ON: 19.99 +20.0 20.06 -15.4 27.6 16.5 31.9 7 9 Alarm State:  0
Thu May 25 06:24:42 PDT 2017 ON: 20.00 +20.0 20.06 -15.3 27.7 16.5 32.0 7 9 Alarm State:  0
Thu May 25 06:23:41 PDT 2017 ON: 19.99 +20.0 20.04 -14.9 28.4 16.0 32.1 7 10 Alarm State:  0
Thu May 25 06:22:39 PDT 2017 ON: 19.99 +20.0 20.06 -15.3 27.7 16.5 32.0 7 9 Alarm State:  0
Thu May 25 06:21:38 PDT 2017 ON: 20.00 +20.0 20.07 -15.3 27.7 16.5 32.0 7 9 Alarm State:  0
Thu May 25 06:20:36 PDT 2017 ON: 20.00 +20.0 20.06 -15.4 27.6 16.5 32.0 7 9 Alarm State:  0
Thu May 25 06:19:35 PDT 2017 ON: 19.99 +20.0 20.05 -15.3 27.7 16.5 32.0 7 10 Alarm State:  0
Thu May 25 06:18:33 PDT 2017 ON: 19.99 +20.0 20.04 -15.3 27.7 16.5 32.0 7 10 Alarm State:  0
Thu May 25 06:17:32 PDT 2017 ON: 20.00 +20.0 20.06 -15.4 27.6 16.5 32.0 7 9 Alarm State:  0
Thu May 25 06:16:30 PDT 2017 ON: 20.00 +20.0 20.06 -15.1 28.0 16.3 32.1 7 10 Alarm State:  0
Thu May 25 06:15:29 PDT 2017 ON: 19.99 +20.0 20.04 -14.8 28.5 16.0 32.2 7 10 Alarm State:  0
Thu May 25 06:14:27 PDT 2017 ON: 20.00 +20.0 20.06 -15.3 27.8 16.4 32.0 7 9 Alarm State:  0
Thu May 25 06:13:26 PDT 2017 ON: 19.99 +20.0 20.06 -15.4 27.6 16.5 32.0 7 9 Alarm State:  0
Thu May 25 06:12:24 PDT 2017 ON: 19.99 +20.0 20.04 -15.1 28.1 16.2 32.1 7 10 Alarm State:  0
Thu May 25 06:11:23 PDT 2017 ON: 20.00 +20.0 20.07 -15.3 27.8 16.4 32.0 7 9 Alarm State:  0
Thu May 25 06:10:21 PDT 2017 ON: 20.00 +20.0 20.06 -15.1 28.1 16.2 32.1 7 10 Alarm State:  0
Thu May 25 06:09:20 PDT 2017 ON: 19.99 +20.0 20.06 -15.1 28.1 16.2 32.1 7 9 Alarm State:  0
Thu May 25 06:08:18 PDT 2017 ON: 19.99 +20.0 20.05 -15.1 28.0 16.3 32.1 7 10 Alarm State:  0
Thu May 25 06:07:17 PDT 2017 ON: 20.00 +20.0 20.06 -15.3 27.7 16.5 32.0 7 9 Alarm State:  0
Thu May 25 06:06:15 PDT 2017 ON: 19.99 +20.0 20.05 -15.4 27.6 16.5 32.0 7 10 Alarm State:  0
Thu May 25 06:05:14 PDT 2017 ON: 20.00 +20.0 20.06 -15.2 27.9 16.3 32.0 7 9 Alarm State:  0
Thu May 25 06:04:12 PDT 2017 ON: 20.00 +20.0 20.06 -15.3 27.7 16.5 32.0 7 9 Alarm State:  0
Thu May 25 06:03:11 PDT 2017 ON: 20.00 +20.0 20.06 -15.2 27.9 16.3 32.0 7 10 Alarm State:  0
Thu May 25 06:02:09 PDT 2017 ON: 19.99 +20.0 20.05 -15.3 27.8 16.4 32.0 7 10 Alarm State:  0
Thu May 25 06:01:08 PDT 2017 ON: 19.99 +20.0 20.04 -14.9 28.3 16.1 32.1 7 10 Alarm State:  0
Thu May 25 06:00:07 PDT 2017 ON: 20.00 +20.0 20.07 -15.5 27.5 16.6 31.9 8 8 Alarm State:  0
Thu May 25 05:59:05 PDT 2017 ON: 20.00 +20.0 20.07 -15.4 27.6 16.5 31.9 7 9 Alarm State:  0
Thu May 25 05:58:04 PDT 2017 ON: 19.99 +20.0 20.05 -15.1 28.1 16.2 32.1 7 10 Alarm State:  0
Thu May 25 05:57:02 PDT 2017 ON: 20.00 +20.0 20.05 -15.5 27.4 16.7 31.9 7 9 Alarm State:  0
Thu May 25 05:56:01 PDT 2017 ON: 19.99 +20.0 20.07 -15.6 27.3 16.8 31.9 7 9 Alarm State:  0
Thu May 25 05:54:59 PDT 2017 ON: 20.00 +20.0 20.05 -15.4 27.6 16.5 31.8 7 10 Alarm State:  0
Thu May 25 05:53:58 PDT 2017 ON: 19.99 +20.0 20.05 -15.3 27.7 16.5 32.0 7 10 Alarm State:  0
Thu May 25 05:52:56 PDT 2017 ON: 20.00 +20.0 20.05 -15.3 27.8 16.4 32.0 7 9 Alarm State:  0
Thu May 25 05:51:55 PDT 2017 ON: 20.00 +20.0 20.06 -15.5 27.5 16.6 32.0 8 9 Alarm State:  0
Thu May 25 05:50:53 PDT 2017 ON: 19.99 +20.0 20.05 -15.1 28.0 16.3 32.1 7 10 Alarm State:  0
Thu May 25 05:49:52 PDT 2017 ON: 19.99 +20.0 20.04 -15.1 28.0 16.3 32.0 7 10 Alarm State:  0
Thu May 25 05:48:50 PDT 2017 ON: 20.00 +20.0 20.05 -15.1 28.0 16.3 32.1 7 10 Alarm State:  0
Thu May 25 05:47:49 PDT 2017 ON: 19.99 +20.0 20.06 -15.2 27.9 16.3 32.1 7 9 Alarm State:  0
Thu May 25 05:46:47 PDT 2017 ON: 19.99 +20.0 20.06 -15.2 27.9 16.3 32.1 7 9 Alarm State:  0
Thu May 25 05:45:46 PDT 2017 ON: 20.00 +20.0 20.06 -15.3 27.8 16.4 32.0 7 9 Alarm State:  0
Thu May 25 05:44:44 PDT 2017 ON: 19.98 +20.0 20.04 -14.9 28.4 16.0 32.2 6 10 Alarm State:  0
Thu May 25 05:43:43 PDT 2017 ON: 20.00 +20.0 20.05 -15.2 27.9 16.3 32.1 7 9 Alarm State:  0
Thu May 25 05:42:41 PDT 2017 ON: 19.99 +20.0 20.06 -15.3 27.7 16.5 32.0 7 9 Alarm State:  0
Thu May 25 05:41:40 PDT 2017 ON: 20.00 +20.0 20.06 -15.1 28.1 16.2 32.1 7 9 Alarm State:  0
Thu May 25 05:40:38 PDT 2017 ON: 19.99 +20.0 20.05 -15.1 28.0 16.3 32.1 7 10 Alarm State:  0
Thu May 25 05:39:37 PDT 2017 ON: 20.00 +20.0 20.05 -15.1 28.1 16.2 32.1 7 10 Alarm State:  0
Thu May 25 05:38:35 PDT 2017 ON: 19.99 +20.0 20.04 -14.9 28.4 16.0 32.1 7 11 Alarm State:  0
Thu May 25 05:37:34 PDT 2017 ON: 19.99 +20.0 20.05 -15.1 28.1 16.2 32.1 7 10 Alarm State:  0
Thu May 25 05:36:32 PDT 2017 ON: 20.00 +20.0 20.06 -15.5 27.5 16.6 31.9 7 9 Alarm State:  0
Thu May 25 05:35:31 PDT 2017 ON: 19.99 +20.0 20.07 -15.5 27.5 16.6 32.0 7 9 Alarm State:  0
Thu May 25 05:34:29 PDT 2017 ON: 20.00 +20.0 20.06 -15.4 27.6 16.5 31.9 7 9 Alarm State:  0
Thu May 25 05:33:28 PDT 2017 ON: 20.00 +20.0 20.06 -15.1 28.1 16.2 32.1 7 10 Alarm State:  0
Thu May 25 05:32:26 PDT 2017 ON: 19.99 +20.0 20.05 -15.1 28.0 16.3 32.1 7 10 Alarm State:  0
Thu May 25 05:31:25 PDT 2017 ON: 19.99 +20.0 20.03 -14.9 28.4 16.0 32.2 7 10 Alarm State:  0
Thu May 25 05:30:23 PDT 2017 ON: 20.00 +20.0 20.05 -15.1 28.0 16.3 32.1 7 10 Alarm State:  0
Thu May 25 05:29:22 PDT 2017 ON: 19.99 +20.0 20.05 -15.2 27.9 16.3 32.1 7 10 Alarm State:  0
Thu May 25 05:28:20 PDT 2017 ON: 19.99 +20.0 20.06 -15.3 27.7 16.5 32.0 7 9 Alarm State:  0
Thu May 25 05:27:19 PDT 2017 ON: 20.00 +20.0 20.06 -15.1 28.0 16.3 32.0 7 9 Alarm State:  0
Thu May 25 05:26:17 PDT 2017 ON: 20.00 +20.0 20.06 -15.3 27.8 16.4 32.0 7 10 Alarm State:  0
Thu May 25 05:25:16 PDT 2017 ON: 19.99 +20.0 20.05 -14.9 28.3 16.1 32.2 7 10 Alarm State:  0
Thu May 25 05:24:14 PDT 2017 ON: 19.99 +20.0 20.06 -15.3 27.7 16.5 32.0 7 9 Alarm State:  0
Thu May 25 05:23:13 PDT 2017 ON: 20.00 +20.0 20.05 -15.3 27.7 16.5 32.0 7 10 Alarm State:  0
Thu May 25 05:22:11 PDT 2017 ON: 19.99 +20.0 20.05 -15.3 27.8 16.4 32.0 7 10 Alarm State:  0
Thu May 25 05:21:10 PDT 2017 ON: 20.00 +20.0 20.05 -15.1 28.0 16.3 32.0 7 10 Alarm State:  0
Thu May 25 05:20:08 PDT 2017 ON: 19.99 +20.0 20.07 -15.7 27.2 16.8 31.6 7 9 Alarm State:  0
Thu May 25 05:19:07 PDT 2017 ON: 20.00 +20.0 20.03 -15.1 28.1 16.2 32.0 7 10 Alarm State:  0
Thu May 25 05:18:05 PDT 2017 ON: 20.00 +20.0 20.05 -15.1 28.0 16.3 32.0 7 10 Alarm State:  0
Thu May 25 05:17:04 PDT 2017 ON: 20.00 +20.0 20.07 -15.2 27.9 16.3 32.0 7 9 Alarm State:  0
Thu May 25 05:15:53 PDT 2017  Alarm State: 0
Thu May 25 05:15:53 PDT 2017 Chiller did not report ON, got this reading: 
Thu May 25 05:14:51 PDT 2017 ON: 19.99 +20.0 20.05 -15.2 27.9 16.3 32.0 7 10 Alarm State:  0
Thu May 25 05:13:50 PDT 2017 ON: 19.99 +20.0 20.06 -15.3 27.8 16.4 32.0 7 9 Alarm State:  0
Thu May 25 05:12:48 PDT 2017 ON: 20.00 +20.0 20.06 -15.3 27.8 16.4 32.1 7 9 Alarm State:  0
Thu May 25 05:11:47 PDT 2017 ON: 20.01 +20.0 20.07 -15.3 27.8 16.4 32.0 7 9 Alarm State:  0
Thu May 25 05:10:45 PDT 2017 ON: 19.99 +20.0 20.05 -14.8 28.5 16.0 32.2 7 10 Alarm State:  0
Thu May 25 05:09:44 PDT 2017 ON: 19.99 +20.0 20.05 -15.4 27.6 16.5 32.0 7 9 Alarm State:  0
Thu May 25 05:08:42 PDT 2017 ON: 20.00 +20.0 20.05 -15.2 27.9 16.3 32.0 7 10 Alarm State:  0
Thu May 25 05:07:41 PDT 2017 ON: 20.00 +20.0 20.05 -15.3 27.8 16.4 32.0 7 10 Alarm State:  0
Thu May 25 05:06:39 PDT 2017 ON: 19.99 +20.0 20.04 -15.0 28.2 16.1 32.1 7 10 Alarm State:  0
Thu May 25 05:05:38 PDT 2017 ON: 20.00 +20.0 20.06 -15.2 27.9 16.3 32.1 7 9 Alarm State:  0
Thu May 25 05:04:36 PDT 2017 ON: 20.00 +20.0 20.06 -15.0 28.2 16.1 32.1 7 10 Alarm State:  0
Thu May 25 05:03:35 PDT 2017 ON: 19.99 +20.0 20.04 -14.7 28.6 15.9 32.3 7 11 Alarm State:  0
Thu May 25 05:02:33 PDT 2017 ON: 19.99 +20.0 20.03 -14.9 28.4 16.0 32.2 7 10 Alarm State:  0
Thu May 25 05:01:32 PDT 2017 ON: 20.00 +20.0 20.06 -15.4 27.6 16.5 32.0 7 9 Alarm State:  0
Thu May 25 05:00:30 PDT 2017 ON: 19.98 +20.0 20.04 -15.1 28.0 16.3 32.1 7 10 Alarm State:  0
Thu May 25 04:59:29 PDT 2017 ON: 20.00 +20.0 20.06 -15.3 27.7 16.5 31.9 7 9 Alarm State:  0
Thu May 25 04:58:27 PDT 2017 ON: 20.00 +20.0 20.05 -15.2 27.9 16.3 32.1 7 10 Alarm State:  0
Thu May 25 04:57:26 PDT 2017 ON: 19.99 +20.0 20.06 -15.3 27.8 16.4 32.0 7 9 Alarm State:  0
Thu May 25 04:56:24 PDT 2017 ON: 19.99 +20.0 20.04 -15.1 28.0 16.3 32.2 6 10 Alarm State:  0
Thu May 25 04:55:23 PDT 2017 ON: 20.00 +20.0 20.07 -15.4 27.6 16.5 32.0 7 9 Alarm State:  0
Thu May 25 04:54:21 PDT 2017 ON: 19.99 +20.0 20.05 -15.3 27.8 16.4 31.9 7 10 Alarm State:  0
Thu May 25 04:53:20 PDT 2017 ON: 19.99 +20.0 20.05 -15.2 27.9 16.3 32.1 7 9 Alarm State:  0
Thu May 25 04:52:18 PDT 2017 ON: 20.00 +20.0 20.06 -15.4 27.6 16.5 32.0 7 9 Alarm State:  0
Thu May 25 04:51:17 PDT 2017 ON: 19.99 +20.0 20.06 -15.5 27.5 16.6 31.9 7 10 Alarm State:  0
Thu May 25 04:50:15 PDT 2017 ON: 19.99 +20.0 20.04 -14.9 28.3 16.1 32.2 7 10 Alarm State:  0
Thu May 25 04:49:14 PDT 2017 ON: 20.00 +20.0 20.06 -15.1 28.0 16.3 32.0 7 9 Alarm State:  0
Thu May 25 04:48:12 PDT 2017 ON: 19.99 +20.0 20.05 -15.0 28.2 16.1 32.2 7 10 Alarm State:  0
Thu May 25 04:47:11 PDT 2017 ON: 20.00 +20.0 20.06 -15.3 27.7 16.5 31.9 7 9 Alarm State:  0
Thu May 25 04:46:09 PDT 2017 ON: 20.00 +20.0 20.06 -15.2 27.9 16.3 32.1 7 10 Alarm State:  0
Thu May 25 04:45:08 PDT 2017 ON: 19.99 +20.0 20.04 -15.1 28.1 16.2 32.1 7 10 Alarm State:  0
Thu May 25 04:44:06 PDT 2017 ON: 19.99 +20.0 20.04 -15.1 28.1 16.2 32.1 7 10 Alarm State:  0
Thu May 25 04:43:05 PDT 2017 ON: 19.99 +20.0 20.03 -14.8 28.5 16.0 32.1 7 11 Alarm State:  0
Thu May 25 04:42:03 PDT 2017 ON: 20.00 +20.0 20.05 -15.3 27.8 16.4 31.9 7 10 Alarm State:  0
Thu May 25 04:41:02 PDT 2017 ON: 19.99 +20.0 20.05 -15.3 27.8 16.4 32.1 7 10 Alarm State:  0
Thu May 25 04:40:00 PDT 2017 ON: 19.99 +20.0 20.04 -14.8 28.5 16.0 32.2 7 10 Alarm State:  0
Thu May 25 04:38:59 PDT 2017 ON: 20.00 +20.0 20.06 -15.3 27.7 16.5 31.8 7 9 Alarm State:  0
Thu May 25 04:37:57 PDT 2017 ON: 20.00 +20.0 20.07 -15.1 28.0 16.3 32.1 7 9 Alarm State:  0
Thu May 25 04:36:56 PDT 2017 ON: 19.99 +20.0 20.05 -15.0 28.2 16.1 32.1 7 10 Alarm State:  0
Thu May 25 04:35:54 PDT 2017 ON: 20.00 +20.0 20.06 -15.3 27.7 16.5 31.9 7 9 Alarm State:  0
Thu May 25 04:34:53 PDT 2017 ON: 20.00 +20.0 20.06 -15.1 28.1 16.2 32.1 7 9 Alarm State:  0
Thu May 25 04:33:51 PDT 2017 ON: 19.99 +20.0 20.05 -15.4 27.6 16.5 32.0 7 10 Alarm State:  0
Thu May 25 04:32:50 PDT 2017 ON: 20.00 +20.0 20.05 -14.9 28.3 16.1 32.2 7 10 Alarm State:  0
Thu May 25 04:31:48 PDT 2017 ON: 19.99 +20.0 20.04 -15.2 27.9 16.3 32.1 7 10 Alarm State:  0
Thu May 25 04:30:47 PDT 2017 ON: 20.00 +20.0 20.07 -15.5 27.4 16.7 31.9 7 9 Alarm State:  0
Thu May 25 04:29:45 PDT 2017 ON: 19.99 +20.0 20.05 -15.1 28.1 16.2 32.1 7 10 Alarm State:  0
Thu May 25 04:28:44 PDT 2017 ON: 19.99 +20.0 20.05 -15.3 27.8 16.4 32.1 7 9 Alarm State:  0
Thu May 25 04:27:42 PDT 2017 ON: 20.00 +20.0 20.05 -14.9 28.4 16.0 32.2 7 9 Alarm State:  0
Thu May 25 04:26:41 PDT 2017 ON: 20.01 +20.0 20.06 -15.2 27.9 16.3 32.0 7 9 Alarm State:  0
Thu May 25 04:25:39 PDT 2017 ON: 19.99 +20.0 20.06 -15.2 27.9 16.3 32.1 7 10 Alarm State:  0
Thu May 25 04:24:38 PDT 2017 ON: 19.99 +20.0 20.04 -14.9 28.3 16.1 32.1 7 10 Alarm State:  0
Thu May 25 04:23:36 PDT 2017 ON: 20.00 +20.0 20.06 -15.1 28.0 16.3 32.1 7 9 Alarm State:  0
Thu May 25 04:22:35 PDT 2017 ON: 19.99 +20.0 20.04 -15.1 28.1 16.2 32.1 7 10 Alarm State:  0
Thu May 25 04:21:33 PDT 2017 ON: 19.99 +20.0 20.05 -15.1 28.1 16.2 32.1 7 9 Alarm State:  0
Thu May 25 04:20:32 PDT 2017 ON: 20.00 +20.0 20.06 -15.5 27.5 16.6 32.0 7 9 Alarm State:  0
Thu May 25 04:19:30 PDT 2017 ON: 19.99 +20.0 20.06 -15.5 27.5 16.6 32.0 7 9 Alarm State:  0
Thu May 25 04:18:29 PDT 2017 ON: 20.00 +20.0 20.06 -15.5 27.5 16.6 32.0 7 9 Alarm State:  0
Thu May 25 04:17:27 PDT 2017 ON: 20.00 +20.0 20.06 -15.3 27.8 16.4 32.0 7 9 Alarm State:  0
Thu May 25 04:16:26 PDT 2017 ON: 19.99 +20.0 20.05 -14.8 28.5 16.0 32.2 7 10 Alarm State:  0
Thu May 25 04:15:24 PDT 2017 ON: 19.99 +20.0 20.05 -15.3 27.7 16.5 32.1 7 10 Alarm State:  0
Thu May 25 04:14:23 PDT 2017 ON: 20.00 +20.0 20.03 -15.1 28.0 16.3 32.0 7 10 Alarm State:  0
Thu May 25 04:13:21 PDT 2017 ON: 20.00 +20.0 20.05 -15.0 28.2 16.1 32.1 7 10 Alarm State:  0
Thu May 25 04:12:20 PDT 2017 ON: 19.99 +20.0 20.05 -15.1 28.0 16.3 32.0 7 10 Alarm State:  0
Thu May 25 04:11:18 PDT 2017 ON: 19.99 +20.0 20.05 -15.3 27.8 16.4 32.1 7 9 Alarm State:  0
Thu May 25 04:10:17 PDT 2017 ON: 20.00 +20.0 20.05 -15.1 28.1 16.2 32.1 7 10 Alarm State:  0
Thu May 25 04:09:15 PDT 2017 ON: 20.00 +20.0 20.05 -15.0 28.2 16.1 32.1 7 10 Alarm State:  0
Thu May 25 04:08:14 PDT 2017 ON: 19.99 +20.0 20.05 -15.3 27.7 16.5 31.9 7 9 Alarm State:  0
Thu May 25 04:07:12 PDT 2017 ON: 20.00 +20.0 20.05 -15.1 28.1 16.2 32.2 7 9 Alarm State:  0
Thu May 25 04:06:11 PDT 2017 ON: 20.00 +20.0 20.06 -15.5 27.5 16.6 31.9 7 10 Alarm State:  0
Thu May 25 04:05:09 PDT 2017 ON: 19.99 +20.0 20.06 -15.3 27.7 16.5 32.0 7 9 Alarm State:  0
Thu May 25 04:04:08 PDT 2017 ON: 19.99 +20.0 20.05 -15.2 27.9 16.3 32.1 7 9 Alarm State:  0
Thu May 25 04:03:06 PDT 2017 ON: 20.00 +20.0 20.06 -15.4 27.6 16.5 31.9 7 9 Alarm State:  0
Thu May 25 04:02:05 PDT 2017 ON: 19.99 +20.0 20.03 -15.0 28.2 16.1 32.1 7 10 Alarm State:  0
Thu May 25 04:01:03 PDT 2017 ON: 20.00 +20.0 20.05 -15.3 27.8 16.4 32.0 7 10 Alarm State:  0
Thu May 25 04:00:02 PDT 2017 ON: 19.99 +20.0 20.07 -15.5 27.4 16.7 31.8 8 9 Alarm State:  0
Thu May 25 03:59:00 PDT 2017 ON: 19.99 +20.0 20.04 -15.1 28.0 16.3 32.1 7 10 Alarm State:  0
Thu May 25 03:57:59 PDT 2017 ON: 20.00 +20.0 20.05 -15.5 27.5 16.6 32.0 7 9 Alarm State:  0
Thu May 25 03:56:57 PDT 2017 ON: 20.00 +20.0 20.06 -15.5 27.4 16.7 31.7 7 9 Alarm State:  0
Thu May 25 03:55:56 PDT 2017 ON: 20.00 +20.0 20.06 -15.2 27.9 16.3 32.1 7 10 Alarm State:  0
Thu May 25 03:54:54 PDT 2017 ON: 20.00 +20.0 20.06 -15.3 27.8 16.4 32.0 7 9 Alarm State:  0
Thu May 25 03:53:53 PDT 2017 ON: 20.00 +20.0 20.06 -15.4 27.6 16.5 32.0 7 9 Alarm State:  0
Thu May 25 03:52:51 PDT 2017 ON: 20.00 +20.0 20.05 -14.9 28.4 16.0 32.2 7 10 Alarm State:  0
Thu May 25 03:51:50 PDT 2017 ON: 19.99 +20.0 20.05 -15.0 28.2 16.1 32.1 7 10 Alarm State:  0
Thu May 25 03:50:48 PDT 2017 ON: 19.99 +20.0 20.05 -15.3 27.8 16.4 32.0 7 9 Alarm State:  0
Thu May 25 03:49:47 PDT 2017 ON: 20.00 +20.0 20.06 -15.4 27.6 16.5 32.0 7 9 Alarm State:  0
Thu May 25 03:48:45 PDT 2017 ON: 20.00 +20.0 20.06 -15.1 28.0 16.3 32.1 7 10 Alarm State:  0
Thu May 25 03:47:44 PDT 2017 ON: 19.99 +20.0 20.06 -15.4 27.6 16.5 32.0 7 9 Alarm State:  0
Thu May 25 03:46:42 PDT 2017 ON: 19.98 +20.0 20.04 -15.0 28.2 16.1 32.2 7 9 Alarm State:  0
Thu May 25 03:45:41 PDT 2017 ON: 20.00 +20.0 20.06 -15.4 27.6 16.5 31.9 7 9 Alarm State:  0
Thu May 25 03:44:39 PDT 2017 ON: 20.00 +20.0 20.07 -15.4 27.6 16.5 32.0 7 9 Alarm State:  0
Thu May 25 03:43:38 PDT 2017 ON: 19.99 +20.0 20.06 -15.3 27.7 16.5 32.0 7 10 Alarm State:  0
Thu May 25 03:42:36 PDT 2017 ON: 19.99 +20.0 20.05 -15.1 28.0 16.3 32.1 7 10 Alarm State:  0
Thu May 25 03:41:35 PDT 2017 ON: 19.99 +20.0 20.04 -15.1 28.0 16.3 32.1 7 9 Alarm State:  0
Thu May 25 03:40:33 PDT 2017 ON: 20.00 +20.0 20.06 -15.3 27.7 16.5 31.9 7 9 Alarm State:  0
Thu May 25 03:39:32 PDT 2017 ON: 20.01 +20.0 20.07 -15.5 27.4 16.7 31.8 7 9 Alarm State:  0
Thu May 25 03:38:30 PDT 2017 ON: 20.00 +20.0 20.05 -15.0 28.2 16.1 32.2 7 10 Alarm State:  0
Thu May 25 03:37:29 PDT 2017 ON: 19.99 +20.0 20.05 -15.2 27.9 16.3 32.1 7 9 Alarm State:  0
Thu May 25 03:36:27 PDT 2017 ON: 20.00 +20.0 20.05 -15.5 27.5 16.6 31.9 7 9 Alarm State:  0
Thu May 25 03:35:26 PDT 2017 ON: 20.00 +20.0 20.07 -15.5 27.4 16.7 32.0 8 9 Alarm State:  0
Thu May 25 03:34:24 PDT 2017 ON: 19.99 +20.0 20.04 -15.2 27.9 16.3 32.1 7 10 Alarm State:  0
Thu May 25 03:33:23 PDT 2017 ON: 20.00 +20.0 20.05 -15.1 28.1 16.2 32.1 7 10 Alarm State:  0
Thu May 25 03:32:21 PDT 2017 ON: 20.00 +20.0 20.06 -15.1 28.0 16.3 32.1 7 9 Alarm State:  0
Thu May 25 03:31:20 PDT 2017 ON: 20.00 +20.0 20.06 -15.5 27.5 16.6 31.9 7 10 Alarm State:  0
Thu May 25 03:30:18 PDT 2017 ON: 19.99 +20.0 20.05 -15.1 28.0 16.3 32.1 7 10 Alarm State:  0
Thu May 25 03:29:17 PDT 2017 ON: 19.99 +20.0 20.04 -14.9 28.4 16.0 32.1 7 10 Alarm State:  0
Thu May 25 03:28:15 PDT 2017 ON: 19.99 +20.0 20.06 -15.7 27.2 16.8 31.6 7 9 Alarm State:  0
Thu May 25 03:27:14 PDT 2017 ON: 20.00 +20.0 20.05 -15.2 27.9 16.3 31.9 7 10 Alarm State:  0
Thu May 25 03:26:12 PDT 2017 ON: 19.99 +20.0 20.06 -15.4 27.6 16.5 32.0 7 10 Alarm State:  0
Thu May 25 03:25:11 PDT 2017 ON: 20.00 +20.0 20.04 -15.1 28.0 16.3 32.0 7 10 Alarm State:  0
Thu May 25 03:24:09 PDT 2017 ON: 20.00 +20.0 20.05 -15.2 27.9 16.3 32.0 7 9 Alarm State:  0
Thu May 25 03:23:08 PDT 2017 ON: 20.00 +20.0 20.06 -15.5 27.5 16.6 31.9 7 9 Alarm State:  0
Thu May 25 03:22:06 PDT 2017 ON: 20.00 +20.0 20.06 -15.0 28.2 16.1 32.1 7 9 Alarm State:  0
Thu May 25 03:21:05 PDT 2017 ON: 19.99 +20.0 20.05 -14.7 28.6 15.9 32.2 7 10 Alarm State:  0
Thu May 25 03:20:03 PDT 2017 ON: 19.99 +20.0 20.03 -15.2 27.9 16.3 32.0 7 10 Alarm State:  0
Thu May 25 03:19:02 PDT 2017 ON: 19.99 +20.0 20.06 -15.4 27.6 16.5 32.0 7 9 Alarm State:  0
Thu May 25 03:18:00 PDT 2017 ON: 20.00 +20.0 20.06 -15.1 28.1 16.2 32.2 7 9 Alarm State:  0
Thu May 25 03:16:59 PDT 2017 ON: 19.99 +20.0 20.04 -15.0 28.2 16.1 32.1 7 10 Alarm State:  0
Thu May 25 03:15:57 PDT 2017 ON: 19.99 +20.0 20.05 -15.2 27.9 16.3 32.1 7 9 Alarm State:  0
Thu May 25 03:14:56 PDT 2017 ON: 20.00 +20.0 20.05 -15.2 27.9 16.3 32.1 7 9 Alarm State:  0
Thu May 25 03:13:54 PDT 2017 ON: 19.99 +20.0 20.08 -15.4 27.6 16.5 32.0 7 8 Alarm State:  0
Thu May 25 03:12:53 PDT 2017 ON: 20.00 +20.0 20.06 -15.3 27.7 16.5 32.0 7 9 Alarm State:  0
Thu May 25 03:11:51 PDT 2017 ON: 19.99 +20.0 20.06 -15.3 27.8 16.4 32.0 7 9 Alarm State:  0
Thu May 25 03:10:50 PDT 2017 ON: 19.99 +20.0 20.04 -14.9 28.4 16.0 32.2 7 10 Alarm State:  0
Thu May 25 03:09:48 PDT 2017 ON: 20.00 +20.0 20.06 -15.5 27.4 16.7 31.9 7 9 Alarm State:  0
Thu May 25 03:08:47 PDT 2017 ON: 20.00 +20.0 20.06 -15.3 27.8 16.4 31.9 7 10 Alarm State:  0
Thu May 25 03:07:45 PDT 2017 ON: 19.99 +20.0 20.04 -15.0 28.2 16.1 32.1 7 10 Alarm State:  0
Thu May 25 03:06:44 PDT 2017 ON: 20.00 +20.0 20.06 -15.5 27.5 16.6 31.9 7 9 Alarm State:  0
Thu May 25 03:05:42 PDT 2017 ON: 19.99 +20.0 20.04 -15.1 28.1 16.2 32.1 7 10 Alarm State:  0
Thu May 25 03:04:41 PDT 2017 ON: 19.99 +20.0 20.05 -15.2 27.9 16.3 32.0 7 9 Alarm State:  0
Thu May 25 03:03:39 PDT 2017 ON: 20.00 +20.0 20.05 -15.3 27.8 16.4 32.0 7 10 Alarm State:  0
Thu May 25 03:02:38 PDT 2017 ON: 19.99 +20.0 20.04 -15.1 28.1 16.2 32.0 7 11 Alarm State:  0
Thu May 25 03:01:36 PDT 2017 ON: 19.99 +20.0 20.05 -14.9 28.3 16.1 32.2 7 9 Alarm State:  0
Thu May 25 03:00:35 PDT 2017 ON: 20.00 +20.0 20.06 -15.3 27.7 16.5 32.0 7 8 Alarm State:  0
Thu May 25 02:59:33 PDT 2017 ON: 20.01 +20.0 20.06 -15.3 27.7 16.5 32.0 7 9 Alarm State:  0
Thu May 25 02:58:32 PDT 2017 ON: 19.99 +20.0 20.06 -15.3 27.8 16.4 32.1 7 10 Alarm State:  0
Thu May 25 02:57:30 PDT 2017 ON: 20.00 +20.0 20.06 -15.1 28.1 16.2 32.1 7 9 Alarm State:  0
Thu May 25 02:56:19 PDT 2017  Alarm State: 0
Thu May 25 02:56:19 PDT 2017 Chiller did not report ON, got this reading: 
Thu May 25 02:55:18 PDT 2017 ON: 19.99 +20.0 20.05 -15.1 28.1 16.2 32.2 7 9 Alarm State:  0
Thu May 25 02:54:16 PDT 2017 ON: 20.00 +20.0 20.05 -15.2 27.9 16.3 32.1 7 10 Alarm State:  0
Thu May 25 02:53:15 PDT 2017 ON: 20.00 +20.0 20.06 -15.4 27.6 16.5 31.9 7 10 Alarm State:  0
Thu May 25 02:52:13 PDT 2017 ON: 19.99 +20.0 20.05 -15.2 27.9 16.3 32.0 7 10 Alarm State:  0
Thu May 25 02:51:12 PDT 2017 ON: 19.99 +20.0 20.05 -15.1 28.0 16.3 32.1 7 9 Alarm State:  0
Thu May 25 02:50:10 PDT 2017 ON: 20.00 +20.0 20.05 -15.1 28.0 16.3 32.1 7 9 Alarm State:  0
Thu May 25 02:49:09 PDT 2017 ON: 20.00 +20.0 20.05 -15.1 28.1 16.2 32.0 7 10 Alarm State:  0
Thu May 25 02:48:07 PDT 2017 ON: 19.99 +20.0 20.05 -15.0 28.2 16.1 32.1 7 10 Alarm State:  0
Thu May 25 02:47:05 PDT 2017 ON: 19.99 +20.0 20.05 -15.2 27.9 16.3 32.1 7 9 Alarm State:  0
Thu May 25 02:46:04 PDT 2017 ON: 20.00 +20.0 20.07 -15.4 27.6 16.5 31.9 7 9 Alarm State:  0
Thu May 25 02:45:03 PDT 2017 ON: 19.99 +20.0 20.05 -15.3 27.7 16.5 32.0 7 10 Alarm State:  0
Thu May 25 02:44:01 PDT 2017 ON: 20.00 +20.0 20.06 -15.1 28.0 16.3 32.1 7 9 Alarm State:  0
Thu May 25 02:43:00 PDT 2017 ON: 20.00 +20.0 20.07 -15.2 27.9 16.3 32.1 7 9 Alarm State:  0
Thu May 25 02:41:58 PDT 2017 ON: 20.00 +20.0 20.07 -15.5 27.5 16.6 32.0 8 9 Alarm State:  0
Thu May 25 02:40:57 PDT 2017 ON: 19.99 +20.0 20.06 -15.3 27.8 16.4 32.1 7 9 Alarm State:  0
Thu May 25 02:39:55 PDT 2017 ON: 20.00 +20.0 20.05 -15.3 27.8 16.4 31.9 7 9 Alarm State:  0
Thu May 25 02:38:54 PDT 2017 ON: 20.00 +20.0 20.06 -15.4 27.6 16.5 31.8 7 9 Alarm State:  0
Thu May 25 02:37:52 PDT 2017 ON: 19.99 +20.0 20.05 -15.0 28.2 16.1 32.1 7 10 Alarm State:  0
Thu May 25 02:36:51 PDT 2017 ON: 20.00 +20.0 20.05 -15.2 27.9 16.3 32.1 7 9 Alarm State:  0
Thu May 25 02:35:49 PDT 2017 ON: 20.00 +20.0 20.06 -15.1 28.0 16.3 32.1 7 10 Alarm State:  0
Thu May 25 02:34:48 PDT 2017 ON: 19.99 +20.0 20.06 -15.3 27.7 16.5 32.0 7 9 Alarm State:  0
Thu May 25 02:33:46 PDT 2017 ON: 19.98 +20.0 20.03 -14.9 28.4 16.0 32.2 7 10 Alarm State:  0
Thu May 25 02:32:45 PDT 2017 ON: 20.00 +20.0 20.05 -15.2 27.9 16.3 32.1 7 9 Alarm State:  0
Thu May 25 02:31:43 PDT 2017 ON: 20.00 +20.0 20.05 -15.3 27.8 16.4 32.0 7 10 Alarm State:  0
Thu May 25 02:30:42 PDT 2017 ON: 19.99 +20.0 20.06 -15.5 27.5 16.6 32.0 7 10 Alarm State:  0
Thu May 25 02:29:40 PDT 2017 ON: 19.99 +20.0 20.05 -15.2 27.9 16.3 32.1 7 9 Alarm State:  0
Thu May 25 02:28:39 PDT 2017 ON: 20.00 +20.0 20.05 -15.1 28.1 16.2 32.1 7 10 Alarm State:  0
Thu May 25 02:27:37 PDT 2017 ON: 19.99 +20.0 20.04 -15.1 28.1 16.2 32.0 7 10 Alarm State:  0
Thu May 25 02:26:36 PDT 2017 ON: 19.99 +20.0 20.06 -15.3 27.7 16.5 32.0 7 9 Alarm State:  0
Thu May 25 02:25:34 PDT 2017 ON: 20.00 +20.0 20.05 -15.1 28.1 16.2 32.1 7 10 Alarm State:  0
Thu May 25 02:24:33 PDT 2017 ON: 19.99 +20.0 20.05 -14.9 28.3 16.1 32.1 7 10 Alarm State:  0
Thu May 25 02:23:31 PDT 2017 ON: 19.99 +20.0 20.06 -15.3 27.7 16.5 32.0 7 9 Alarm State:  0
Thu May 25 02:22:30 PDT 2017 ON: 20.00 +20.0 20.06 -15.2 27.9 16.3 32.1 7 9 Alarm State:  0
Thu May 25 02:21:28 PDT 2017 ON: 20.00 +20.0 20.06 -15.2 27.9 16.3 32.1 7 10 Alarm State:  0
Thu May 25 02:20:27 PDT 2017 ON: 19.99 +20.0 20.05 -15.3 27.8 16.4 32.0 7 10 Alarm State:  0
Thu May 25 02:19:25 PDT 2017 ON: 19.98 +20.0 20.04 -14.9 28.4 16.0 32.2 7 10 Alarm State:  0
Thu May 25 02:18:24 PDT 2017 ON: 20.00 +20.0 20.05 -15.4 27.6 16.5 31.9 7 9 Alarm State:  0
Thu May 25 02:17:22 PDT 2017 ON: 19.99 +20.0 20.07 -15.4 27.6 16.5 32.0 8 9 Alarm State:  0
Thu May 25 02:16:21 PDT 2017 ON: 20.00 +20.0 20.05 -15.2 27.9 16.3 32.1 7 9 Alarm State:  0
Thu May 25 02:15:19 PDT 2017 ON: 20.00 +20.0 20.07 -15.5 27.4 16.7 31.7 7 9 Alarm State:  0
Thu May 25 02:14:18 PDT 2017 ON: 19.99 +20.0 20.05 -15.1 28.1 16.2 32.1 7 9 Alarm State:  0
Thu May 25 02:13:16 PDT 2017 ON: 20.00 +20.0 20.06 -15.3 27.7 16.5 32.0 7 9 Alarm State:  0
Thu May 25 02:12:15 PDT 2017 ON: 19.99 +20.0 20.06 -15.3 27.8 16.4 32.0 7 10 Alarm State:  0
Thu May 25 02:11:13 PDT 2017 ON: 19.99 +20.0 20.05 -15.1 28.1 16.2 32.0 7 10 Alarm State:  0
Thu May 25 02:10:12 PDT 2017 ON: 19.99 +20.0 20.06 -15.7 27.2 16.8 31.6 7 9 Alarm State:  0
Thu May 25 02:09:10 PDT 2017 ON: 20.00 +20.0 20.06 -15.3 27.7 16.5 32.0 8 9 Alarm State:  0
Thu May 25 02:08:09 PDT 2017 ON: 19.99 +20.0 20.05 -15.2 27.9 16.3 32.0 7 10 Alarm State:  0
Thu May 25 02:07:07 PDT 2017 ON: 19.99 +20.0 20.05 -15.2 27.9 16.3 32.1 7 10 Alarm State:  0
Thu May 25 02:06:06 PDT 2017 ON: 20.00 +20.0 20.05 -15.2 27.9 16.3 32.0 7 10 Alarm State:  0
Thu May 25 02:05:04 PDT 2017 ON: 19.99 +20.0 20.05 -15.4 27.6 16.5 32.0 7 10 Alarm State:  0
Thu May 25 02:04:03 PDT 2017 ON: 20.00 +20.0 20.04 -15.3 27.8 16.4 32.0 7 9 Alarm State:  0
Thu May 25 02:03:01 PDT 2017 ON: 20.00 +20.0 20.06 -15.5 27.5 16.6 32.0 7 9 Alarm State:  0
Thu May 25 02:02:00 PDT 2017 ON: 20.00 +20.0 20.07 -15.7 27.1 16.9 31.6 7 9 Alarm State:  0
Thu May 25 02:00:58 PDT 2017 ON: 19.99 +20.0 20.05 -15.0 28.2 16.1 32.1 7 10 Alarm State:  0
Thu May 25 01:59:57 PDT 2017 ON: 19.98 +20.0 20.03 -14.9 28.4 16.0 32.2 7 10 Alarm State:  0
Thu May 25 01:58:55 PDT 2017 ON: 20.00 +20.0 20.05 -15.6 27.3 16.8 31.6 7 9 Alarm State:  0
Thu May 25 01:57:54 PDT 2017 ON: 20.00 +20.0 20.06 -15.2 27.9 16.3 32.1 7 9 Alarm State:  0
Thu May 25 01:56:52 PDT 2017 ON: 19.99 +20.0 20.05 -15.1 28.1 16.2 32.2 7 10 Alarm State:  0
Thu May 25 01:55:51 PDT 2017 ON: 19.99 +20.0 20.05 -15.5 27.5 16.6 32.0 7 9 Alarm State:  0
Thu May 25 01:54:49 PDT 2017 ON: 20.00 +20.0 20.06 -15.3 27.7 16.5 32.0 7 9 Alarm State:  0
Thu May 25 01:53:48 PDT 2017 ON: 20.00 +20.0 20.07 -15.3 27.7 16.5 31.8 7 9 Alarm State:  0
Thu May 25 01:52:46 PDT 2017 ON: 19.99 +20.0 20.05 -15.1 28.0 16.3 32.0 7 10 Alarm State:  0
Thu May 25 01:51:45 PDT 2017 ON: 19.99 +20.0 20.04 -15.1 28.1 16.2 32.0 7 10 Alarm State:  0
Thu May 25 01:50:43 PDT 2017 ON: 20.00 +20.0 20.07 -15.3 27.7 16.5 32.0 7 8 Alarm State:  0
Thu May 25 01:49:32 PDT 2017  Alarm State: 0
Thu May 25 01:49:32 PDT 2017 Chiller did not report ON, got this reading: 
Thu May 25 01:48:30 PDT 2017 ON: 20.00 +20.0 20.06 -15.3 27.8 16.4 32.0 7 9 Alarm State:  0
Thu May 25 01:47:29 PDT 2017 ON: 19.99 +20.0 20.05 -15.5 27.5 16.6 31.9 7 9 Alarm State:  0
Thu May 25 01:46:27 PDT 2017 ON: 20.00 +20.0 20.06 -15.3 27.8 16.4 31.9 7 9 Alarm State:  0
Thu May 25 01:45:26 PDT 2017 ON: 19.99 +20.0 20.05 -15.2 27.9 16.3 32.0 7 10 Alarm State:  0
Thu May 25 01:44:24 PDT 2017 ON: 20.00 +20.0 20.05 -15.2 27.9 16.3 32.0 7 10 Alarm State:  0
Thu May 25 01:43:23 PDT 2017 ON: 20.00 +20.0 20.05 -14.9 28.4 16.0 32.2 7 9 Alarm State:  0
Thu May 25 01:42:21 PDT 2017 ON: 20.00 +20.0 20.08 -15.5 27.4 16.7 31.7 7 9 Alarm State:  0
Thu May 25 01:41:20 PDT 2017 ON: 19.99 +20.0 20.05 -15.1 28.1 16.2 32.1 7 10 Alarm State:  0
Thu May 25 01:40:18 PDT 2017 ON: 20.00 +20.0 20.06 -15.6 27.3 16.8 31.8 7 9 Alarm State:  0
Thu May 25 01:39:17 PDT 2017 ON: 19.98 +20.0 20.03 -14.9 28.4 16.0 32.1 7 11 Alarm State:  0
Thu May 25 01:38:15 PDT 2017 ON: 20.00 +20.0 20.05 -15.3 27.8 16.4 32.0 7 9 Alarm State:  0
Thu May 25 01:37:14 PDT 2017 ON: 20.00 +20.0 20.05 -15.4 27.6 16.5 32.0 7 9 Alarm State:  0
Thu May 25 01:36:12 PDT 2017 ON: 20.00 +20.0 20.07 -15.2 27.9 16.3 32.1 7 9 Alarm State:  0
Thu May 25 01:35:11 PDT 2017 ON: 19.99 +20.0 20.06 -15.3 27.8 16.4 32.0 7 9 Alarm State:  0
Thu May 25 01:34:09 PDT 2017 ON: 20.00 +20.0 20.04 -15.1 28.0 16.3 32.1 7 10 Alarm State:  0
Thu May 25 01:33:08 PDT 2017 ON: 19.99 +20.0 20.06 -15.3 27.7 16.5 32.0 7 9 Alarm State:  0
Thu May 25 01:32:06 PDT 2017 ON: 19.99 +20.0 20.05 -15.3 27.8 16.4 32.1 7 10 Alarm State:  0
Thu May 25 01:31:05 PDT 2017 ON: 20.00 +20.0 20.05 -14.9 28.4 16.0 32.1 7 9 Alarm State:  0
Thu May 25 01:30:03 PDT 2017 ON: 20.00 +20.0 20.06 -15.4 27.6 16.5 32.0 7 9 Alarm State:  0
Thu May 25 01:29:02 PDT 2017 ON: 19.99 +20.0 20.05 -15.3 27.7 16.5 32.0 7 9 Alarm State:  0
Thu May 25 01:28:00 PDT 2017 ON: 20.00 +20.0 20.06 -15.5 27.5 16.6 31.9 7 9 Alarm State:  0
Thu May 25 01:26:59 PDT 2017 ON: 19.99 +20.0 20.05 -15.3 27.8 16.4 32.0 7 10 Alarm State:  0
Thu May 25 01:25:57 PDT 2017 ON: 19.99 +20.0 20.05 -15.3 27.8 16.4 32.0 7 9 Alarm State:  0
Thu May 25 01:24:56 PDT 2017 ON: 20.00 +20.0 20.06 -15.3 27.8 16.4 32.0 7 9 Alarm State:  0
Thu May 25 01:23:54 PDT 2017 ON: 20.01 +20.0 20.07 -15.3 27.7 16.5 32.0 7 9 Alarm State:  0
Thu May 25 01:22:53 PDT 2017 ON: 19.99 +20.0 20.05 -14.9 28.3 16.1 32.1 7 11 Alarm State:  0
Thu May 25 01:21:51 PDT 2017 ON: 19.99 +20.0 20.06 -15.1 28.0 16.3 32.1 7 9 Alarm State:  0
Thu May 25 01:20:50 PDT 2017 ON: 20.00 +20.0 20.05 -15.3 27.8 16.4 32.0 7 9 Alarm State:  0
Thu May 25 01:19:48 PDT 2017 ON: 19.99 +20.0 20.06 -15.3 27.8 16.4 32.0 7 9 Alarm State:  0
Thu May 25 01:18:47 PDT 2017 ON: 20.00 +20.0 20.05 -15.5 27.5 16.6 31.9 7 9 Alarm State:  0
Thu May 25 01:17:45 PDT 2017 ON: 20.00 +20.0 20.06 -15.5 27.5 16.6 31.9 7 9 Alarm State:  0
Thu May 25 01:16:44 PDT 2017 ON: 19.99 +20.0 20.06 -15.3 27.8 16.4 32.1 7 10 Alarm State:  0
Thu May 25 01:15:42 PDT 2017 ON: 19.99 +20.0 20.04 -15.0 28.2 16.1 32.1 7 10 Alarm State:  0
Thu May 25 01:14:41 PDT 2017 ON: 20.00 +20.0 20.05 -15.2 27.9 16.3 32.0 7 9 Alarm State:  0
Thu May 25 01:13:39 PDT 2017 ON: 19.99 +20.0 20.06 -15.5 27.5 16.6 31.9 7 10 Alarm State:  0
Thu May 25 01:12:38 PDT 2017 ON: 19.99 +20.0 20.04 -15.0 28.2 16.1 32.1 7 10 Alarm State:  0
Thu May 25 01:11:36 PDT 2017 ON: 19.99 +20.0 20.04 -14.9 28.3 16.1 32.1 7 10 Alarm State:  0
Thu May 25 01:10:35 PDT 2017 ON: 20.00 +20.0 20.06 -15.5 27.5 16.6 31.9 7 9 Alarm State:  0
Thu May 25 01:09:33 PDT 2017 ON: 19.99 +20.0 20.04 -15.3 27.7 16.5 32.0 7 10 Alarm State:  0
Thu May 25 01:08:32 PDT 2017 ON: 20.00 +20.0 20.04 -15.0 28.2 16.1 32.2 7 10 Alarm State:  0
Thu May 25 01:07:30 PDT 2017 ON: 19.99 +20.0 20.04 -15.0 28.2 16.1 32.2 7 10 Alarm State:  0
Thu May 25 01:06:29 PDT 2017 ON: 20.00 +20.0 20.07 -15.3 27.8 16.4 31.9 7 9 Alarm State:  0
Thu May 25 01:05:27 PDT 2017 ON: 19.99 +20.0 20.05 -15.2 27.9 16.3 32.0 7 10 Alarm State:  0
Thu May 25 01:04:26 PDT 2017 ON: 20.00 +20.0 20.06 -15.3 27.7 16.5 32.0 8 9 Alarm State:  0
Thu May 25 01:03:24 PDT 2017 ON: 20.00 +20.0 20.08 -15.5 27.5 16.6 31.9 7 9 Alarm State:  0
Thu May 25 01:02:23 PDT 2017 ON: 20.00 +20.0 20.06 -15.1 28.0 16.3 32.1 7 9 Alarm State:  0
Thu May 25 01:01:21 PDT 2017 ON: 19.99 +20.0 20.05 -15.2 27.9 16.3 32.0 7 10 Alarm State:  0
Thu May 25 01:00:20 PDT 2017 ON: 19.99 +20.0 20.07 -15.3 27.8 16.4 32.1 7 9 Alarm State:  0
Thu May 25 00:59:18 PDT 2017 ON: 20.00 +20.0 20.07 -15.5 27.5 16.6 31.9 7 8 Alarm State:  0
Thu May 25 00:58:17 PDT 2017 ON: 20.00 +20.0 20.06 -15.4 27.6 16.5 31.9 7 10 Alarm State:  0
Thu May 25 00:57:15 PDT 2017 ON: 19.99 +20.0 20.06 -15.2 27.9 16.3 32.1 7 9 Alarm State:  0
Thu May 25 00:56:14 PDT 2017 ON: 20.00 +20.0 20.06 -15.5 27.5 16.6 31.9 7 9 Alarm State:  0
Thu May 25 00:55:12 PDT 2017 ON: 20.00 +20.0 20.06 -15.1 28.0 16.3 32.1 7 9 Alarm State:  0
Thu May 25 00:54:11 PDT 2017 ON: 19.99 +20.0 20.05 -15.3 27.8 16.4 32.0 7 10 Alarm State:  0
Thu May 25 00:53:09 PDT 2017 ON: 20.00 +20.0 20.04 -14.9 28.3 16.1 32.2 7 9 Alarm State:  0
Thu May 25 00:52:08 PDT 2017 ON: 20.00 +20.0 20.06 -15.3 27.7 16.5 32.0 7 9 Alarm State:  0
Thu May 25 00:51:06 PDT 2017 ON: 20.00 +20.0 20.06 -15.1 28.1 16.2 32.1 7 10 Alarm State:  0
Thu May 25 00:50:05 PDT 2017 ON: 19.99 +20.0 20.05 -15.2 27.9 16.3 32.1 7 10 Alarm State:  0
Thu May 25 00:49:03 PDT 2017 ON: 19.99 +20.0 20.03 -15.2 27.9 16.3 32.1 7 10 Alarm State:  0
Thu May 25 00:48:02 PDT 2017 ON: 20.00 +20.0 20.07 -15.3 27.8 16.4 32.0 7 8 Alarm State:  0
Thu May 25 00:47:00 PDT 2017 ON: 20.00 +20.0 20.07 -15.3 27.7 16.5 31.9 7 9 Alarm State:  0
Thu May 25 00:45:59 PDT 2017 ON: 19.99 +20.0 20.05 -15.1 28.0 16.3 32.1 7 10 Alarm State:  0
Thu May 25 00:44:57 PDT 2017 ON: 20.00 +20.0 20.06 -15.3 27.7 16.5 32.0 8 9 Alarm State:  0
Thu May 25 00:43:56 PDT 2017 ON: 20.00 +20.0 20.05 -15.5 27.5 16.6 32.0 7 9 Alarm State:  0
Thu May 25 00:42:54 PDT 2017 ON: 20.00 +20.0 20.06 -15.4 27.6 16.5 32.0 7 10 Alarm State:  0
Thu May 25 00:41:53 PDT 2017 ON: 19.99 +20.0 20.05 -15.1 28.0 16.3 32.1 7 10 Alarm State:  0
Thu May 25 00:40:51 PDT 2017 ON: 19.99 +20.0 20.03 -15.1 28.0 16.3 32.1 7 10 Alarm State:  0
Thu May 25 00:39:50 PDT 2017 ON: 20.01 +20.0 20.07 -15.7 27.1 16.9 31.7 8 8 Alarm State:  0
Thu May 25 00:38:48 PDT 2017 ON: 20.00 +20.0 20.05 -15.2 27.9 16.3 32.0 7 10 Alarm State:  0
Thu May 25 00:37:47 PDT 2017 ON: 19.98 +20.0 20.05 -15.3 27.8 16.4 32.0 7 10 Alarm State:  0
Thu May 25 00:36:45 PDT 2017 ON: 19.99 +20.0 20.05 -15.3 27.8 16.4 32.1 7 9 Alarm State:  0
Thu May 25 00:35:44 PDT 2017 ON: 20.00 +20.0 20.05 -15.4 27.6 16.5 31.9 7 9 Alarm State:  0
Thu May 25 00:34:42 PDT 2017 ON: 20.01 +20.0 20.05 -15.3 27.8 16.4 32.0 7 10 Alarm State:  0
Thu May 25 00:33:41 PDT 2017 ON: 19.99 +20.0 20.06 -15.1 28.0 16.3 32.0 7 10 Alarm State:  0
Thu May 25 00:32:40 PDT 2017 ON: 19.99 +20.0 20.05 -15.1 28.0 16.3 32.1 7 10 Alarm State:  0
Thu May 25 00:31:38 PDT 2017 ON: 19.99 +20.0 20.06 -15.5 27.4 16.7 31.9 7 9 Alarm State:  0
Thu May 25 00:30:37 PDT 2017 ON: 20.00 +20.0 20.07 -15.3 27.8 16.4 32.0 7 9 Alarm State:  0
Thu May 25 00:29:35 PDT 2017 ON: 19.98 +20.0 20.05 -15.3 27.7 16.5 32.0 7 10 Alarm State:  0
Thu May 25 00:28:34 PDT 2017 ON: 19.99 +20.0 20.06 -15.2 27.9 16.3 32.1 7 9 Alarm State:  0
Thu May 25 00:27:32 PDT 2017 ON: 20.00 +20.0 20.06 -15.3 27.7 16.5 32.0 7 9 Alarm State:  0
Thu May 25 00:26:31 PDT 2017 ON: 19.99 +20.0 20.06 -15.3 27.8 16.4 32.0 7 9 Alarm State:  0
Thu May 25 00:25:29 PDT 2017 ON: 19.99 +20.0 20.04 -15.3 27.8 16.4 32.0 7 10 Alarm State:  0
Thu May 25 00:24:28 PDT 2017 ON: 20.00 +20.0 20.05 -15.1 28.0 16.3 32.1 7 10 Alarm State:  0
Thu May 25 00:23:26 PDT 2017 ON: 19.99 +20.0 20.06 -15.1 28.0 16.3 32.1 7 10 Alarm State:  0
Thu May 25 00:22:25 PDT 2017 ON: 19.99 +20.0 20.05 -15.1 28.0 16.3 32.0 7 10 Alarm State:  0
Thu May 25 00:21:23 PDT 2017 ON: 20.00 +20.0 20.04 -15.2 27.9 16.3 32.0 7 10 Alarm State:  0
Thu May 25 00:20:22 PDT 2017 ON: 19.99 +20.0 20.06 -15.4 27.6 16.5 32.0 7 9 Alarm State:  0
Thu May 25 00:19:20 PDT 2017 ON: 19.99 +20.0 20.05 -15.3 27.8 16.4 32.0 7 10 Alarm State:  0
Thu May 25 00:18:19 PDT 2017 ON: 19.99 +20.0 20.05 -15.1 28.1 16.2 32.0 7 10 Alarm State:  0
Thu May 25 00:17:17 PDT 2017 ON: 20.00 +20.0 20.05 -15.0 28.2 16.1 32.1 7 9 Alarm State:  0
Thu May 25 00:16:16 PDT 2017 ON: 20.00 +20.0 20.07 -15.5 27.5 16.6 31.9 7 9 Alarm State:  0
Thu May 25 00:15:14 PDT 2017 ON: 19.99 +20.0 20.05 -14.9 28.3 16.1 32.1 7 10 Alarm State:  0
Thu May 25 00:14:13 PDT 2017 ON: 20.00 +20.0 20.05 -15.0 28.2 16.1 32.1 7 9 Alarm State:  0
Thu May 25 00:13:11 PDT 2017 ON: 20.00 +20.0 20.06 -15.3 27.8 16.4 32.0 7 9 Alarm State:  0
Thu May 25 00:12:10 PDT 2017 ON: 19.99 +20.0 20.05 -14.9 28.3 16.1 32.2 7 10 Alarm State:  0
Thu May 25 00:11:08 PDT 2017 ON: 19.99 +20.0 20.05 -15.1 28.1 16.2 32.0 7 10 Alarm State:  0
Thu May 25 00:10:07 PDT 2017 ON: 19.99 +20.0 20.05 -15.5 27.4 16.7 31.7 7 10 Alarm State:  0
Thu May 25 00:09:05 PDT 2017 ON: 20.00 +20.0 20.05 -15.2 27.9 16.3 31.9 7 9 Alarm State:  0
Thu May 25 00:08:04 PDT 2017 ON: 20.00 +20.0 20.06 -15.1 28.0 16.3 32.1 7 10 Alarm State:  0
Thu May 25 00:07:02 PDT 2017 ON: 20.00 +20.0 20.04 -15.1 28.1 16.2 32.1 7 10 Alarm State:  0
Thu May 25 00:06:01 PDT 2017 ON: 19.99 +20.0 20.05 -15.2 27.9 16.3 32.1 7 9 Alarm State:  0
Thu May 25 00:04:59 PDT 2017 ON: 20.00 +20.0 20.05 -15.1 28.0 16.3 32.0 7 9 Alarm State:  0
Thu May 25 00:03:58 PDT 2017 ON: 20.00 +20.0 20.05 -14.9 28.3 16.1 32.1 7 10 Alarm State:  0
Thu May 25 00:02:56 PDT 2017 ON: 20.00 +20.0 20.04 -14.9 28.3 16.1 32.2 7 10 Alarm State:  0
Thu May 25 00:01:55 PDT 2017 ON: 19.99 +20.0 20.06 -15.3 27.7 16.5 32.0 7 9 Alarm State:  0
Thu May 25 00:00:53 PDT 2017 ON: 20.00 +20.0 20.07 -15.3 27.7 16.5 31.9 7 9 Alarm State:  0
Wed May 24 23:59:52 PDT 2017 ON: 20.00 +20.0 20.04 -15.2 27.9 16.3 32.0 7 10 Alarm State:  0
Wed May 24 23:58:50 PDT 2017 ON: 19.99 +20.0 20.04 -15.1 28.0 16.3 32.1 7 10 Alarm State:  0
Wed May 24 23:57:49 PDT 2017 ON: 20.00 +20.0 20.05 -15.1 28.0 16.3 32.0 7 10 Alarm State:  0
Wed May 24 23:56:47 PDT 2017 ON: 19.99 +20.0 20.06 -15.2 27.9 16.3 32.0 7 9 Alarm State:  0
Wed May 24 23:55:46 PDT 2017 ON: 20.00 +20.0 20.05 -15.4 27.6 16.5 32.0 8 9 Alarm State:  0
Wed May 24 23:54:44 PDT 2017 ON: 20.00 +20.0 20.07 -15.4 27.6 16.5 32.0 7 9 Alarm State:  0
Wed May 24 23:53:43 PDT 2017 ON: 19.99 +20.0 20.04 -15.4 27.6 16.5 31.9 7 10 Alarm State:  0
Wed May 24 23:52:41 PDT 2017 ON: 19.99 +20.0 20.06 -15.3 27.7 16.5 32.0 8 9 Alarm State:  0
Wed May 24 23:51:40 PDT 2017 ON: 20.00 +20.0 20.06 -15.1 28.0 16.3 32.0 7 9 Alarm State:  0
Wed May 24 23:50:38 PDT 2017 ON: 20.00 +20.0 20.05 -15.0 28.2 16.1 32.1 7 10 Alarm State:  0
Wed May 24 23:49:37 PDT 2017 ON: 19.99 +20.0 20.04 -14.8 28.5 16.0 32.1 7 10 Alarm State:  0
Wed May 24 23:48:35 PDT 2017 ON: 20.00 +20.0 20.05 -15.1 28.0 16.3 32.0 7 9 Alarm State:  0
Wed May 24 23:47:34 PDT 2017 ON: 20.00 +20.0 20.06 -15.2 27.9 16.3 32.1 7 9 Alarm State:  0
Wed May 24 23:46:33 PDT 2017 ON: 19.99 +20.0 20.07 -15.3 27.7 16.5 32.0 7 9 Alarm State:  0
Wed May 24 23:45:31 PDT 2017 ON: 19.99 +20.0 20.04 -15.1 28.0 16.3 32.0 7 10 Alarm State:  0
Wed May 24 23:44:30 PDT 2017 ON: 20.00 +20.0 20.06 -15.2 27.9 16.3 32.1 8 9 Alarm State:  0
Wed May 24 23:43:28 PDT 2017 ON: 20.00 +20.0 20.05 -15.3 27.7 16.5 32.0 7 10 Alarm State:  0
Wed May 24 23:42:27 PDT 2017 ON: 20.00 +20.0 20.07 -15.4 27.6 16.5 32.0 7 9 Alarm State:  0
Wed May 24 23:41:25 PDT 2017 ON: 19.99 +20.0 20.06 -15.2 27.9 16.3 32.1 7 9 Alarm State:  0
Wed May 24 23:40:24 PDT 2017 ON: 20.00 +20.0 20.06 -15.5 27.5 16.6 32.0 7 9 Alarm State:  0
Wed May 24 23:39:22 PDT 2017 ON: 19.99 +20.0 20.04 -14.8 28.5 16.0 32.3 7 10 Alarm State:  0
Wed May 24 23:38:21 PDT 2017 ON: 19.99 +20.0 20.05 -15.2 27.9 16.3 32.0 7 10 Alarm State:  0
Wed May 24 23:37:19 PDT 2017 ON: 19.99 +20.0 20.05 -15.2 27.9 16.3 32.1 7 10 Alarm State:  0
Wed May 24 23:36:18 PDT 2017 ON: 19.99 +20.0 20.05 -15.2 27.9 16.3 32.1 7 9 Alarm State:  0
Wed May 24 23:35:16 PDT 2017 ON: 19.99 +20.0 20.05 -15.3 27.8 16.4 32.0 7 9 Alarm State:  0
Wed May 24 23:34:15 PDT 2017 ON: 20.00 +20.0 20.06 -15.3 27.8 16.4 32.0 7 9 Alarm State:  0
Wed May 24 23:33:13 PDT 2017 ON: 19.99 +20.0 20.06 -15.1 28.0 16.3 32.1 7 10 Alarm State:  0
Wed May 24 23:32:12 PDT 2017 ON: 19.99 +20.0 20.06 -15.3 27.7 16.5 32.0 7 9 Alarm State:  0
Wed May 24 23:31:10 PDT 2017 ON: 20.01 +20.0 20.06 -15.5 27.4 16.7 31.7 7 9 Alarm State:  0
Wed May 24 23:30:09 PDT 2017 ON: 20.00 +20.0 20.05 -15.2 27.9 16.3 32.0 7 10 Alarm State:  0
Wed May 24 23:29:07 PDT 2017 ON: 19.98 +20.0 20.05 -15.3 27.8 16.4 31.9 7 10 Alarm State:  0
Wed May 24 23:28:06 PDT 2017 ON: 19.99 +20.0 20.05 -15.2 27.9 16.3 32.1 7 9 Alarm State:  0
Wed May 24 23:27:04 PDT 2017 ON: 20.00 +20.0 20.06 -15.4 27.6 16.5 31.9 7 9 Alarm State:  0
Wed May 24 23:26:03 PDT 2017 ON: 20.00 +20.0 20.06 -15.2 27.9 16.3 32.0 7 10 Alarm State:  0
Wed May 24 23:25:01 PDT 2017 ON: 19.99 +20.0 20.05 -15.1 28.1 16.2 32.2 7 10 Alarm State:  0
Wed May 24 23:24:00 PDT 2017 ON: 19.99 +20.0 20.04 -15.1 28.1 16.2 32.1 7 10 Alarm State:  0
Wed May 24 23:22:58 PDT 2017 ON: 20.00 +20.0 20.04 -15.2 27.9 16.3 31.9 7 10 Alarm State:  0
Wed May 24 23:21:57 PDT 2017 ON: 20.00 +20.0 20.06 -15.1 28.0 16.3 32.1 7 10 Alarm State:  0
Wed May 24 23:20:55 PDT 2017 ON: 19.99 +20.0 20.04 -15.2 27.9 16.3 32.1 7 10 Alarm State:  0
Wed May 24 23:19:54 PDT 2017 ON: 19.99 +20.0 20.05 -15.3 27.7 16.5 32.0 7 9 Alarm State:  0
Wed May 24 23:18:52 PDT 2017 ON: 20.00 +20.0 20.06 -15.5 27.5 16.6 31.9 7 9 Alarm State:  0
Wed May 24 23:17:51 PDT 2017 ON: 20.00 +20.0 20.06 -15.1 28.1 16.2 32.1 7 9 Alarm State:  0
Wed May 24 23:16:49 PDT 2017 ON: 19.99 +20.0 20.05 -15.1 28.1 16.2 32.1 7 10 Alarm State:  0
Wed May 24 23:15:48 PDT 2017 ON: 19.99 +20.0 20.05 -15.2 27.9 16.3 32.1 7 9 Alarm State:  0
Wed May 24 23:14:46 PDT 2017 ON: 20.00 +20.0 20.06 -15.3 27.8 16.4 32.0 7 9 Alarm State:  0
Wed May 24 23:13:45 PDT 2017 ON: 19.99 +20.0 20.06 -15.4 27.6 16.5 31.9 7 10 Alarm State:  0
Wed May 24 23:12:43 PDT 2017 ON: 19.99 +20.0 20.05 -15.1 28.1 16.2 32.1 7 9 Alarm State:  0
Wed May 24 23:11:42 PDT 2017 ON: 20.00 +20.0 20.06 -15.4 27.6 16.5 31.9 7 9 Alarm State:  0
Wed May 24 23:10:40 PDT 2017 ON: 19.99 +20.0 20.05 -15.4 27.6 16.5 32.0 7 10 Alarm State:  0
Wed May 24 23:09:39 PDT 2017 ON: 19.99 +20.0 20.03 -15.1 28.1 16.2 32.1 7 10 Alarm State:  0
Wed May 24 23:08:37 PDT 2017 ON: 20.00 +20.0 20.05 -15.2 27.9 16.3 32.0 7 10 Alarm State:  0
Wed May 24 23:07:36 PDT 2017 ON: 20.00 +20.0 20.08 -15.5 27.4 16.7 31.9 7 9 Alarm State:  0
Wed May 24 23:06:34 PDT 2017 ON: 19.99 +20.0 20.04 -14.9 28.3 16.1 32.1 7 10 Alarm State:  0
Wed May 24 23:05:33 PDT 2017 ON: 20.00 +20.0 20.05 -15.0 28.2 16.1 32.1 7 9 Alarm State:  0
Wed May 24 23:04:31 PDT 2017 ON: 20.00 +20.0 20.06 -15.2 27.9 16.3 32.1 7 10 Alarm State:  0
Wed May 24 23:03:30 PDT 2017 ON: 19.99 +20.0 20.06 -15.0 28.2 16.1 32.2 7 10 Alarm State:  0
Wed May 24 23:02:28 PDT 2017 ON: 19.99 +20.0 20.05 -15.2 27.9 16.3 32.0 7 9 Alarm State:  0
Wed May 24 23:01:27 PDT 2017 ON: 20.00 +20.0 20.07 -15.2 27.9 16.3 32.1 7 9 Alarm State:  0
Wed May 24 23:00:25 PDT 2017 ON: 19.99 +20.0 20.06 -15.3 27.8 16.4 32.1 7 9 Alarm State:  0
Wed May 24 22:59:24 PDT 2017 ON: 20.00 +20.0 20.06 -15.4 27.6 16.5 31.9 7 9 Alarm State:  0
Wed May 24 22:58:13 PDT 2017  Alarm State: 0
Wed May 24 22:58:13 PDT 2017 Chiller did not report ON, got this reading: 
Wed May 24 22:57:11 PDT 2017 ON: 19.99 +20.0 20.04 -14.9 28.3 16.1 32.2 7 11 Alarm State:  0
Wed May 24 22:56:10 PDT 2017 ON: 19.99 +20.0 20.05 -15.3 27.8 16.4 32.1 7 10 Alarm State:  0
Wed May 24 22:55:08 PDT 2017 ON: 20.00 +20.0 20.05 -15.1 28.0 16.3 32.0 7 9 Alarm State:  0
Wed May 24 22:54:07 PDT 2017 ON: 20.00 +20.0 20.06 -15.3 27.7 16.5 31.7 7 9 Alarm State:  0
Wed May 24 22:53:05 PDT 2017 ON: 20.00 +20.0 20.07 -15.3 27.7 16.5 32.0 8 9 Alarm State:  0
Wed May 24 22:52:04 PDT 2017 ON: 19.99 +20.0 20.05 -15.3 27.8 16.4 32.1 7 9 Alarm State:  0
Wed May 24 22:51:02 PDT 2017 ON: 20.00 +20.0 20.06 -15.4 27.6 16.5 32.0 7 9 Alarm State:  0
Wed May 24 22:50:01 PDT 2017 ON: 19.99 +20.0 20.05 -15.1 28.0 16.3 32.1 7 10 Alarm State:  0
Wed May 24 22:48:49 PDT 2017  Alarm State: 0
Wed May 24 22:48:49 PDT 2017 Chiller did not report ON, got this reading: 
Wed May 24 22:47:48 PDT 2017 ON: 20.00 +20.0 20.05 -15.4 27.6 16.5 32.0 7 10 Alarm State:  0
Wed May 24 22:46:46 PDT 2017 ON: 19.99 +20.0 20.05 -15.1 28.0 16.3 32.1 7 10 Alarm State:  0
Wed May 24 22:45:45 PDT 2017 ON: 20.00 +20.0 20.05 -15.5 27.5 16.6 31.9 7 9 Alarm State:  0
Wed May 24 22:44:43 PDT 2017 ON: 20.00 +20.0 20.07 -15.7 27.2 16.8 31.8 7 9 Alarm State:  0
Wed May 24 22:43:42 PDT 2017 ON: 20.00 +20.0 20.06 -15.5 27.5 16.6 32.0 8 9 Alarm State:  0
Wed May 24 22:42:40 PDT 2017 ON: 19.98 +20.0 20.04 -14.8 28.5 16.0 32.2 7 10 Alarm State:  0
Wed May 24 22:41:39 PDT 2017 ON: 19.99 +20.0 20.04 -15.1 28.0 16.3 32.1 7 10 Alarm State:  0
Wed May 24 22:40:37 PDT 2017 ON: 20.00 +20.0 20.06 -15.5 27.5 16.6 31.9 7 9 Alarm State:  0
Wed May 24 22:39:36 PDT 2017 ON: 19.99 +20.0 20.04 -14.9 28.3 16.1 32.2 7 11 Alarm State:  0
Wed May 24 22:38:34 PDT 2017 ON: 19.99 +20.0 20.05 -15.1 28.1 16.2 32.1 7 10 Alarm State:  0
Wed May 24 22:37:33 PDT 2017 ON: 20.00 +20.0 20.06 -15.0 28.2 16.1 32.1 7 10 Alarm State:  0
Wed May 24 22:36:31 PDT 2017 ON: 19.98 +20.0 20.05 -15.1 28.0 16.3 32.1 7 10 Alarm State:  0
Wed May 24 22:35:30 PDT 2017 ON: 20.00 +20.0 20.05 -15.4 27.6 16.5 31.9 7 9 Alarm State:  0
Wed May 24 22:34:28 PDT 2017 ON: 20.00 +20.0 20.05 -14.9 28.4 16.0 32.1 7 10 Alarm State:  0
Wed May 24 22:33:27 PDT 2017 ON: 19.99 +20.0 20.05 -15.1 28.0 16.3 32.1 7 10 Alarm State:  0
Wed May 24 22:32:25 PDT 2017 ON: 20.00 +20.0 20.07 -15.4 27.6 16.5 31.9 8 9 Alarm State:  0
Wed May 24 22:31:24 PDT 2017 ON: 19.99 +20.0 20.05 -15.3 27.7 16.5 32.0 7 10 Alarm State:  0
Wed May 24 22:30:22 PDT 2017 ON: 20.00 +20.0 20.06 -15.2 27.9 16.3 32.1 7 9 Alarm State:  0
Wed May 24 22:29:21 PDT 2017 ON: 19.99 +20.0 20.04 -14.9 28.4 16.0 32.2 7 10 Alarm State:  0
Wed May 24 22:28:19 PDT 2017 ON: 19.99 +20.0 20.06 -15.2 27.9 16.3 32.1 7 9 Alarm State:  0
Wed May 24 22:27:18 PDT 2017 ON: 20.00 +20.0 20.04 -14.9 28.4 16.0 32.2 7 10 Alarm State:  0
Wed May 24 22:26:06 PDT 2017  Alarm State: 0
Wed May 24 22:26:06 PDT 2017 Chiller did not report ON, got this reading: 
Wed May 24 22:25:05 PDT 2017 ON: 20.00 +20.0 20.06 -15.3 27.8 16.4 32.0 7 9 Alarm State:  0
Wed May 24 22:24:03 PDT 2017 ON: 20.00 +20.0 20.05 -14.9 28.4 16.0 32.2 7 10 Alarm State:  0
Wed May 24 22:23:02 PDT 2017 ON: 19.99 +20.0 20.06 -15.3 27.8 16.4 32.0 7 10 Alarm State:  0
Wed May 24 22:22:00 PDT 2017 ON: 19.98 +20.0 20.05 -15.1 28.0 16.3 32.1 7 9 Alarm State:  0
Wed May 24 22:20:59 PDT 2017 ON: 20.00 +20.0 20.05 -15.2 27.9 16.3 32.0 7 9 Alarm State:  0
Wed May 24 22:19:57 PDT 2017 ON: 20.00 +20.0 20.07 -15.3 27.7 16.5 32.0 7 9 Alarm State:  0
Wed May 24 22:18:56 PDT 2017 ON: 19.99 +20.0 20.05 -15.1 28.0 16.3 32.1 7 10 Alarm State:  0
Wed May 24 22:17:54 PDT 2017 ON: 19.99 +20.0 20.05 -15.2 27.9 16.3 32.0 7 10 Alarm State:  0
Wed May 24 22:16:53 PDT 2017 ON: 19.99 +20.0 20.05 -15.3 27.8 16.4 31.9 7 10 Alarm State:  0
Wed May 24 22:15:51 PDT 2017 ON: 19.99 +20.0 20.06 -15.2 27.9 16.3 32.0 7 9 Alarm State:  0
Wed May 24 22:14:50 PDT 2017 ON: 20.00 +20.0 20.06 -15.3 27.7 16.5 32.0 7 9 Alarm State:  0
Wed May 24 22:13:48 PDT 2017 ON: 19.99 +20.0 20.05 -15.1 28.0 16.3 32.0 7 10 Alarm State:  0
Wed May 24 22:12:47 PDT 2017 ON: 19.99 +20.0 20.05 -15.1 28.1 16.2 32.1 7 10 Alarm State:  0
Wed May 24 22:11:36 PDT 2017  Alarm State: 0
Wed May 24 22:11:36 PDT 2017 Chiller did not report ON, got this reading: 
Wed May 24 22:10:34 PDT 2017 ON: 19.99 +20.0 20.05 -14.9 28.4 16.0 32.2 7 10 Alarm State:  0
Wed May 24 22:09:32 PDT 2017 ON: 19.99 +20.0 20.06 -15.5 27.5 16.6 31.8 7 9 Alarm State:  0
Wed May 24 22:08:31 PDT 2017 ON: 19.99 +20.0 20.05 -15.3 27.8 16.4 32.0 7 10 Alarm State:  0
Wed May 24 22:07:29 PDT 2017 ON: 19.99 +20.0 20.05 -15.4 27.6 16.5 31.9 7 10 Alarm State:  0
Wed May 24 22:06:28 PDT 2017 ON: 19.99 +20.0 20.04 -15.2 27.9 16.3 32.0 7 10 Alarm State:  0
Wed May 24 22:05:26 PDT 2017 ON: 20.00 +20.0 20.06 -15.2 27.9 16.3 32.0 7 9 Alarm State:  0
Wed May 24 22:04:25 PDT 2017 ON: 20.00 +20.0 20.06 -15.2 27.9 16.3 32.0 7 10 Alarm State:  0
Wed May 24 22:03:23 PDT 2017 ON: 20.00 +20.0 20.06 -15.3 27.8 16.4 32.0 7 9 Alarm State:  0
Wed May 24 22:02:22 PDT 2017 ON: 20.00 +20.0 20.05 -15.2 27.9 16.3 32.1 7 9 Alarm State:  0
Wed May 24 22:01:20 PDT 2017 ON: 20.00 +20.0 20.06 -15.2 27.9 16.3 32.1 7 10 Alarm State:  0
Wed May 24 22:00:19 PDT 2017 ON: 19.99 +20.0 20.06 -15.3 27.7 16.5 32.0 7 10 Alarm State:  0
Wed May 24 21:59:17 PDT 2017 ON: 19.99 +20.0 20.05 -15.1 28.0 16.3 32.1 7 9 Alarm State:  0
Wed May 24 21:58:16 PDT 2017 ON: 19.99 +20.0 20.05 -15.3 27.7 16.5 31.9 7 10 Alarm State:  0
Wed May 24 21:57:15 PDT 2017 ON: 20.00 +20.0 20.05 -15.0 28.2 16.1 32.1 7 10 Alarm State:  0
Wed May 24 21:56:13 PDT 2017 ON: 19.99 +20.0 20.04 -14.9 28.3 16.1 32.1 7 10 Alarm State:  0
Wed May 24 21:55:12 PDT 2017 ON: 19.99 +20.0 20.06 -15.5 27.5 16.6 32.0 7 9 Alarm State:  0
Wed May 24 21:54:10 PDT 2017 ON: 20.00 +20.0 20.05 -15.0 28.2 16.1 32.2 7 10 Alarm State:  0
Wed May 24 21:53:09 PDT 2017 ON: 19.99 +20.0 20.05 -15.1 28.0 16.3 32.1 7 10 Alarm State:  0
Wed May 24 21:52:07 PDT 2017 ON: 20.00 +20.0 20.05 -15.1 28.0 16.3 32.1 7 10 Alarm State:  0
Wed May 24 21:51:06 PDT 2017 ON: 19.99 +20.0 20.05 -14.9 28.4 16.0 32.2 7 10 Alarm State:  0
Wed May 24 21:50:04 PDT 2017 ON: 19.99 +20.0 20.03 -15.2 27.9 16.3 32.0 7 10 Alarm State:  0
Wed May 24 21:49:03 PDT 2017 ON: 20.00 +20.0 20.05 -15.4 27.6 16.5 32.0 7 9 Alarm State:  0
Wed May 24 21:48:01 PDT 2017 ON: 20.00 +20.0 20.05 -15.0 28.2 16.1 32.2 7 10 Alarm State:  0
Wed May 24 21:47:00 PDT 2017 ON: 19.99 +20.0 20.06 -15.1 28.0 16.3 32.1 7 10 Alarm State:  0
Wed May 24 21:45:58 PDT 2017 ON: 19.99 +20.0 20.04 -14.9 28.4 16.0 32.2 7 10 Alarm State:  0
Wed May 24 21:44:57 PDT 2017 ON: 20.00 +20.0 20.04 -15.0 28.2 16.1 32.1 7 10 Alarm State:  0
Wed May 24 21:43:55 PDT 2017 ON: 20.00 +20.0 20.05 -15.3 27.8 16.4 31.8 7 10 Alarm State:  0
Wed May 24 21:42:54 PDT 2017 ON: 19.99 +20.0 20.06 -15.0 28.2 16.1 32.2 7 10 Alarm State:  0
Wed May 24 21:41:52 PDT 2017 ON: 19.99 +20.0 20.04 -15.1 28.0 16.3 32.1 7 10 Alarm State:  0
Wed May 24 21:40:51 PDT 2017 ON: 20.00 +20.0 20.04 -15.1 28.1 16.2 32.1 7 10 Alarm State:  0
Wed May 24 21:39:49 PDT 2017 ON: 20.01 +20.0 20.07 -15.5 27.5 16.6 31.9 8 9 Alarm State:  0
Wed May 24 21:38:48 PDT 2017 ON: 19.99 +20.0 20.06 -15.2 27.9 16.3 32.0 7 10 Alarm State:  0
Wed May 24 21:37:46 PDT 2017 ON: 19.99 +20.0 20.06 -15.1 28.0 16.3 32.1 7 9 Alarm State:  0
Wed May 24 21:36:45 PDT 2017 ON: 20.00 +20.0 20.05 -15.2 27.9 16.3 32.1 7 10 Alarm State:  0
Wed May 24 21:35:43 PDT 2017 ON: 20.00 +20.0 20.06 -15.3 27.8 16.4 32.0 7 9 Alarm State:  0
Wed May 24 21:34:42 PDT 2017 ON: 19.99 +20.0 20.06 -15.4 27.6 16.5 31.9 8 10 Alarm State:  0
Wed May 24 21:33:40 PDT 2017 ON: 19.98 +20.0 20.04 -15.1 28.1 16.2 32.1 7 10 Alarm State:  0
Wed May 24 21:32:39 PDT 2017 ON: 19.99 +20.0 20.05 -15.1 28.0 16.3 32.1 7 9 Alarm State:  0
Wed May 24 21:31:37 PDT 2017 ON: 20.00 +20.0 20.06 -15.5 27.4 16.7 31.9 8 9 Alarm State:  0
Wed May 24 21:30:36 PDT 2017 ON: 19.99 +20.0 20.05 -14.9 28.4 16.0 32.2 7 10 Alarm State:  0
Wed May 24 21:29:34 PDT 2017 ON: 19.99 +20.0 20.05 -15.1 28.0 16.3 32.0 7 10 Alarm State:  0
Wed May 24 21:28:33 PDT 2017 ON: 19.99 +20.0 20.04 -14.9 28.4 16.0 32.2 7 10 Alarm State:  0
Wed May 24 21:27:31 PDT 2017 ON: 20.00 +20.0 20.06 -15.5 27.5 16.6 32.0 7 9 Alarm State:  0
Wed May 24 21:26:30 PDT 2017 ON: 19.99 +20.0 20.06 -15.4 27.6 16.5 31.9 7 10 Alarm State:  0
Wed May 24 21:25:28 PDT 2017 ON: 19.99 +20.0 20.03 -14.9 28.3 16.1 32.2 7 10 Alarm State:  0
Wed May 24 21:24:27 PDT 2017 ON: 20.00 +20.0 20.06 -15.5 27.4 16.7 31.9 7 9 Alarm State:  0
Wed May 24 21:23:25 PDT 2017 ON: 19.99 +20.0 20.06 -15.3 27.7 16.5 32.0 7 10 Alarm State:  0
Wed May 24 21:22:24 PDT 2017 ON: 19.99 +20.0 20.04 -15.3 27.7 16.5 32.0 7 10 Alarm State:  0
Wed May 24 21:21:22 PDT 2017 ON: 20.00 +20.0 20.06 -15.5 27.5 16.6 31.9 7 9 Alarm State:  0
Wed May 24 21:20:21 PDT 2017 ON: 20.00 +20.0 20.06 -15.4 27.6 16.5 32.0 7 9 Alarm State:  0
Wed May 24 21:19:19 PDT 2017 ON: 19.99 +20.0 20.06 -15.1 28.1 16.2 32.1 7 9 Alarm State:  0
Wed May 24 21:18:18 PDT 2017 ON: 20.00 +20.0 20.06 -15.3 27.7 16.5 32.0 7 10 Alarm State:  0
Wed May 24 21:17:16 PDT 2017 ON: 19.99 +20.0 20.06 -15.3 27.7 16.5 32.0 7 9 Alarm State:  0
Wed May 24 21:16:15 PDT 2017 ON: 20.00 +20.0 20.05 -15.3 27.8 16.4 32.0 7 9 Alarm State:  0
Wed May 24 21:15:13 PDT 2017 ON: 20.00 +20.0 20.06 -15.3 27.7 16.5 32.0 7 9 Alarm State:  0
Wed May 24 21:14:12 PDT 2017 ON: 19.99 +20.0 20.04 -14.8 28.5 16.0 32.2 7 11 Alarm State:  0
Wed May 24 21:13:10 PDT 2017 ON: 19.99 +20.0 20.04 -14.9 28.4 16.0 32.2 7 10 Alarm State:  0
Wed May 24 21:12:09 PDT 2017 ON: 20.00 +20.0 20.05 -15.2 27.9 16.3 31.9 7 10 Alarm State:  0
Wed May 24 21:11:07 PDT 2017 ON: 19.99 +20.0 20.04 -15.0 28.2 16.1 32.1 7 11 Alarm State:  0
Wed May 24 21:10:06 PDT 2017 ON: 20.00 +20.0 20.06 -15.1 28.1 16.2 32.1 7 9 Alarm State:  0
Wed May 24 21:09:04 PDT 2017 ON: 19.99 +20.0 20.06 -15.1 28.1 16.2 32.1 7 10 Alarm State:  0
Wed May 24 21:08:03 PDT 2017 ON: 20.00 +20.0 20.04 -15.3 27.7 16.5 32.0 7 10 Alarm State:  0
Wed May 24 21:07:01 PDT 2017 ON: 20.00 +20.0 20.05 -15.4 27.6 16.5 32.0 7 10 Alarm State:  0
Wed May 24 21:06:00 PDT 2017 ON: 20.00 +20.0 20.05 -15.1 28.1 16.2 32.1 7 10 Alarm State:  0
Wed May 24 21:04:58 PDT 2017 ON: 19.99 +20.0 20.07 -15.5 27.5 16.6 31.9 7 9 Alarm State:  0
Wed May 24 21:03:57 PDT 2017 ON: 19.99 +20.0 20.04 -15.2 27.9 16.3 32.0 7 10 Alarm State:  0
Wed May 24 21:02:55 PDT 2017 ON: 20.00 +20.0 20.06 -15.3 27.8 16.4 31.9 7 9 Alarm State:  0
Wed May 24 21:01:54 PDT 2017 ON: 20.00 +20.0 20.07 -15.1 28.0 16.3 32.1 7 9 Alarm State:  0
Wed May 24 21:00:52 PDT 2017 ON: 19.99 +20.0 20.06 -15.3 27.7 16.5 32.0 7 10 Alarm State:  0
Wed May 24 20:59:51 PDT 2017 ON: 19.99 +20.0 20.05 -15.1 28.1 16.2 32.1 7 10 Alarm State:  0
Wed May 24 20:58:49 PDT 2017 ON: 20.00 +20.0 20.05 -15.0 28.2 16.1 32.1 7 9 Alarm State:  0
Wed May 24 20:57:48 PDT 2017 ON: 20.00 +20.0 20.06 -15.2 27.9 16.3 32.1 6 9 Alarm State:  0
Wed May 24 20:56:46 PDT 2017 ON: 19.99 +20.0 20.04 -14.8 28.5 16.0 32.2 7 10 Alarm State:  0
Wed May 24 20:55:45 PDT 2017 ON: 20.00 +20.0 20.04 -15.3 27.8 16.4 32.0 7 10 Alarm State:  0
Wed May 24 20:54:43 PDT 2017 ON: 20.00 +20.0 20.06 -15.3 27.7 16.5 32.0 7 9 Alarm State:  0
Wed May 24 20:53:42 PDT 2017 ON: 19.99 +20.0 20.05 -14.8 28.5 16.0 32.2 7 10 Alarm State:  0
Wed May 24 20:52:40 PDT 2017 ON: 19.99 +20.0 20.05 -15.1 28.0 16.3 32.0 7 10 Alarm State:  0
Wed May 24 20:51:39 PDT 2017 ON: 19.99 +20.0 20.05 -15.1 28.1 16.2 32.1 7 10 Alarm State:  0
Wed May 24 20:50:37 PDT 2017 ON: 19.99 +20.0 20.04 -15.1 28.1 16.2 32.1 7 10 Alarm State:  0
Wed May 24 20:49:36 PDT 2017 ON: 19.99 +20.0 20.05 -15.4 27.6 16.5 31.9 7 10 Alarm State:  0
Wed May 24 20:48:34 PDT 2017 ON: 19.98 +20.0 20.05 -15.3 27.7 16.5 32.0 7 9 Alarm State:  0
Wed May 24 20:47:33 PDT 2017 ON: 20.00 +20.0 20.07 -15.7 27.1 16.9 31.6 7 8 Alarm State:  0
Wed May 24 20:46:31 PDT 2017 ON: 20.00 +20.0 20.07 -15.4 27.6 16.5 32.0 7 9 Alarm State:  0
Wed May 24 20:45:30 PDT 2017 ON: 19.99 +20.0 20.05 -15.1 28.1 16.2 32.0 7 10 Alarm State:  0
Wed May 24 20:44:28 PDT 2017 ON: 19.99 +20.0 20.03 -15.1 28.1 16.2 32.0 7 10 Alarm State:  0
Wed May 24 20:43:27 PDT 2017 ON: 19.99 +20.0 20.06 -15.2 27.9 16.3 32.0 7 9 Alarm State:  0
Wed May 24 20:42:25 PDT 2017 ON: 20.00 +20.0 20.06 -15.4 27.6 16.5 31.7 7 10 Alarm State:  0
Wed May 24 20:41:24 PDT 2017 ON: 19.99 +20.0 20.05 -15.3 27.8 16.4 32.1 7 10 Alarm State:  0
Wed May 24 20:40:22 PDT 2017 ON: 20.00 +20.0 20.05 -15.2 27.9 16.3 32.1 7 9 Alarm State:  0
Wed May 24 20:39:21 PDT 2017 ON: 20.00 +20.0 20.06 -15.4 27.6 16.5 31.9 7 9 Alarm State:  0
Wed May 24 20:38:19 PDT 2017 ON: 20.00 +20.0 20.06 -15.2 27.9 16.3 32.0 7 9 Alarm State:  0
Wed May 24 20:37:18 PDT 2017 ON: 20.00 +20.0 20.06 -15.3 27.8 16.4 32.0 7 9 Alarm State:  0
Wed May 24 20:36:16 PDT 2017 ON: 19.99 +20.0 20.05 -15.1 28.1 16.2 32.1 7 10 Alarm State:  0
Wed May 24 20:35:15 PDT 2017 ON: 20.00 +20.0 20.06 -15.3 27.7 16.5 32.0 7 9 Alarm State:  0
Wed May 24 20:34:13 PDT 2017 ON: 20.00 +20.0 20.06 -15.3 27.8 16.4 32.0 7 9 Alarm State:  0
Wed May 24 20:33:12 PDT 2017 ON: 19.99 +20.0 20.06 -15.3 27.8 16.4 32.0 7 9 Alarm State:  0
Wed May 24 20:32:10 PDT 2017 ON: 19.99 +20.0 20.07 -15.6 27.3 16.8 31.7 7 9 Alarm State:  0
Wed May 24 20:31:09 PDT 2017 ON: 20.00 +20.0 20.05 -15.1 28.0 16.3 32.1 7 9 Alarm State:  0
Wed May 24 20:30:07 PDT 2017 ON: 20.00 +20.0 20.06 -15.3 27.8 16.4 32.0 7 10 Alarm State:  0
Wed May 24 20:29:06 PDT 2017 ON: 19.99 +20.0 20.06 -15.0 28.2 16.1 32.1 7 9 Alarm State:  0
Wed May 24 20:28:04 PDT 2017 ON: 20.00 +20.0 20.05 -15.0 28.2 16.1 32.1 7 10 Alarm State:  0
Wed May 24 20:27:03 PDT 2017 ON: 20.00 +20.0 20.05 -14.9 28.3 16.1 32.1 7 10 Alarm State:  0
Wed May 24 20:26:01 PDT 2017 ON: 19.99 +20.0 20.06 -15.4 27.6 16.5 31.9 7 9 Alarm State:  0
Wed May 24 20:25:00 PDT 2017 ON: 20.00 +20.0 20.06 -15.3 27.8 16.4 32.1 7 9 Alarm State:  0
Wed May 24 20:23:58 PDT 2017 ON: 20.00 +20.0 20.05 -15.1 28.0 16.3 32.0 7 10 Alarm State:  0
Wed May 24 20:22:57 PDT 2017 ON: 19.99 +20.0 20.06 -15.3 27.8 16.4 32.0 7 9 Alarm State:  0
Wed May 24 20:21:55 PDT 2017 ON: 20.00 +20.0 20.06 -15.3 27.8 16.4 32.1 7 9 Alarm State:  0
Wed May 24 20:20:54 PDT 2017 ON: 20.00 +20.0 20.06 -15.3 27.7 16.5 32.0 8 10 Alarm State:  0
Wed May 24 20:19:52 PDT 2017 ON: 19.99 +20.0 20.04 -15.2 27.9 16.3 31.9 7 11 Alarm State:  0
Wed May 24 20:18:51 PDT 2017 ON: 19.99 +20.0 20.04 -15.1 28.1 16.2 32.1 7 10 Alarm State:  0
Wed May 24 20:17:49 PDT 2017 ON: 20.00 +20.0 20.05 -15.1 28.1 16.2 32.1 7 10 Alarm State:  0
Wed May 24 20:16:48 PDT 2017 ON: 20.01 +20.0 20.06 -15.1 28.0 16.3 31.9 7 10 Alarm State:  0
Wed May 24 20:15:46 PDT 2017 ON: 19.99 +20.0 20.05 -15.0 28.2 16.1 32.1 7 10 Alarm State:  0
Wed May 24 20:14:45 PDT 2017 ON: 19.98 +20.0 20.05 -15.3 27.8 16.4 32.0 7 10 Alarm State:  0
Wed May 24 20:13:43 PDT 2017 ON: 20.00 +20.0 20.05 -15.2 27.9 16.3 32.0 7 10 Alarm State:  0
Wed May 24 20:12:42 PDT 2017 ON: 19.99 +20.0 20.07 -15.3 27.7 16.5 32.0 8 9 Alarm State:  0
Wed May 24 20:11:40 PDT 2017 ON: 19.99 +20.0 20.06 -15.5 27.4 16.7 31.8 7 9 Alarm State:  0
Wed May 24 20:10:39 PDT 2017 ON: 19.99 +20.0 20.06 -15.3 27.7 16.5 32.0 7 9 Alarm State:  0
Wed May 24 20:09:37 PDT 2017 ON: 20.00 +20.0 20.05 -15.3 27.7 16.5 31.9 7 10 Alarm State:  0
Wed May 24 20:08:36 PDT 2017 ON: 20.00 +20.0 20.06 -15.3 27.8 16.4 32.0 7 10 Alarm State:  0
Wed May 24 20:07:34 PDT 2017 ON: 19.99 +20.0 20.06 -15.3 27.8 16.4 32.0 7 9 Alarm State:  0
Wed May 24 20:06:33 PDT 2017 ON: 19.99 +20.0 20.04 -15.3 27.7 16.5 32.0 7 10 Alarm State:  0
Wed May 24 20:05:31 PDT 2017 ON: 20.00 +20.0 20.06 -15.3 27.8 16.4 32.0 7 9 Alarm State:  0
Wed May 24 20:04:30 PDT 2017 ON: 20.00 +20.0 20.07 -15.1 28.1 16.2 32.1 7 9 Alarm State:  0
Wed May 24 20:03:28 PDT 2017 ON: 20.00 +20.0 20.06 -14.9 28.4 16.0 32.2 7 10 Alarm State:  0
Wed May 24 20:02:27 PDT 2017 ON: 19.99 +20.0 20.05 -15.2 27.9 16.3 32.0 7 10 Alarm State:  0
Wed May 24 20:01:25 PDT 2017 ON: 19.99 +20.0 20.05 -15.0 28.2 16.1 32.1 7 9 Alarm State:  0
Wed May 24 20:00:24 PDT 2017 ON: 20.01 +20.0 20.07 -15.4 27.6 16.5 31.9 7 9 Alarm State:  0
Wed May 24 19:59:22 PDT 2017 ON: 20.00 +20.0 20.07 -15.3 27.8 16.4 32.1 7 9 Alarm State:  0
Wed May 24 19:58:21 PDT 2017 ON: 19.99 +20.0 20.05 -15.2 27.9 16.3 32.0 7 10 Alarm State:  0
Wed May 24 19:57:19 PDT 2017 ON: 19.99 +20.0 20.05 -15.1 28.1 16.2 32.1 7 9 Alarm State:  0
Wed May 24 19:56:18 PDT 2017 ON: 20.00 +20.0 20.06 -15.3 27.7 16.5 32.0 8 9 Alarm State:  0
Wed May 24 19:55:16 PDT 2017 ON: 19.99 +20.0 20.05 -14.9 28.3 16.1 32.1 7 10 Alarm State:  0
Wed May 24 19:54:15 PDT 2017 ON: 19.99 +20.0 20.05 -15.3 27.8 16.4 31.9 7 9 Alarm State:  0
Wed May 24 19:53:13 PDT 2017 ON: 20.00 +20.0 20.05 -15.3 27.7 16.5 32.0 7 9 Alarm State:  0
Wed May 24 19:52:12 PDT 2017 ON: 20.00 +20.0 20.07 -15.3 27.7 16.5 31.9 7 9 Alarm State:  0
Wed May 24 19:51:10 PDT 2017 ON: 19.99 +20.0 20.05 -14.9 28.4 16.0 32.2 7 10 Alarm State:  0
Wed May 24 19:50:09 PDT 2017 ON: 19.99 +20.0 20.05 -14.9 28.3 16.1 32.2 7 10 Alarm State:  0
Wed May 24 19:49:07 PDT 2017 ON: 20.00 +20.0 20.07 -15.5 27.5 16.6 31.9 7 9 Alarm State:  0
Wed May 24 19:48:06 PDT 2017 ON: 20.00 +20.0 20.06 -15.2 27.9 16.3 32.1 7 9 Alarm State:  0
Wed May 24 19:47:04 PDT 2017 ON: 20.00 +20.0 20.06 -15.1 28.1 16.2 32.0 7 9 Alarm State:  0
Wed May 24 19:46:03 PDT 2017 ON: 19.99 +20.0 20.05 -15.4 27.6 16.5 32.0 7 10 Alarm State:  0
Wed May 24 19:45:01 PDT 2017 ON: 20.00 +20.0 20.06 -15.4 27.6 16.5 32.0 8 10 Alarm State:  0
Wed May 24 19:44:00 PDT 2017 ON: 19.99 +20.0 20.05 -15.3 27.8 16.4 32.0 7 10 Alarm State:  0
Wed May 24 19:42:58 PDT 2017 ON: 20.00 +20.0 20.05 -15.3 27.8 16.4 31.9 7 9 Alarm State:  0
Wed May 24 19:41:57 PDT 2017 ON: 20.01 +20.0 20.05 -14.9 28.3 16.1 32.1 7 10 Alarm State:  0
Wed May 24 19:40:55 PDT 2017 ON: 20.00 +20.0 20.05 -15.0 28.2 16.1 32.1 7 10 Alarm State:  0
Wed May 24 19:39:54 PDT 2017 ON: 19.99 +20.0 20.04 -14.9 28.3 16.1 32.2 7 10 Alarm State:  0
Wed May 24 19:38:52 PDT 2017 ON: 20.00 +20.0 20.06 -15.3 27.8 16.4 32.0 7 9 Alarm State:  0
Wed May 24 19:37:51 PDT 2017 ON: 19.99 +20.0 20.05 -15.3 27.7 16.5 32.0 7 10 Alarm State:  0
Wed May 24 19:36:49 PDT 2017 ON: 20.00 +20.0 20.05 -15.4 27.6 16.5 32.0 8 9 Alarm State:  0
Wed May 24 19:35:48 PDT 2017 ON: 20.00 +20.0 20.05 -15.1 28.0 16.3 32.0 7 10 Alarm State:  0
Wed May 24 19:34:46 PDT 2017 ON: 19.99 +20.0 20.05 -15.0 28.2 16.1 32.1 7 10 Alarm State:  0
Wed May 24 19:33:45 PDT 2017 ON: 20.00 +20.0 20.04 -15.1 28.1 16.2 32.1 7 10 Alarm State:  0
Wed May 24 19:32:43 PDT 2017 ON: 20.00 +20.0 20.05 -15.1 28.0 16.3 32.1 7 10 Alarm State:  0
Wed May 24 19:31:42 PDT 2017 ON: 20.00 +20.0 20.05 -14.9 28.3 16.1 32.1 7 10 Alarm State:  0
Wed May 24 19:30:40 PDT 2017 ON: 19.99 +20.0 20.05 -15.3 27.8 16.4 32.0 7 10 Alarm State:  0
Wed May 24 19:29:39 PDT 2017 ON: 19.99 +20.0 20.05 -15.2 27.9 16.3 32.0 7 9 Alarm State:  0
Wed May 24 19:28:37 PDT 2017 ON: 20.00 +20.0 20.06 -15.3 27.8 16.4 32.1 7 9 Alarm State:  0
Wed May 24 19:27:36 PDT 2017 ON: 20.00 +20.0 20.07 -15.4 27.6 16.5 32.0 7 9 Alarm State:  0
Wed May 24 19:26:34 PDT 2017 ON: 19.98 +20.0 20.04 -14.9 28.3 16.1 32.2 7 10 Alarm State:  0
Wed May 24 19:25:33 PDT 2017 ON: 19.99 +20.0 20.05 -15.3 27.8 16.4 32.0 7 9 Alarm State:  0
Wed May 24 19:24:31 PDT 2017 ON: 20.00 +20.0 20.06 -15.1 28.1 16.2 32.1 7 9 Alarm State:  0
Wed May 24 19:23:30 PDT 2017 ON: 19.99 +20.0 20.05 -15.1 28.0 16.3 32.0 7 10 Alarm State:  0
Wed May 24 19:22:28 PDT 2017 ON: 19.99 +20.0 20.06 -15.2 27.9 16.3 32.1 7 9 Alarm State:  0
Wed May 24 19:21:27 PDT 2017 ON: 19.99 +20.0 20.05 -15.2 27.9 16.3 32.0 7 10 Alarm State:  0
Wed May 24 19:20:25 PDT 2017 ON: 20.00 +20.0 20.05 -15.1 28.0 16.3 32.1 7 10 Alarm State:  0
Wed May 24 19:19:24 PDT 2017 ON: 20.00 +20.0 20.06 -15.3 27.7 16.5 31.9 7 10 Alarm State:  0
Wed May 24 19:18:22 PDT 2017 ON: 19.98 +20.0 20.04 -14.7 28.6 15.9 32.2 7 10 Alarm State:  0
Wed May 24 19:17:21 PDT 2017 ON: 20.00 +20.0 20.05 -15.1 28.1 16.2 32.1 7 9 Alarm State:  0
Wed May 24 19:16:19 PDT 2017 ON: 19.99 +20.0 20.05 -15.1 28.0 16.3 32.1 7 9 Alarm State:  0
Wed May 24 19:15:18 PDT 2017 ON: 20.00 +20.0 20.06 -15.1 28.0 16.3 32.0 7 10 Alarm State:  0
Wed May 24 19:14:16 PDT 2017 ON: 19.99 +20.0 20.06 -15.0 28.2 16.1 32.1 7 10 Alarm State:  0
Wed May 24 19:13:15 PDT 2017 ON: 19.99 +20.0 20.05 -15.2 27.9 16.3 32.0 7 10 Alarm State:  0
Wed May 24 19:12:13 PDT 2017 ON: 19.99 +20.0 20.05 -15.3 27.8 16.4 32.0 7 9 Alarm State:  0
Wed May 24 19:11:12 PDT 2017 ON: 20.00 +20.0 20.05 -15.4 27.6 16.5 32.0 7 9 Alarm State:  0
Wed May 24 19:10:10 PDT 2017 ON: 20.00 +20.0 20.06 -15.0 28.2 16.1 32.1 7 9 Alarm State:  0
Wed May 24 19:09:09 PDT 2017 ON: 20.00 +20.0 20.05 -15.0 28.2 16.1 32.0 7 10 Alarm State:  0
Wed May 24 19:08:07 PDT 2017 ON: 19.99 +20.0 20.06 -15.1 28.1 16.2 32.1 7 9 Alarm State:  0
Wed May 24 19:07:06 PDT 2017 ON: 19.99 +20.0 20.05 -15.2 27.9 16.3 32.0 7 10 Alarm State:  0
Wed May 24 19:06:04 PDT 2017 ON: 20.00 +20.0 20.05 -15.1 28.0 16.3 32.0 7 9 Alarm State:  0
Wed May 24 19:05:03 PDT 2017 ON: 20.00 +20.0 20.07 -15.2 27.9 16.3 32.0 7 9 Alarm State:  0
Wed May 24 19:04:01 PDT 2017 ON: 20.00 +20.0 20.08 -15.5 27.4 16.7 31.6 7 9 Alarm State:  0
Wed May 24 19:03:00 PDT 2017 ON: 19.99 +20.0 20.06 -15.0 28.2 16.1 32.1 7 10 Alarm State:  0
Wed May 24 19:01:58 PDT 2017 ON: 19.99 +20.0 20.05 -15.3 27.8 16.4 31.9 7 9 Alarm State:  0
Wed May 24 19:00:57 PDT 2017 ON: 20.00 +20.0 20.05 -15.4 27.6 16.5 31.9 7 9 Alarm State:  0
Wed May 24 18:59:55 PDT 2017 ON: 20.00 +20.0 20.07 -15.1 28.1 16.2 32.1 7 9 Alarm State:  0
Wed May 24 18:58:54 PDT 2017 ON: 19.99 +20.0 20.06 -15.1 28.0 16.3 32.1 7 10 Alarm State:  0
Wed May 24 18:57:52 PDT 2017 ON: 19.99 +20.0 20.05 -14.9 28.3 16.1 32.1 7 10 Alarm State:  0
Wed May 24 18:56:51 PDT 2017 ON: 20.00 +20.0 20.04 -15.1 28.1 16.2 32.0 7 10 Alarm State:  0
Wed May 24 18:55:49 PDT 2017 ON: 20.00 +20.0 20.05 -15.1 28.1 16.2 32.1 7 10 Alarm State:  0
Wed May 24 18:54:48 PDT 2017 ON: 19.99 +20.0 20.05 -15.1 28.0 16.3 32.1 7 10 Alarm State:  0
Wed May 24 18:53:46 PDT 2017 ON: 20.00 +20.0 20.05 -15.3 27.8 16.4 32.0 7 9 Alarm State:  0
Wed May 24 18:52:45 PDT 2017 ON: 20.00 +20.0 20.05 -15.2 27.9 16.3 32.0 7 10 Alarm State:  0
Wed May 24 18:51:43 PDT 2017 ON: 19.99 +20.0 20.05 -15.3 27.8 16.4 32.0 7 10 Alarm State:  0
Wed May 24 18:50:42 PDT 2017 ON: 20.00 +20.0 20.05 -15.0 28.2 16.1 32.1 7 10 Alarm State:  0
Wed May 24 18:49:40 PDT 2017 ON: 20.00 +20.0 20.06 -15.3 27.7 16.5 32.0 7 9 Alarm State:  0
Wed May 24 18:48:39 PDT 2017 ON: 20.00 +20.0 20.06 -15.3 27.8 16.4 32.0 7 10 Alarm State:  0
Wed May 24 18:47:37 PDT 2017 ON: 19.99 +20.0 20.04 -15.3 27.7 16.5 32.0 7 10 Alarm State:  0
Wed May 24 18:46:36 PDT 2017 ON: 20.00 +20.0 20.05 -15.1 28.0 16.3 32.0 7 9 Alarm State:  0
Wed May 24 18:45:34 PDT 2017 ON: 20.00 +20.0 20.06 -15.5 27.5 16.6 31.6 7 10 Alarm State:  0
Wed May 24 18:44:33 PDT 2017 ON: 19.99 +20.0 20.06 -14.9 28.3 16.1 32.1 7 10 Alarm State:  0
Wed May 24 18:43:31 PDT 2017 ON: 19.99 +20.0 20.05 -15.4 27.6 16.5 31.8 7 9 Alarm State:  0
Wed May 24 18:42:30 PDT 2017 ON: 20.00 +20.0 20.07 -15.3 27.7 16.5 31.9 7 9 Alarm State:  0
Wed May 24 18:41:28 PDT 2017 ON: 19.99 +20.0 20.05 -14.9 28.4 16.0 32.1 7 10 Alarm State:  0
Wed May 24 18:40:27 PDT 2017 ON: 20.00 +20.0 20.05 -15.1 28.0 16.3 32.1 7 10 Alarm State:  0
Wed May 24 18:39:25 PDT 2017 ON: 19.99 +20.0 20.05 -15.3 27.7 16.5 32.0 7 10 Alarm State:  0
Wed May 24 18:38:24 PDT 2017 ON: 19.99 +20.0 20.05 -15.3 27.7 16.5 31.9 7 9 Alarm State:  0
Wed May 24 18:37:22 PDT 2017 ON: 20.00 +20.0 20.06 -15.5 27.5 16.6 31.9 7 9 Alarm State:  0
Wed May 24 18:36:21 PDT 2017 ON: 20.00 +20.0 20.06 -15.5 27.5 16.6 31.9 8 9 Alarm State:  0
Wed May 24 18:35:19 PDT 2017 ON: 19.99 +20.0 20.06 -15.0 28.2 16.1 32.1 7 9 Alarm State:  0
Wed May 24 18:34:18 PDT 2017 ON: 20.00 +20.0 20.04 -15.0 28.2 16.1 32.1 7 10 Alarm State:  0
Wed May 24 18:33:16 PDT 2017 ON: 20.00 +20.0 20.07 -15.5 27.5 16.6 31.6 7 9 Alarm State:  0
Wed May 24 18:32:15 PDT 2017 ON: 20.00 +20.0 20.05 -15.0 28.2 16.1 32.1 7 10 Alarm State:  0
Wed May 24 18:31:13 PDT 2017 ON: 19.99 +20.0 20.06 -15.3 27.7 16.5 32.0 8 10 Alarm State:  0
Wed May 24 18:30:12 PDT 2017 ON: 19.99 +20.0 20.05 -15.0 28.2 16.1 32.1 7 9 Alarm State:  0
Wed May 24 18:29:10 PDT 2017 ON: 20.00 +20.0 20.05 -15.3 27.7 16.5 31.9 7 10 Alarm State:  0
Wed May 24 18:28:09 PDT 2017 ON: 19.99 +20.0 20.06 -15.0 28.2 16.1 32.2 7 9 Alarm State:  0
Wed May 24 18:27:07 PDT 2017 ON: 20.00 +20.0 20.06 -15.2 27.9 16.3 32.0 7 9 Alarm State:  0
Wed May 24 18:26:06 PDT 2017 ON: 20.00 +20.0 20.06 -15.3 27.8 16.4 32.1 7 10 Alarm State:  0
Wed May 24 18:25:04 PDT 2017 ON: 19.99 +20.0 20.04 -15.1 28.1 16.2 32.1 7 10 Alarm State:  0
Wed May 24 18:24:03 PDT 2017 ON: 19.99 +20.0 20.04 -14.7 28.6 15.9 32.2 7 10 Alarm State:  0
Wed May 24 18:23:01 PDT 2017 ON: 20.00 +20.0 20.06 -15.5 27.5 16.6 31.8 8 9 Alarm State:  0
Wed May 24 18:22:00 PDT 2017 ON: 20.00 +20.0 20.05 -15.2 27.9 16.3 31.9 7 10 Alarm State:  0
Wed May 24 18:20:58 PDT 2017 ON: 19.99 +20.0 20.05 -15.1 28.0 16.3 32.1 7 10 Alarm State:  0
Wed May 24 18:19:57 PDT 2017 ON: 19.99 +20.0 20.05 -14.9 28.3 16.1 32.2 7 9 Alarm State:  0
Wed May 24 18:18:55 PDT 2017 ON: 20.01 +20.0 20.06 -15.4 27.6 16.5 32.0 7 9 Alarm State:  0
Wed May 24 18:17:54 PDT 2017 ON: 20.00 +20.0 20.07 -15.2 27.9 16.3 32.0 7 9 Alarm State:  0
Wed May 24 18:16:43 PDT 2017  Alarm State: 0
Wed May 24 18:16:43 PDT 2017 Chiller did not report ON, got this reading: 
Wed May 24 18:15:41 PDT 2017 ON: 20.00 +20.0 20.05 -15.3 27.7 16.5 32.0 8 9 Alarm State:  0
Wed May 24 18:14:40 PDT 2017 ON: 20.00 +20.0 20.06 -15.5 27.4 16.7 31.7 7 10 Alarm State:  0
Wed May 24 18:13:38 PDT 2017 ON: 19.99 +20.0 20.05 -15.0 28.2 16.1 32.1 7 10 Alarm State:  0
Wed May 24 18:12:37 PDT 2017 ON: 20.00 +20.0 20.05 -15.3 27.8 16.4 32.1 8 10 Alarm State:  0
Wed May 24 18:11:35 PDT 2017 ON: 19.99 +20.0 20.05 -14.9 28.3 16.1 32.1 7 10 Alarm State:  0
Wed May 24 18:10:34 PDT 2017 ON: 19.99 +20.0 20.06 -15.3 27.7 16.5 32.1 7 9 Alarm State:  0
Wed May 24 18:09:32 PDT 2017 ON: 20.00 +20.0 20.05 -14.8 28.5 16.0 32.2 7 10 Alarm State:  0
Wed May 24 18:08:31 PDT 2017 ON: 19.99 +20.0 20.05 -15.4 27.6 16.5 32.0 7 9 Alarm State:  0
Wed May 24 18:07:29 PDT 2017 ON: 20.00 +20.0 20.07 -15.3 27.7 16.5 32.0 7 9 Alarm State:  0
Wed May 24 18:06:28 PDT 2017 ON: 19.99 +20.0 20.04 -15.2 27.9 16.3 32.1 7 10 Alarm State:  0
Wed May 24 18:05:26 PDT 2017 ON: 19.99 +20.0 20.05 -15.3 27.7 16.5 31.9 7 9 Alarm State:  0
Wed May 24 18:04:25 PDT 2017 ON: 20.00 +20.0 20.06 -15.4 27.6 16.5 31.9 8 8 Alarm State:  0
Wed May 24 18:03:23 PDT 2017 ON: 20.01 +20.0 20.05 -15.3 27.8 16.4 31.9 7 10 Alarm State:  0
Wed May 24 18:02:22 PDT 2017 ON: 19.99 +20.0 20.06 -15.2 27.9 16.3 32.1 7 10 Alarm State:  0
Wed May 24 18:01:20 PDT 2017 ON: 20.00 +20.0 20.06 -15.0 28.2 16.1 32.1 7 9 Alarm State:  0
Wed May 24 18:00:19 PDT 2017 ON: 19.99 +20.0 20.06 -15.2 27.9 16.3 32.0 7 9 Alarm State:  0
Wed May 24 17:59:17 PDT 2017 ON: 20.00 +20.0 20.06 -15.1 28.0 16.3 32.1 7 9 Alarm State:  0
Wed May 24 17:58:16 PDT 2017 ON: 19.99 +20.0 20.04 -15.1 28.1 16.2 32.1 7 10 Alarm State:  0
Wed May 24 17:57:14 PDT 2017 ON: 20.00 +20.0 20.06 -15.3 27.8 16.4 32.0 7 10 Alarm State:  0
Wed May 24 17:56:13 PDT 2017 ON: 19.99 +20.0 20.05 -15.1 28.1 16.2 32.1 7 10 Alarm State:  0
Wed May 24 17:55:11 PDT 2017 ON: 20.00 +20.0 20.05 -15.1 28.0 16.3 32.1 7 10 Alarm State:  0
Wed May 24 17:54:10 PDT 2017 ON: 20.00 +20.0 20.06 -15.2 27.9 16.3 32.0 7 9 Alarm State:  0
Wed May 24 17:53:08 PDT 2017 ON: 20.00 +20.0 20.06 -15.2 27.9 16.3 32.1 7 10 Alarm State:  0
Wed May 24 17:52:07 PDT 2017 ON: 19.99 +20.0 20.05 -14.9 28.4 16.0 32.1 7 10 Alarm State:  0
Wed May 24 17:51:05 PDT 2017 ON: 20.00 +20.0 20.05 -15.0 28.2 16.1 32.1 7 10 Alarm State:  0
Wed May 24 17:50:04 PDT 2017 ON: 19.99 +20.0 20.06 -15.3 27.8 16.4 32.0 7 9 Alarm State:  0
Wed May 24 17:49:02 PDT 2017 ON: 20.00 +20.0 20.06 -15.3 27.8 16.4 32.0 7 9 Alarm State:  0
Wed May 24 17:48:01 PDT 2017 ON: 19.99 +20.0 20.05 -15.1 28.0 16.3 32.1 7 10 Alarm State:  0
Wed May 24 17:46:59 PDT 2017 ON: 19.98 +20.0 20.04 -14.9 28.4 16.0 32.2 7 10 Alarm State:  0
Wed May 24 17:45:58 PDT 2017 ON: 20.00 +20.0 20.05 -15.3 27.8 16.4 32.0 7 9 Alarm State:  0
Wed May 24 17:44:56 PDT 2017 ON: 20.00 +20.0 20.05 -14.7 28.7 15.8 32.2 7 10 Alarm State:  0
Wed May 24 17:43:55 PDT 2017 ON: 19.99 +20.0 20.04 -15.1 28.1 16.2 32.0 7 10 Alarm State:  0
Wed May 24 17:42:53 PDT 2017 ON: 20.00 +20.0 20.05 -15.3 27.7 16.5 32.0 7 9 Alarm State:  0
Wed May 24 17:41:52 PDT 2017 ON: 20.00 +20.0 20.05 -15.3 27.7 16.5 31.9 7 10 Alarm State:  0
Wed May 24 17:40:50 PDT 2017 ON: 19.99 +20.0 20.05 -15.1 28.0 16.3 32.1 7 10 Alarm State:  0
Wed May 24 17:39:49 PDT 2017 ON: 19.99 +20.0 20.04 -14.9 28.4 16.0 32.2 7 10 Alarm State:  0
Wed May 24 17:38:47 PDT 2017 ON: 20.00 +20.0 20.04 -15.0 28.2 16.1 32.1 7 10 Alarm State:  0
Wed May 24 17:37:46 PDT 2017 ON: 20.00 +20.0 20.07 -15.5 27.5 16.6 31.7 7 9 Alarm State:  0
Wed May 24 17:36:44 PDT 2017 ON: 19.98 +20.0 20.04 -15.2 27.9 16.3 32.0 7 10 Alarm State:  0
Wed May 24 17:35:43 PDT 2017 ON: 20.00 +20.0 20.05 -15.3 27.7 16.5 32.0 7 9 Alarm State:  0
Wed May 24 17:34:41 PDT 2017 ON: 20.00 +20.0 20.04 -14.7 28.6 15.9 32.2 7 10 Alarm State:  0
Wed May 24 17:33:40 PDT 2017 ON: 19.99 +20.0 20.05 -15.2 27.9 16.3 32.1 7 10 Alarm State:  0
Wed May 24 17:32:39 PDT 2017 ON: 19.99 +20.0 20.06 -15.1 28.0 16.3 32.1 7 9 Alarm State:  0
Wed May 24 17:31:37 PDT 2017 ON: 19.99 +20.0 20.06 -15.4 27.6 16.5 31.9 7 9 Alarm State:  0
Wed May 24 17:30:36 PDT 2017 ON: 20.00 +20.0 20.06 -15.3 27.8 16.4 32.0 7 10 Alarm State:  0
Wed May 24 17:29:34 PDT 2017 ON: 19.99 +20.0 20.05 -15.2 27.9 16.3 32.1 7 10 Alarm State:  0
Wed May 24 17:28:33 PDT 2017 ON: 20.00 +20.0 20.05 -15.2 27.9 16.3 32.0 7 10 Alarm State:  0
Wed May 24 17:27:31 PDT 2017 ON: 19.99 +20.0 20.07 -15.5 27.4 16.7 31.8 7 9 Alarm State:  0
Wed May 24 17:26:30 PDT 2017 ON: 19.99 +20.0 20.04 -15.1 28.0 16.3 32.1 7 10 Alarm State:  0
Wed May 24 17:25:28 PDT 2017 ON: 20.00 +20.0 20.06 -15.3 27.7 16.5 32.0 7 9 Alarm State:  0
Wed May 24 17:24:27 PDT 2017 ON: 19.99 +20.0 20.06 -15.1 28.1 16.2 32.2 7 10 Alarm State:  0
Wed May 24 17:23:25 PDT 2017 ON: 19.99 +20.0 20.05 -15.4 27.6 16.5 32.0 7 10 Alarm State:  0
Wed May 24 17:22:24 PDT 2017 ON: 19.99 +20.0 20.05 -15.2 27.9 16.3 32.1 7 10 Alarm State:  0
Wed May 24 17:21:22 PDT 2017 ON: 20.00 +20.0 20.05 -15.2 27.9 16.3 32.1 7 10 Alarm State:  0
Wed May 24 17:20:21 PDT 2017 ON: 19.99 +20.0 20.04 -15.1 28.1 16.2 32.0 7 11 Alarm State:  0
Wed May 24 17:19:19 PDT 2017 ON: 19.99 +20.0 20.05 -15.3 27.8 16.4 32.0 7 10 Alarm State:  0
Wed May 24 17:18:18 PDT 2017 ON: 20.00 +20.0 20.05 -15.3 27.8 16.4 31.7 7 10 Alarm State:  0
Wed May 24 17:17:16 PDT 2017 ON: 19.99 +20.0 20.04 -15.1 28.1 16.2 32.0 7 11 Alarm State:  0
Wed May 24 17:16:15 PDT 2017 ON: 19.99 +20.0 20.04 -15.0 28.2 16.1 32.1 7 10 Alarm State:  0
Wed May 24 17:15:13 PDT 2017 ON: 20.00 +20.0 20.08 -15.3 27.7 16.5 32.0 7 8 Alarm State:  0
Wed May 24 17:14:12 PDT 2017 ON: 19.99 +20.0 20.07 -15.2 27.9 16.3 32.0 7 9 Alarm State:  0
Wed May 24 17:13:10 PDT 2017 ON: 19.99 +20.0 20.05 -15.3 27.7 16.5 32.0 7 9 Alarm State:  0
Wed May 24 17:12:09 PDT 2017 ON: 20.00 +20.0 20.06 -15.1 28.0 16.3 32.0 7 9 Alarm State:  0
Wed May 24 17:11:07 PDT 2017 ON: 19.99 +20.0 20.07 -15.3 27.7 16.5 32.0 7 9 Alarm State:  0
Wed May 24 17:10:06 PDT 2017 ON: 19.99 +20.0 20.06 -15.3 27.8 16.4 32.0 7 9 Alarm State:  0
Wed May 24 17:09:04 PDT 2017 ON: 20.00 +20.0 20.05 -15.3 27.8 16.4 32.0 7 10 Alarm State:  0
Wed May 24 17:08:03 PDT 2017 ON: 19.99 +20.0 20.05 -15.2 27.9 16.3 32.1 7 10 Alarm State:  0
Wed May 24 17:07:01 PDT 2017 ON: 20.00 +20.0 20.06 -15.5 27.5 16.6 31.7 7 9 Alarm State:  0
Wed May 24 17:06:00 PDT 2017 ON: 20.00 +20.0 20.04 -15.0 28.2 16.1 32.1 7 10 Alarm State:  0
Wed May 24 17:04:58 PDT 2017 ON: 19.99 +20.0 20.06 -15.3 27.8 16.4 32.0 7 10 Alarm State:  0
Wed May 24 17:03:57 PDT 2017 ON: 20.00 +20.0 20.04 -14.9 28.4 16.0 32.1 7 10 Alarm State:  0
Wed May 24 17:02:55 PDT 2017 ON: 20.00 +20.0 20.06 -15.0 28.2 16.1 32.1 7 9 Alarm State:  0
Wed May 24 17:01:54 PDT 2017 ON: 19.99 +20.0 20.05 -15.1 28.1 16.2 32.1 7 10 Alarm State:  0
Wed May 24 17:00:52 PDT 2017 ON: 19.99 +20.0 20.05 -15.3 27.7 16.5 31.9 7 9 Alarm State:  0
Wed May 24 16:59:51 PDT 2017 ON: 20.00 +20.0 20.06 -15.2 27.9 16.3 32.0 7 9 Alarm State:  0
Wed May 24 16:58:49 PDT 2017 ON: 19.99 +20.0 20.05 -15.3 27.8 16.4 31.7 7 10 Alarm State:  0
Wed May 24 16:57:48 PDT 2017 ON: 20.00 +20.0 20.06 -15.1 28.1 16.2 32.1 7 9 Alarm State:  0
Wed May 24 16:56:46 PDT 2017 ON: 20.00 +20.0 20.06 -15.4 27.6 16.5 31.9 7 10 Alarm State:  0
Wed May 24 16:55:45 PDT 2017 ON: 19.99 +20.0 20.05 -15.1 28.0 16.3 32.1 7 10 Alarm State:  0
Wed May 24 16:54:43 PDT 2017 ON: 20.00 +20.0 20.05 -15.3 27.7 16.5 32.0 7 10 Alarm State:  0
Wed May 24 16:53:42 PDT 2017 ON: 20.00 +20.0 20.06 -15.2 27.9 16.3 32.0 7 9 Alarm State:  0
Wed May 24 16:52:40 PDT 2017 ON: 20.00 +20.0 20.05 -15.0 28.2 16.1 32.1 7 10 Alarm State:  0
Wed May 24 16:51:39 PDT 2017 ON: 20.00 +20.0 20.06 -15.1 28.1 16.2 32.1 7 10 Alarm State:  0
Wed May 24 16:50:37 PDT 2017 ON: 19.99 +20.0 20.05 -15.1 28.0 16.3 32.1 7 10 Alarm State:  0
Wed May 24 16:49:36 PDT 2017 ON: 19.99 +20.0 20.04 -15.2 27.9 16.3 32.0 7 10 Alarm State:  0
Wed May 24 16:48:34 PDT 2017 ON: 20.00 +20.0 20.06 -15.5 27.5 16.6 31.9 7 9 Alarm State:  0
Wed May 24 16:47:33 PDT 2017 ON: 20.00 +20.0 20.06 -15.4 27.6 16.5 31.8 7 10 Alarm State:  0
Wed May 24 16:46:31 PDT 2017 ON: 19.99 +20.0 20.05 -15.1 28.1 16.2 32.1 7 10 Alarm State:  0
Wed May 24 16:45:30 PDT 2017 ON: 20.00 +20.0 20.05 -15.0 28.2 16.1 32.1 7 10 Alarm State:  0
Wed May 24 16:44:29 PDT 2017 ON: 19.99 +20.0 20.06 -14.9 28.4 16.0 32.2 7 10 Alarm State:  0
Wed May 24 16:43:27 PDT 2017 ON: 19.99 +20.0 20.06 -15.5 27.5 16.6 31.9 7 9 Alarm State:  0
Wed May 24 16:42:26 PDT 2017 ON: 20.00 +20.0 20.06 -15.1 28.0 16.3 32.0 7 9 Alarm State:  0
Wed May 24 16:41:24 PDT 2017 ON: 20.00 +20.0 20.06 -15.4 27.6 16.5 31.8 7 10 Alarm State:  0
Wed May 24 16:40:23 PDT 2017 ON: 19.99 +20.0 20.06 -15.2 27.9 16.3 32.0 7 9 Alarm State:  0
Wed May 24 16:39:21 PDT 2017 ON: 19.99 +20.0 20.04 -15.3 27.8 16.4 32.0 7 10 Alarm State:  0
Wed May 24 16:38:20 PDT 2017 ON: 20.00 +20.0 20.05 -15.3 27.8 16.4 32.0 7 10 Alarm State:  0
Wed May 24 16:37:18 PDT 2017 ON: 20.00 +20.0 20.08 -15.5 27.4 16.7 31.7 7 9 Alarm State:  0
Wed May 24 16:36:17 PDT 2017 ON: 19.99 +20.0 20.05 -14.9 28.3 16.1 32.2 7 10 Alarm State:  0
Wed May 24 16:35:15 PDT 2017 ON: 20.00 +20.0 20.06 -15.1 28.1 16.2 32.1 7 9 Alarm State:  0
Wed May 24 16:34:14 PDT 2017 ON: 19.99 +20.0 20.04 -15.3 27.8 16.4 31.9 7 10 Alarm State:  0
Wed May 24 16:33:12 PDT 2017 ON: 20.00 +20.0 20.06 -15.2 27.9 16.3 32.0 7 9 Alarm State:  0
Wed May 24 16:32:11 PDT 2017 ON: 20.00 +20.0 20.06 -15.1 28.0 16.3 32.1 7 10 Alarm State:  0
Wed May 24 16:31:09 PDT 2017 ON: 19.99 +20.0 20.06 -14.9 28.4 16.0 32.2 7 10 Alarm State:  0
Wed May 24 16:30:08 PDT 2017 ON: 19.99 +20.0 20.03 -14.8 28.5 16.0 32.2 7 11 Alarm State:  0
Wed May 24 16:29:06 PDT 2017 ON: 20.00 +20.0 20.05 -15.5 27.5 16.6 31.9 7 9 Alarm State:  0
Wed May 24 16:28:05 PDT 2017 ON: 20.00 +20.0 20.07 -15.3 27.8 16.4 32.0 7 9 Alarm State:  0
Wed May 24 16:27:03 PDT 2017 ON: 20.00 +20.0 20.05 -15.2 27.9 16.3 32.0 7 10 Alarm State:  0
Wed May 24 16:26:02 PDT 2017 ON: 19.99 +20.0 20.03 -14.7 28.7 15.8 32.2 7 11 Alarm State:  0
Wed May 24 16:25:00 PDT 2017 ON: 19.99 +20.0 20.05 -15.0 28.2 16.1 32.2 7 9 Alarm State:  0
Wed May 24 16:23:59 PDT 2017 ON: 19.99 +20.0 20.06 -15.3 27.8 16.4 32.1 7 9 Alarm State:  0
Wed May 24 16:22:57 PDT 2017 ON: 19.99 +20.0 20.07 -15.3 27.8 16.4 32.0 7 9 Alarm State:  0
Wed May 24 16:21:56 PDT 2017 ON: 19.99 +20.0 20.05 -15.1 28.0 16.3 32.1 7 9 Alarm State:  0
Wed May 24 16:20:54 PDT 2017 ON: 20.00 +20.0 20.06 -15.3 27.7 16.5 32.0 7 9 Alarm State:  0
Wed May 24 16:19:53 PDT 2017 ON: 20.00 +20.0 20.05 -15.0 28.2 16.1 32.1 7 10 Alarm State:  0
Wed May 24 16:18:51 PDT 2017 ON: 19.99 +20.0 20.05 -15.2 27.9 16.3 32.0 7 10 Alarm State:  0
Wed May 24 16:17:50 PDT 2017 ON: 20.00 +20.0 20.05 -15.3 27.7 16.5 31.9 7 9 Alarm State:  0
Wed May 24 16:16:48 PDT 2017 ON: 20.00 +20.0 20.05 -15.1 28.0 16.3 32.0 7 10 Alarm State:  0
Wed May 24 16:15:47 PDT 2017 ON: 19.99 +20.0 20.05 -15.0 28.2 16.1 32.2 7 10 Alarm State:  0
Wed May 24 16:14:45 PDT 2017 ON: 19.99 +20.0 20.04 -14.9 28.4 16.0 32.2 7 10 Alarm State:  0
Wed May 24 16:13:44 PDT 2017 ON: 20.00 +20.0 20.05 -15.1 28.0 16.3 32.1 7 9 Alarm State:  0
Wed May 24 16:12:42 PDT 2017 ON: 20.00 +20.0 20.06 -15.0 28.2 16.1 32.1 7 10 Alarm State:  0
Wed May 24 16:11:41 PDT 2017 ON: 19.99 +20.0 20.06 -15.2 27.9 16.3 32.1 8 9 Alarm State:  0
Wed May 24 16:10:39 PDT 2017 ON: 20.00 +20.0 20.06 -15.3 27.8 16.4 32.0 7 9 Alarm State:  0
Wed May 24 16:09:38 PDT 2017 ON: 20.00 +20.0 20.06 -15.3 27.7 16.5 32.0 7 9 Alarm State:  0
Wed May 24 16:08:36 PDT 2017 ON: 19.99 +20.0 20.04 -14.8 28.5 16.0 32.2 7 10 Alarm State:  0
Wed May 24 16:07:35 PDT 2017 ON: 19.99 +20.0 20.06 -15.3 27.7 16.5 32.1 7 9 Alarm State:  0
Wed May 24 16:06:33 PDT 2017 ON: 19.99 +20.0 20.04 -14.9 28.4 16.0 32.2 7 10 Alarm State:  0
Wed May 24 16:05:32 PDT 2017 ON: 20.00 +20.0 20.05 -15.4 27.6 16.5 32.0 7 9 Alarm State:  0
Wed May 24 16:04:30 PDT 2017 ON: 20.00 +20.0 20.07 -15.5 27.5 16.6 32.0 7 9 Alarm State:  0
Wed May 24 16:03:29 PDT 2017 ON: 19.99 +20.0 20.06 -15.3 27.8 16.4 32.1 7 10 Alarm State:  0
Wed May 24 16:02:27 PDT 2017 ON: 19.99 +20.0 20.04 -15.0 28.2 16.1 32.1 7 10 Alarm State:  0
Wed May 24 16:01:26 PDT 2017 ON: 20.00 +20.0 20.05 -14.9 28.3 16.1 32.2 7 10 Alarm State:  0
Wed May 24 16:00:24 PDT 2017 ON: 19.99 +20.0 20.05 -15.1 28.1 16.2 32.1 7 10 Alarm State:  0
Wed May 24 15:59:23 PDT 2017 ON: 20.00 +20.0 20.06 -15.2 27.9 16.3 32.1 7 9 Alarm State:  0
Wed May 24 15:58:21 PDT 2017 ON: 20.00 +20.0 20.05 -15.1 28.0 16.3 32.1 7 10 Alarm State:  0
Wed May 24 15:57:20 PDT 2017 ON: 19.99 +20.0 20.05 -15.1 28.0 16.3 32.1 7 10 Alarm State:  0
Wed May 24 15:56:18 PDT 2017 ON: 19.99 +20.0 20.05 -15.3 27.8 16.4 32.0 7 10 Alarm State:  0
Wed May 24 15:55:17 PDT 2017 ON: 20.00 +20.0 20.05 -15.2 27.9 16.3 32.0 7 9 Alarm State:  0
Wed May 24 15:54:15 PDT 2017 ON: 20.01 +20.0 20.06 -15.5 27.5 16.6 31.9 7 9 Alarm State:  0
Wed May 24 15:53:14 PDT 2017 ON: 20.00 +20.0 20.06 -15.3 27.7 16.5 32.0 7 10 Alarm State:  0
Wed May 24 15:52:12 PDT 2017 ON: 19.99 +20.0 20.04 -15.1 28.0 16.3 32.1 7 10 Alarm State:  0
Wed May 24 15:51:11 PDT 2017 ON: 20.00 +20.0 20.05 -15.2 27.9 16.3 32.1 7 9 Alarm State:  0
Wed May 24 15:50:09 PDT 2017 ON: 19.99 +20.0 20.06 -15.3 27.8 16.4 32.1 8 9 Alarm State:  0
Wed May 24 15:49:08 PDT 2017 ON: 19.99 +20.0 20.07 -15.5 27.5 16.6 32.0 7 9 Alarm State:  0
Wed May 24 15:48:06 PDT 2017 ON: 19.99 +20.0 20.04 -14.9 28.3 16.1 32.2 7 10 Alarm State:  0
Wed May 24 15:47:05 PDT 2017 ON: 20.00 +20.0 20.06 -15.5 27.5 16.6 32.0 7 9 Alarm State:  0
Wed May 24 15:46:03 PDT 2017 ON: 19.99 +20.0 20.06 -15.1 28.0 16.3 32.2 7 10 Alarm State:  0
Wed May 24 15:45:02 PDT 2017 ON: 19.99 +20.0 20.04 -15.1 28.1 16.2 32.1 7 10 Alarm State:  0
Wed May 24 15:44:00 PDT 2017 ON: 20.00 +20.0 20.04 -15.3 27.7 16.5 31.9 7 9 Alarm State:  0
Wed May 24 15:42:59 PDT 2017 ON: 20.00 +20.0 20.07 -15.5 27.4 16.7 31.7 7 8 Alarm State:  0
Wed May 24 15:41:57 PDT 2017 ON: 20.00 +20.0 20.06 -15.3 27.8 16.4 32.0 7 9 Alarm State:  0
Wed May 24 15:40:56 PDT 2017 ON: 19.99 +20.0 20.06 -15.2 27.9 16.3 32.0 7 9 Alarm State:  0
Wed May 24 15:39:54 PDT 2017 ON: 20.00 +20.0 20.04 -14.9 28.3 16.1 32.1 7 10 Alarm State:  0
Wed May 24 15:38:53 PDT 2017 ON: 20.00 +20.0 20.07 -15.5 27.5 16.6 31.9 8 9 Alarm State:  0
Wed May 24 15:37:51 PDT 2017 ON: 20.00 +20.0 20.06 -15.4 27.6 16.5 32.0 7 9 Alarm State:  0
Wed May 24 15:36:50 PDT 2017 ON: 19.99 +20.0 20.04 -15.2 27.9 16.3 32.0 7 10 Alarm State:  0
Wed May 24 15:35:48 PDT 2017 ON: 20.00 +20.0 20.05 -15.4 27.6 16.5 31.9 7 10 Alarm State:  0
Wed May 24 15:34:47 PDT 2017 ON: 19.99 +20.0 20.06 -15.2 27.9 16.3 32.1 7 10 Alarm State:  0
Wed May 24 15:33:45 PDT 2017 ON: 20.00 +20.0 20.05 -15.1 28.1 16.2 32.1 7 10 Alarm State:  0
Wed May 24 15:32:44 PDT 2017 ON: 19.99 +20.0 20.05 -15.3 27.7 16.5 32.0 7 10 Alarm State:  0
Wed May 24 15:31:42 PDT 2017 ON: 20.00 +20.0 20.05 -15.2 27.9 16.3 32.0 7 10 Alarm State:  0
Wed May 24 15:30:41 PDT 2017 ON: 20.00 +20.0 20.06 -15.1 28.0 16.3 32.2 7 9 Alarm State:  0
Wed May 24 15:29:39 PDT 2017 ON: 20.00 +20.0 20.06 -15.2 27.9 16.3 32.1 7 10 Alarm State:  0
Wed May 24 15:28:38 PDT 2017 ON: 19.99 +20.0 20.05 -15.0 28.2 16.1 32.2 7 10 Alarm State:  0
Wed May 24 15:27:36 PDT 2017 ON: 19.99 +20.0 20.04 -15.2 27.9 16.3 32.1 7 10 Alarm State:  0
Wed May 24 15:26:35 PDT 2017 ON: 20.00 +20.0 20.07 -15.4 27.6 16.5 32.0 7 9 Alarm State:  0
Wed May 24 15:25:33 PDT 2017 ON: 19.99 +20.0 20.06 -15.3 27.8 16.4 32.1 7 10 Alarm State:  0
Wed May 24 15:24:32 PDT 2017 ON: 20.00 +20.0 20.04 -14.9 28.3 16.1 32.1 7 10 Alarm State:  0
Wed May 24 15:23:30 PDT 2017 ON: 20.00 +20.0 20.05 -15.3 27.8 16.4 32.0 7 10 Alarm State:  0
Wed May 24 15:22:29 PDT 2017 ON: 20.00 +20.0 20.06 -15.0 28.2 16.1 32.1 7 10 Alarm State:  0
Wed May 24 15:21:27 PDT 2017 ON: 19.99 +20.0 20.06 -15.1 28.0 16.3 32.1 7 10 Alarm State:  0
Wed May 24 15:20:26 PDT 2017 ON: 19.99 +20.0 20.05 -15.2 27.9 16.3 32.0 7 10 Alarm State:  0
Wed May 24 15:19:24 PDT 2017 ON: 20.00 +20.0 20.06 -15.3 27.7 16.5 31.9 8 10 Alarm State:  0
Wed May 24 15:18:23 PDT 2017 ON: 20.00 +20.0 20.05 -14.9 28.4 16.0 32.1 7 11 Alarm State:  0
Wed May 24 15:17:21 PDT 2017 ON: 19.99 +20.0 20.05 -15.1 28.1 16.2 32.0 7 10 Alarm State:  0
Wed May 24 15:16:20 PDT 2017 ON: 19.99 +20.0 20.03 -14.8 28.5 16.0 32.1 7 11 Alarm State:  0
Wed May 24 15:15:18 PDT 2017 ON: 20.00 +20.0 20.05 -15.3 27.7 16.5 32.0 7 10 Alarm State:  0
Wed May 24 15:14:17 PDT 2017 ON: 20.00 +20.0 20.07 -15.5 27.4 16.7 31.6 7 9 Alarm State:  0
Wed May 24 15:13:15 PDT 2017 ON: 20.00 +20.0 20.05 -15.1 28.0 16.3 32.0 7 10 Alarm State:  0
Wed May 24 15:12:14 PDT 2017 ON: 19.99 +20.0 20.05 -14.9 28.3 16.1 32.2 7 10 Alarm State:  0
Wed May 24 15:11:13 PDT 2017 ON: 19.99 +20.0 20.05 -15.3 27.8 16.4 32.0 8 10 Alarm State:  0
Wed May 24 15:10:11 PDT 2017 ON: 20.00 +20.0 20.05 -14.9 28.3 16.1 32.2 7 10 Alarm State:  0
Wed May 24 15:09:10 PDT 2017 ON: 19.99 +20.0 20.05 -15.1 28.0 16.3 32.1 7 10 Alarm State:  0
Wed May 24 15:08:08 PDT 2017 ON: 19.99 +20.0 20.05 -15.2 27.9 16.3 32.1 7 9 Alarm State:  0
Wed May 24 15:07:07 PDT 2017 ON: 20.00 +20.0 20.05 -15.1 28.0 16.3 32.1 7 9 Alarm State:  0
Wed May 24 15:05:55 PDT 2017  Alarm State: 0
Wed May 24 15:05:55 PDT 2017 Chiller did not report ON, got this reading: 
Wed May 24 15:04:54 PDT 2017 ON: 19.99 +20.0 20.06 -15.3 27.7 16.5 32.0 7 9 Alarm State:  0
Wed May 24 15:03:52 PDT 2017 ON: 20.00 +20.0 20.05 -15.3 27.8 16.4 32.0 7 9 Alarm State:  0
Wed May 24 15:02:51 PDT 2017 ON: 20.00 +20.0 20.05 -15.1 28.1 16.2 32.2 7 10 Alarm State:  0
Wed May 24 15:01:49 PDT 2017 ON: 20.00 +20.0 20.07 -15.1 28.0 16.3 32.1 7 9 Alarm State:  0
Wed May 24 15:00:48 PDT 2017 ON: 19.99 +20.0 20.05 -15.1 28.1 16.2 32.1 7 10 Alarm State:  0
Wed May 24 14:59:46 PDT 2017 ON: 20.00 +20.0 20.06 -15.2 27.9 16.3 32.0 7 9 Alarm State:  0
Wed May 24 14:58:45 PDT 2017 ON: 20.00 +20.0 20.05 -15.2 27.9 16.3 32.0 7 10 Alarm State:  0
Wed May 24 14:57:43 PDT 2017 ON: 20.00 +20.0 20.06 -15.2 27.9 16.3 32.1 7 9 Alarm State:  0
Wed May 24 14:56:42 PDT 2017 ON: 19.99 +20.0 20.06 -15.5 27.5 16.6 31.9 7 9 Alarm State:  0
Wed May 24 14:55:40 PDT 2017 ON: 20.00 +20.0 20.05 -15.2 27.9 16.3 32.0 7 10 Alarm State:  0
Wed May 24 14:54:39 PDT 2017 ON: 20.00 +20.0 20.07 -15.3 27.7 16.5 32.0 7 9 Alarm State:  0
Wed May 24 14:53:37 PDT 2017 ON: 19.99 +20.0 20.06 -15.2 27.9 16.3 32.1 7 9 Alarm State:  0
Wed May 24 14:52:36 PDT 2017 ON: 20.00 +20.0 20.06 -15.1 28.0 16.3 32.0 7 9 Alarm State:  0
Wed May 24 14:51:34 PDT 2017 ON: 20.00 +20.0 20.07 -15.3 27.7 16.5 32.1 7 9 Alarm State:  0
Wed May 24 14:50:33 PDT 2017 ON: 19.99 +20.0 20.06 -14.9 28.3 16.1 32.2 7 9 Alarm State:  0
Wed May 24 14:49:31 PDT 2017 ON: 20.00 +20.0 20.05 -15.2 27.9 16.3 32.0 7 9 Alarm State:  0
Wed May 24 14:48:30 PDT 2017 ON: 20.00 +20.0 20.06 -15.4 27.6 16.5 32.0 7 9 Alarm State:  0
Wed May 24 14:47:28 PDT 2017 ON: 19.99 +20.0 20.06 -15.2 27.9 16.3 32.1 7 9 Alarm State:  0
Wed May 24 14:46:27 PDT 2017 ON: 19.99 +20.0 20.06 -15.1 28.0 16.3 32.1 7 9 Alarm State:  0
Wed May 24 14:45:25 PDT 2017 ON: 19.99 +20.0 20.06 -15.1 28.1 16.2 32.1 7 9 Alarm State:  0
Wed May 24 14:44:24 PDT 2017 ON: 20.00 +20.0 20.06 -15.2 27.9 16.3 32.0 7 10 Alarm State:  0
Wed May 24 14:43:22 PDT 2017 ON: 19.99 +20.0 20.04 -15.1 28.0 16.3 32.0 7 10 Alarm State:  0
Wed May 24 14:42:21 PDT 2017 ON: 20.00 +20.0 20.06 -15.4 27.6 16.5 32.0 7 9 Alarm State:  0
Wed May 24 14:41:19 PDT 2017 ON: 20.00 +20.0 20.06 -15.3 27.7 16.5 31.9 7 10 Alarm State:  0
Wed May 24 14:40:18 PDT 2017 ON: 19.99 +20.0 20.05 -14.8 28.5 16.0 32.2 7 10 Alarm State:  0
Wed May 24 14:39:16 PDT 2017 ON: 20.00 +20.0 20.06 -15.1 28.1 16.2 32.1 7 9 Alarm State:  0
Wed May 24 14:38:15 PDT 2017 ON: 20.00 +20.0 20.07 -15.4 27.6 16.5 31.9 7 9 Alarm State:  0
Wed May 24 14:37:13 PDT 2017 ON: 19.99 +20.0 20.07 -15.3 27.8 16.4 32.0 7 9 Alarm State:  0
Wed May 24 14:36:12 PDT 2017 ON: 20.00 +20.0 20.05 -15.1 28.1 16.2 32.0 7 10 Alarm State:  0
Wed May 24 14:35:10 PDT 2017 ON: 19.99 +20.0 20.06 -15.3 27.8 16.4 32.0 7 9 Alarm State:  0
Wed May 24 14:34:09 PDT 2017 ON: 20.00 +20.0 20.05 -15.1 28.0 16.3 32.0 7 9 Alarm State:  0
Wed May 24 14:33:07 PDT 2017 ON: 19.99 +20.0 20.04 -15.3 27.8 16.4 32.0 7 10 Alarm State:  0
Wed May 24 14:32:06 PDT 2017 ON: 20.00 +20.0 20.05 -15.1 28.1 16.2 32.2 7 10 Alarm State:  0
Wed May 24 14:31:04 PDT 2017 ON: 19.99 +20.0 20.05 -15.3 27.8 16.4 32.0 7 10 Alarm State:  0
Wed May 24 14:30:03 PDT 2017 ON: 19.99 +20.0 20.06 -15.5 27.5 16.6 32.0 7 9 Alarm State:  0
Wed May 24 14:29:01 PDT 2017 ON: 20.00 +20.0 20.06 -15.6 27.3 16.8 31.7 8 9 Alarm State:  0
Wed May 24 14:28:00 PDT 2017 ON: 20.00 +20.0 20.06 -15.4 27.6 16.5 32.0 7 10 Alarm State:  0
Wed May 24 14:26:58 PDT 2017 ON: 19.99 +20.0 20.05 -15.3 27.8 16.4 32.0 7 10 Alarm State:  0
Wed May 24 14:25:57 PDT 2017 ON: 20.00 +20.0 20.05 -15.2 27.9 16.3 32.1 7 9 Alarm State:  0
Wed May 24 14:24:55 PDT 2017 ON: 20.00 +20.0 20.07 -15.3 27.7 16.5 32.0 7 9 Alarm State:  0
Wed May 24 14:23:54 PDT 2017 ON: 19.99 +20.0 20.05 -14.9 28.4 16.0 32.2 7 10 Alarm State:  0
Wed May 24 14:22:52 PDT 2017 ON: 19.99 +20.0 20.05 -15.3 27.7 16.5 32.0 7 10 Alarm State:  0
Wed May 24 14:21:51 PDT 2017 ON: 20.00 +20.0 20.05 -15.4 27.6 16.5 31.9 7 9 Alarm State:  0
Wed May 24 14:20:49 PDT 2017 ON: 20.00 +20.0 20.05 -15.3 27.8 16.4 32.0 7 10 Alarm State:  0
Wed May 24 14:19:48 PDT 2017 ON: 20.00 +20.0 20.06 -15.4 27.6 16.5 31.8 7 9 Alarm State:  0
Wed May 24 14:18:46 PDT 2017 ON: 20.00 +20.0 20.06 -15.4 27.6 16.5 31.7 7 9 Alarm State:  0
Wed May 24 14:17:45 PDT 2017 ON: 20.00 +20.0 20.07 -15.3 27.7 16.5 32.0 7 9 Alarm State:  0
Wed May 24 14:16:43 PDT 2017 ON: 19.99 +20.0 20.06 -15.4 27.6 16.5 32.0 7 9 Alarm State:  0
Wed May 24 14:15:42 PDT 2017 ON: 19.99 +20.0 20.04 -15.3 27.7 16.5 32.0 7 10 Alarm State:  0
Wed May 24 14:14:40 PDT 2017 ON: 20.00 +20.0 20.05 -15.5 27.4 16.7 31.8 8 9 Alarm State:  0
Wed May 24 14:13:39 PDT 2017 ON: 20.00 +20.0 20.06 -15.2 27.9 16.3 32.1 7 9 Alarm State:  0
Wed May 24 14:12:37 PDT 2017 ON: 19.99 +20.0 20.05 -15.1 28.1 16.2 32.2 7 10 Alarm State:  0
Wed May 24 14:11:36 PDT 2017 ON: 19.99 +20.0 20.04 -15.1 28.1 16.2 32.1 7 10 Alarm State:  0
Wed May 24 14:10:34 PDT 2017 ON: 20.00 +20.0 20.05 -15.1 28.0 16.3 32.0 7 9 Alarm State:  0
Wed May 24 14:09:33 PDT 2017 ON: 19.99 +20.0 20.06 -15.3 27.7 16.5 32.0 7 10 Alarm State:  0
Wed May 24 14:08:31 PDT 2017 ON: 19.99 +20.0 20.04 -15.3 27.8 16.4 32.0 7 10 Alarm State:  0
Wed May 24 14:07:30 PDT 2017 ON: 20.00 +20.0 20.05 -15.5 27.5 16.6 31.8 7 9 Alarm State:  0
Wed May 24 14:06:28 PDT 2017 ON: 20.00 +20.0 20.06 -15.2 27.9 16.3 32.0 7 9 Alarm State:  0
Wed May 24 14:05:27 PDT 2017 ON: 19.99 +20.0 20.04 -14.7 28.6 15.9 32.3 6 10 Alarm State:  0
Wed May 24 14:04:25 PDT 2017 ON: 19.99 +20.0 20.04 -15.1 28.1 16.2 32.1 7 10 Alarm State:  0
Wed May 24 14:03:24 PDT 2017 ON: 20.00 +20.0 20.05 -15.2 27.9 16.3 32.0 7 10 Alarm State:  0
Wed May 24 14:02:22 PDT 2017 ON: 19.99 +20.0 20.04 -14.7 28.6 15.9 32.2 7 10 Alarm State:  0
Wed May 24 14:01:21 PDT 2017 ON: 19.99 +20.0 20.05 -15.2 27.9 16.3 32.1 7 9 Alarm State:  0
Wed May 24 14:00:19 PDT 2017 ON: 19.99 +20.0 20.05 -15.3 27.7 16.5 32.1 7 10 Alarm State:  0
Wed May 24 13:59:18 PDT 2017 ON: 20.00 +20.0 20.06 -15.2 27.9 16.3 32.1 7 9 Alarm State:  0
Wed May 24 13:58:16 PDT 2017 ON: 20.00 +20.0 20.06 -15.0 28.2 16.1 32.1 7 9 Alarm State:  0
Wed May 24 13:57:15 PDT 2017 ON: 19.99 +20.0 20.06 -15.4 27.6 16.5 32.0 7 9 Alarm State:  0
Wed May 24 13:56:13 PDT 2017 ON: 19.99 +20.0 20.05 -15.0 28.2 16.1 32.1 7 10 Alarm State:  0
Wed May 24 13:55:12 PDT 2017 ON: 20.00 +20.0 20.05 -15.0 28.2 16.1 32.1 7 10 Alarm State:  0
Wed May 24 13:54:10 PDT 2017 ON: 19.99 +20.0 20.07 -15.4 27.6 16.5 32.0 7 10 Alarm State:  0
Wed May 24 13:53:09 PDT 2017 ON: 19.98 +20.0 20.05 -14.9 28.3 16.1 32.2 7 10 Alarm State:  0
Wed May 24 13:52:07 PDT 2017 ON: 20.00 +20.0 20.04 -15.4 27.6 16.5 32.0 7 10 Alarm State:  0
Wed May 24 13:51:06 PDT 2017 ON: 20.00 +20.0 20.06 -15.3 27.8 16.4 32.0 7 10 Alarm State:  0
Wed May 24 13:50:04 PDT 2017 ON: 19.99 +20.0 20.06 -15.1 28.0 16.3 32.1 7 9 Alarm State:  0
Wed May 24 13:49:03 PDT 2017 ON: 20.00 +20.0 20.06 -15.2 27.9 16.3 32.0 7 9 Alarm State:  0
Wed May 24 13:48:01 PDT 2017 ON: 20.00 +20.0 20.05 -15.3 27.8 16.4 32.0 7 9 Alarm State:  0
Wed May 24 13:47:00 PDT 2017 ON: 20.00 +20.0 20.05 -15.0 28.2 16.1 32.1 7 10 Alarm State:  0
Wed May 24 13:45:58 PDT 2017 ON: 19.99 +20.0 20.07 -15.4 27.6 16.5 32.1 7 9 Alarm State:  0
Wed May 24 13:44:57 PDT 2017 ON: 19.99 +20.0 20.05 -15.1 28.0 16.3 32.1 7 9 Alarm State:  0
Wed May 24 13:43:55 PDT 2017 ON: 20.00 +20.0 20.05 -15.3 27.7 16.5 32.0 7 9 Alarm State:  0
Wed May 24 13:42:54 PDT 2017 ON: 20.00 +20.0 20.07 -15.2 27.9 16.3 32.1 7 9 Alarm State:  0
Wed May 24 13:41:52 PDT 2017 ON: 19.99 +20.0 20.06 -15.0 28.2 16.1 32.2 7 10 Alarm State:  0
Wed May 24 13:40:51 PDT 2017 ON: 20.00 +20.0 20.04 -15.1 28.0 16.3 32.1 7 10 Alarm State:  0
Wed May 24 13:39:49 PDT 2017 ON: 19.99 +20.0 20.05 -15.0 28.2 16.1 32.2 7 9 Alarm State:  0
Wed May 24 13:38:48 PDT 2017 ON: 20.00 +20.0 20.04 -15.1 28.0 16.3 32.1 7 10 Alarm State:  0
Wed May 24 13:37:46 PDT 2017 ON: 19.99 +20.0 20.06 -15.5 27.5 16.6 32.0 7 9 Alarm State:  0
Wed May 24 13:36:45 PDT 2017 ON: 19.99 +20.0 20.05 -15.1 28.0 16.3 32.1 7 9 Alarm State:  0
Wed May 24 13:35:43 PDT 2017 ON: 20.00 +20.0 20.05 -15.1 28.1 16.2 32.0 7 9 Alarm State:  0
Wed May 24 13:34:42 PDT 2017 ON: 20.00 +20.0 20.06 -15.2 27.9 16.3 32.0 7 10 Alarm State:  0
Wed May 24 13:33:40 PDT 2017 ON: 19.99 +20.0 20.05 -15.2 27.9 16.3 32.1 7 10 Alarm State:  0
Wed May 24 13:32:39 PDT 2017 ON: 19.99 +20.0 20.04 -15.2 27.9 16.3 32.1 7 10 Alarm State:  0
Wed May 24 13:31:37 PDT 2017 ON: 20.00 +20.0 20.05 -15.4 27.6 16.5 31.9 7 9 Alarm State:  0
Wed May 24 13:30:36 PDT 2017 ON: 20.00 +20.0 20.05 -15.1 28.0 16.3 32.1 7 10 Alarm State:  0
Wed May 24 13:29:34 PDT 2017 ON: 19.99 +20.0 20.05 -15.2 27.9 16.3 32.0 7 10 Alarm State:  0
Wed May 24 13:28:33 PDT 2017 ON: 19.99 +20.0 20.05 -15.0 28.2 16.1 32.1 7 10 Alarm State:  0
Wed May 24 13:27:31 PDT 2017 ON: 20.00 +20.0 20.05 -15.4 27.6 16.5 31.8 7 10 Alarm State:  0
Wed May 24 13:26:30 PDT 2017 ON: 19.99 +20.0 20.04 -15.3 27.7 16.5 31.9 7 10 Alarm State:  0
Wed May 24 13:25:29 PDT 2017 ON: 19.99 +20.0 20.05 -15.3 27.7 16.5 32.0 7 9 Alarm State:  0
Wed May 24 13:24:27 PDT 2017 ON: 20.00 +20.0 20.06 -15.3 27.8 16.4 32.0 7 9 Alarm State:  0
Wed May 24 13:23:26 PDT 2017 ON: 20.00 +20.0 20.07 -15.3 27.8 16.4 32.1 7 9 Alarm State:  0
Wed May 24 13:22:24 PDT 2017 ON: 19.99 +20.0 20.06 -15.1 28.0 16.3 32.1 7 9 Alarm State:  0
Wed May 24 13:21:23 PDT 2017 ON: 20.00 +20.0 20.06 -15.2 27.9 16.3 32.1 7 9 Alarm State:  0
Wed May 24 13:20:21 PDT 2017 ON: 19.99 +20.0 20.05 -15.2 27.9 16.3 32.2 7 9 Alarm State:  0
Wed May 24 13:19:20 PDT 2017 ON: 20.00 +20.0 20.05 -15.1 28.1 16.2 32.1 7 10 Alarm State:  0
Wed May 24 13:18:18 PDT 2017 ON: 19.98 +20.0 20.05 -15.1 28.1 16.2 32.2 7 10 Alarm State:  0
Wed May 24 13:17:17 PDT 2017 ON: 19.99 +20.0 20.04 -15.1 28.1 16.2 32.1 7 10 Alarm State:  0
Wed May 24 13:16:15 PDT 2017 ON: 20.00 +20.0 20.05 -15.3 27.7 16.5 32.0 7 10 Alarm State:  0
Wed May 24 13:15:14 PDT 2017 ON: 19.99 +20.0 20.05 -14.9 28.3 16.1 32.1 7 10 Alarm State:  0
Wed May 24 13:14:12 PDT 2017 ON: 19.99 +20.0 20.06 -15.3 27.8 16.4 32.0 7 9 Alarm State:  0
Wed May 24 13:13:10 PDT 2017 ON: 20.00 +20.0 20.05 -15.3 27.8 16.4 32.0 7 9 Alarm State:  0
Wed May 24 13:12:09 PDT 2017 ON: 20.00 +20.0 20.07 -15.3 27.8 16.4 32.0 7 9 Alarm State:  0
Wed May 24 13:11:07 PDT 2017 ON: 19.99 +20.0 20.06 -14.8 28.5 16.0 32.2 7 10 Alarm State:  0
Wed May 24 13:10:05 PDT 2017 ON: 19.99 +20.0 20.05 -15.1 28.0 16.3 32.0 7 10 Alarm State:  0
Wed May 24 13:09:04 PDT 2017 ON: 20.00 +20.0 20.05 -15.4 27.6 16.5 32.0 7 9 Alarm State:  0
Wed May 24 13:08:02 PDT 2017 ON: 20.00 +20.0 20.06 -15.4 27.6 16.5 32.0 7 10 Alarm State:  0
Wed May 24 13:07:00 PDT 2017 ON: 19.99 +20.0 20.04 -14.9 28.3 16.1 32.1 7 10 Alarm State:  0
Wed May 24 13:05:59 PDT 2017 ON: 19.99 +20.0 20.06 -15.2 27.9 16.3 32.1 7 9 Alarm State:  0
Wed May 24 13:04:57 PDT 2017 ON: 20.00 +20.0 20.06 -15.4 27.6 16.5 32.0 8 9 Alarm State:  0
Wed May 24 13:03:56 PDT 2017 ON: 19.99 +20.0 20.06 -15.1 28.0 16.3 32.1 7 10 Alarm State:  0
Wed May 24 13:02:54 PDT 2017 ON: 19.99 +20.0 20.04 -14.9 28.4 16.0 32.2 7 10 Alarm State:  0
Wed May 24 13:01:52 PDT 2017 ON: 20.00 +20.0 20.06 -15.4 27.6 16.5 31.9 7 9 Alarm State:  0
Wed May 24 13:00:50 PDT 2017 ON: 20.00 +20.0 20.06 -15.3 27.8 16.4 32.1 7 9 Alarm State:  0
Wed May 24 12:59:49 PDT 2017 ON: 19.99 +20.0 20.06 -15.1 28.1 16.2 32.2 7 10 Alarm State:  0
Wed May 24 12:58:47 PDT 2017 ON: 19.99 +20.0 20.05 -15.0 28.2 16.1 32.1 7 10 Alarm State:  0
Wed May 24 12:57:45 PDT 2017 ON: 19.99 +20.0 20.04 -15.1 28.1 16.2 32.1 7 10 Alarm State:  0
Wed May 24 12:56:34 PDT 2017  Alarm State: 0
Wed May 24 12:56:34 PDT 2017 Chiller did not report ON, got this reading: 
Wed May 24 12:55:32 PDT 2017 ON: 19.99 +20.0 20.06 -15.1 28.1 16.2 32.1 7 9 Alarm State:  0
Wed May 24 12:54:31 PDT 2017 ON: 19.99 +20.0 20.05 -15.4 27.6 16.5 32.1 7 9 Alarm State:  0
Wed May 24 12:53:29 PDT 2017 ON: 19.99 +20.0 20.06 -15.4 27.6 16.5 32.0 7 9 Alarm State:  0
Wed May 24 12:52:28 PDT 2017 ON: 20.00 +20.0 20.05 -15.1 28.1 16.2 32.1 7 10 Alarm State:  0
Wed May 24 12:51:26 PDT 2017 ON: 20.00 +20.0 20.05 -15.2 27.9 16.3 32.1 7 9 Alarm State:  0
Wed May 24 12:50:25 PDT 2017 ON: 20.00 +20.0 20.05 -15.1 28.1 16.2 32.1 7 10 Alarm State:  0
Wed May 24 12:49:23 PDT 2017 ON: 20.00 +20.0 20.05 -15.2 27.9 16.3 32.0 7 10 Alarm State:  0
Wed May 24 12:48:22 PDT 2017 ON: 19.99 +20.0 20.03 -14.9 28.4 16.0 32.2 7 10 Alarm State:  0
Wed May 24 12:47:20 PDT 2017 ON: 20.00 +20.0 20.07 -15.5 27.5 16.6 32.0 7 9 Alarm State:  0
Wed May 24 12:46:19 PDT 2017 ON: 20.00 +20.0 20.05 -14.9 28.3 16.1 32.1 7 10 Alarm State:  0
Wed May 24 12:45:17 PDT 2017 ON: 19.99 +20.0 20.05 -15.2 27.9 16.3 32.0 7 10 Alarm State:  0
Wed May 24 12:44:16 PDT 2017 ON: 20.00 +20.0 20.05 -15.3 27.8 16.4 32.0 7 9 Alarm State:  0
Wed May 24 12:43:15 PDT 2017 ON: 20.00 +20.0 20.07 -15.4 27.6 16.5 31.9 7 9 Alarm State:  0
Wed May 24 12:42:13 PDT 2017 ON: 20.00 +20.0 20.06 -15.2 27.9 16.3 32.1 7 9 Alarm State:  0
Wed May 24 12:41:12 PDT 2017 ON: 20.00 +20.0 20.06 -15.2 27.9 16.3 32.1 7 9 Alarm State:  0
Wed May 24 12:40:10 PDT 2017 ON: 19.99 +20.0 20.05 -15.4 27.6 16.5 32.0 7 10 Alarm State:  0
Wed May 24 12:39:08 PDT 2017 ON: 19.99 +20.0 20.05 -15.2 27.9 16.3 32.2 7 9 Alarm State:  0
Wed May 24 12:38:07 PDT 2017 ON: 20.00 +20.0 20.05 -15.3 27.8 16.4 32.1 7 10 Alarm State:  0
Wed May 24 12:37:05 PDT 2017 ON: 19.99 +20.0 20.05 -14.9 28.3 16.1 32.2 7 10 Alarm State:  0
Wed May 24 12:36:04 PDT 2017 ON: 20.00 +20.0 20.05 -15.2 27.9 16.3 32.0 7 9 Alarm State:  0
Wed May 24 12:35:02 PDT 2017 ON: 19.99 +20.0 20.04 -14.9 28.3 16.1 32.2 7 10 Alarm State:  0
Wed May 24 12:34:01 PDT 2017 ON: 19.99 +20.0 20.05 -15.1 28.0 16.3 32.2 7 10 Alarm State:  0
Wed May 24 12:32:59 PDT 2017 ON: 20.00 +20.0 20.05 -15.1 28.0 16.3 32.1 7 9 Alarm State:  0
Wed May 24 12:31:58 PDT 2017 ON: 20.00 +20.0 20.06 -15.1 28.0 16.3 32.1 7 10 Alarm State:  0
Wed May 24 12:30:56 PDT 2017 ON: 19.99 +20.0 20.04 -15.3 27.7 16.5 32.0 7 10 Alarm State:  0
Wed May 24 12:29:54 PDT 2017 ON: 20.00 +20.0 20.05 -15.1 28.0 16.3 32.1 7 10 Alarm State:  0
Wed May 24 12:28:53 PDT 2017 ON: 19.99 +20.0 20.05 -15.2 27.9 16.3 32.1 7 9 Alarm State:  0
Wed May 24 12:27:51 PDT 2017 ON: 20.00 +20.0 20.07 -15.3 27.8 16.4 32.1 7 9 Alarm State:  0
Wed May 24 12:26:49 PDT 2017 ON: 19.99 +20.0 20.05 -15.0 28.2 16.1 32.2 7 10 Alarm State:  0
Wed May 24 12:25:48 PDT 2017 ON: 19.99 +20.0 20.04 -15.2 27.9 16.3 32.1 7 10 Alarm State:  0
Wed May 24 12:24:46 PDT 2017 ON: 20.00 +20.0 20.06 -15.5 27.5 16.6 31.9 7 9 Alarm State:  0
Wed May 24 12:23:45 PDT 2017 ON: 20.00 +20.0 20.06 -15.2 27.9 16.3 32.0 7 10 Alarm State:  0
Wed May 24 12:22:43 PDT 2017 ON: 19.99 +20.0 20.06 -15.2 27.9 16.3 32.1 7 9 Alarm State:  0
Wed May 24 12:21:42 PDT 2017 ON: 19.99 +20.0 20.04 -15.1 28.1 16.2 32.1 7 10 Alarm State:  0
Wed May 24 12:20:40 PDT 2017 ON: 20.00 +20.0 20.04 -15.3 27.8 16.4 32.0 7 10 Alarm State:  0
Wed May 24 12:19:38 PDT 2017 ON: 20.00 +20.0 20.06 -15.1 28.0 16.3 32.1 7 9 Alarm State:  0
Wed May 24 12:18:36 PDT 2017 ON: 19.99 +20.0 20.06 -15.4 27.6 16.5 32.0 7 9 Alarm State:  0
Wed May 24 12:17:35 PDT 2017 ON: 19.99 +20.0 20.05 -15.3 27.8 16.4 32.1 7 9 Alarm State:  0
Wed May 24 12:16:33 PDT 2017 ON: 20.00 +20.0 20.05 -15.4 27.6 16.5 32.0 7 9 Alarm State:  0
Wed May 24 12:15:32 PDT 2017 ON: 20.00 +20.0 20.07 -15.4 27.6 16.5 32.0 7 9 Alarm State:  0
Wed May 24 12:14:30 PDT 2017 ON: 19.99 +20.0 20.04 -14.8 28.5 16.0 32.2 7 10 Alarm State:  0
Wed May 24 12:13:29 PDT 2017 ON: 19.99 +20.0 20.06 -15.1 28.1 16.2 32.1 7 9 Alarm State:  0
Wed May 24 12:12:27 PDT 2017 ON: 20.01 +20.0 20.06 -15.3 27.8 16.4 32.1 7 9 Alarm State:  0
Wed May 24 12:11:26 PDT 2017 ON: 19.99 +20.0 20.05 -15.0 28.2 16.1 32.2 7 10 Alarm State:  0
Wed May 24 12:10:24 PDT 2017 ON: 19.99 +20.0 20.05 -15.1 28.1 16.2 32.1 7 10 Alarm State:  0
Wed May 24 12:09:23 PDT 2017 ON: 19.99 +20.0 20.06 -15.3 27.8 16.4 32.1 7 9 Alarm State:  0
Wed May 24 12:08:21 PDT 2017 ON: 20.00 +20.0 20.04 -14.8 28.5 16.0 32.2 7 10 Alarm State:  0
Wed May 24 12:07:20 PDT 2017 ON: 19.99 +20.0 20.06 -15.2 27.9 16.3 32.1 7 10 Alarm State:  0
Wed May 24 12:06:18 PDT 2017 ON: 19.99 +20.0 20.05 -15.1 28.1 16.2 32.1 7 10 Alarm State:  0
Wed May 24 12:05:17 PDT 2017 ON: 20.00 +20.0 20.06 -15.1 28.0 16.3 32.1 7 9 Alarm State:  0
Wed May 24 12:04:15 PDT 2017 ON: 19.99 +20.0 20.05 -15.1 28.1 16.2 32.1 7 10 Alarm State:  0
Wed May 24 12:03:14 PDT 2017 ON: 20.00 +20.0 20.05 -15.2 27.9 16.3 32.1 7 10 Alarm State:  0
Wed May 24 12:02:12 PDT 2017 ON: 19.99 +20.0 20.03 -15.1 28.0 16.3 32.0 7 10 Alarm State:  0
Wed May 24 12:01:11 PDT 2017 ON: 20.00 +20.0 20.06 -15.3 27.8 16.4 32.1 7 9 Alarm State:  0
Wed May 24 12:00:09 PDT 2017 ON: 19.99 +20.0 20.04 -15.2 27.9 16.3 31.9 7 10 Alarm State:  0
Wed May 24 11:59:08 PDT 2017 ON: 19.99 +20.0 20.04 -15.1 28.0 16.3 32.1 7 10 Alarm State:  0
Wed May 24 11:58:06 PDT 2017 ON: 20.00 +20.0 20.07 -15.5 27.5 16.6 32.0 7 9 Alarm State:  0
Wed May 24 11:57:05 PDT 2017 ON: 19.99 +20.0 20.05 -15.3 27.8 16.4 32.0 7 10 Alarm State:  0
Wed May 24 11:56:03 PDT 2017 ON: 20.00 +20.0 20.06 -15.3 27.7 16.5 32.0 7 9 Alarm State:  0
Wed May 24 11:55:02 PDT 2017 ON: 19.99 +20.0 20.03 -14.8 28.5 16.0 32.2 7 10 Alarm State:  0
Wed May 24 11:54:00 PDT 2017 ON: 20.00 +20.0 20.06 -15.5 27.4 16.7 31.8 8 9 Alarm State:  0
Wed May 24 11:52:59 PDT 2017 ON: 20.00 +20.0 20.05 -15.3 27.8 16.4 32.0 7 10 Alarm State:  0
Wed May 24 11:51:57 PDT 2017 ON: 19.99 +20.0 20.05 -15.1 28.1 16.2 32.1 7 10 Alarm State:  0
Wed May 24 11:50:56 PDT 2017 ON: 20.00 +20.0 20.05 -15.2 27.9 16.3 32.0 7 10 Alarm State:  0
Wed May 24 11:49:54 PDT 2017 ON: 20.00 +20.0 20.05 -14.9 28.4 16.0 32.2 7 10 Alarm State:  0
Wed May 24 11:48:52 PDT 2017 ON: 20.00 +20.0 20.06 -15.3 27.8 16.4 32.1 7 10 Alarm State:  0
Wed May 24 11:47:51 PDT 2017 ON: 19.99 +20.0 20.06 -15.2 27.9 16.3 32.1 7 9 Alarm State:  0
Wed May 24 11:46:49 PDT 2017 ON: 19.99 +20.0 20.06 -15.1 28.0 16.3 32.1 7 9 Alarm State:  0
Wed May 24 11:45:47 PDT 2017 ON: 19.99 +20.0 20.04 -14.8 28.5 16.0 32.2 7 10 Alarm State:  0
Wed May 24 11:44:46 PDT 2017 ON: 19.99 +20.0 20.06 -15.3 27.7 16.5 32.1 7 9 Alarm State:  0
Wed May 24 11:43:44 PDT 2017 ON: 19.99 +20.0 20.06 -15.4 27.6 16.5 32.0 7 9 Alarm State:  0
Wed May 24 11:42:43 PDT 2017 ON: 19.99 +20.0 20.06 -15.3 27.7 16.5 32.1 7 9 Alarm State:  0
Wed May 24 11:41:41 PDT 2017 ON: 19.99 +20.0 20.05 -15.1 28.0 16.3 32.1 7 10 Alarm State:  0
Wed May 24 11:40:40 PDT 2017 ON: 20.00 +20.0 20.05 -15.4 27.6 16.5 31.9 7 10 Alarm State:  0
Wed May 24 11:39:38 PDT 2017 ON: 20.00 +20.0 20.05 -15.1 28.0 16.3 32.0 7 10 Alarm State:  0
Wed May 24 11:38:36 PDT 2017 ON: 20.00 +20.0 20.07 -15.4 27.6 16.5 32.0 8 9 Alarm State:  0
Wed May 24 11:37:35 PDT 2017 ON: 19.99 +20.0 20.05 -15.3 27.8 16.4 32.1 7 9 Alarm State:  0
Wed May 24 11:36:33 PDT 2017 ON: 20.00 +20.0 20.07 -15.3 27.8 16.4 32.1 7 9 Alarm State:  0
Wed May 24 11:35:21 PDT 2017  Alarm State: 0
Wed May 24 11:35:21 PDT 2017 Chiller did not report ON, got this reading: 
Wed May 24 11:34:20 PDT 2017 ON: 19.99 +20.0 20.05 -15.3 27.8 16.4 32.1 7 10 Alarm State:  0
Wed May 24 11:33:18 PDT 2017 ON: 19.99 +20.0 20.03 -15.1 28.1 16.2 32.1 7 10 Alarm State:  0
Wed May 24 11:32:17 PDT 2017 ON: 20.00 +20.0 20.05 -15.2 27.9 16.3 32.1 7 10 Alarm State:  0
Wed May 24 11:31:06 PDT 2017  Alarm State: 0
Wed May 24 11:31:06 PDT 2017 Chiller did not report ON, got this reading: 
Wed May 24 11:30:04 PDT 2017 ON: 19.99 +20.0 20.04 -15.0 28.2 16.1 32.1 7 10 Alarm State:  0
Wed May 24 11:29:03 PDT 2017 ON: 20.00 +20.0 20.06 -15.0 28.2 16.1 32.1 7 9 Alarm State:  0
Wed May 24 11:28:01 PDT 2017 ON: 19.99 +20.0 20.05 -15.3 27.8 16.4 32.1 7 10 Alarm State:  0
Wed May 24 11:27:00 PDT 2017 ON: 19.99 +20.0 20.04 -15.2 27.9 16.3 32.0 7 10 Alarm State:  0
Wed May 24 11:25:58 PDT 2017 ON: 20.00 +20.0 20.07 -15.3 27.7 16.5 31.9 7 9 Alarm State:  0
Wed May 24 11:24:57 PDT 2017 ON: 19.99 +20.0 20.06 -15.3 27.7 16.5 32.1 7 10 Alarm State:  0
Wed May 24 11:23:55 PDT 2017 ON: 19.99 +20.0 20.05 -15.3 27.7 16.5 32.0 7 10 Alarm State:  0
Wed May 24 11:22:54 PDT 2017 ON: 20.00 +20.0 20.05 -15.3 27.7 16.5 31.9 7 10 Alarm State:  0
Wed May 24 11:21:52 PDT 2017 ON: 20.00 +20.0 20.05 -15.0 28.2 16.1 32.1 7 9 Alarm State:  0
Wed May 24 11:20:51 PDT 2017 ON: 20.00 +20.0 20.04 -14.9 28.3 16.1 32.1 7 10 Alarm State:  0
Wed May 24 11:19:49 PDT 2017 ON: 19.99 +20.0 20.06 -15.2 27.9 16.3 32.0 7 9 Alarm State:  0
Wed May 24 11:18:48 PDT 2017 ON: 19.99 +20.0 20.05 -15.3 27.7 16.5 32.0 7 9 Alarm State:  0
Wed May 24 11:17:46 PDT 2017 ON: 20.01 +20.0 20.06 -15.4 27.6 16.5 31.7 7 9 Alarm State:  0
Wed May 24 11:16:45 PDT 2017 ON: 20.00 +20.0 20.06 -15.0 28.2 16.1 32.1 7 10 Alarm State:  0
Wed May 24 11:15:43 PDT 2017 ON: 19.99 +20.0 20.05 -14.9 28.3 16.1 32.1 7 10 Alarm State:  0
Wed May 24 11:14:41 PDT 2017 ON: 19.99 +20.0 20.04 -15.2 27.9 16.3 32.1 7 10 Alarm State:  0
Wed May 24 11:13:40 PDT 2017 ON: 20.00 +20.0 20.05 -15.2 27.9 16.3 32.0 7 10 Alarm State:  0
Wed May 24 11:12:38 PDT 2017 ON: 19.99 +20.0 20.06 -15.3 27.7 16.5 32.0 7 9 Alarm State:  0
Wed May 24 11:11:36 PDT 2017 ON: 19.99 +20.0 20.05 -15.4 27.6 16.5 32.0 8 9 Alarm State:  0
Wed May 24 11:10:35 PDT 2017 ON: 19.99 +20.0 20.05 -15.1 28.1 16.2 32.2 7 10 Alarm State:  0
Wed May 24 11:09:33 PDT 2017 ON: 20.00 +20.0 20.06 -15.3 27.8 16.4 32.1 7 9 Alarm State:  0
Wed May 24 11:08:32 PDT 2017 ON: 20.00 +20.0 20.06 -15.5 27.5 16.6 31.8 7 9 Alarm State:  0
Wed May 24 11:07:30 PDT 2017 ON: 20.00 +20.0 20.04 -15.0 28.2 16.1 32.1 7 10 Alarm State:  0
Wed May 24 11:06:29 PDT 2017 ON: 20.00 +20.0 20.06 -15.3 27.8 16.4 32.1 7 9 Alarm State:  0
Wed May 24 11:05:27 PDT 2017 ON: 19.99 +20.0 20.05 -15.2 27.9 16.3 32.1 7 10 Alarm State:  0
Wed May 24 11:04:26 PDT 2017 ON: 20.00 +20.0 20.04 -15.3 27.8 16.4 32.0 7 10 Alarm State:  0
Wed May 24 11:03:24 PDT 2017 ON: 20.00 +20.0 20.05 -15.1 28.0 16.3 32.0 7 9 Alarm State:  0
Wed May 24 11:02:23 PDT 2017 ON: 20.00 +20.0 20.05 -15.1 28.0 16.3 32.1 7 10 Alarm State:  0
Wed May 24 11:01:21 PDT 2017 ON: 20.00 +20.0 20.06 -15.3 27.8 16.4 32.0 7 9 Alarm State:  0
Wed May 24 11:00:20 PDT 2017 ON: 20.00 +20.0 20.05 -15.1 28.0 16.3 32.0 7 10 Alarm State:  0
Wed May 24 10:59:18 PDT 2017 ON: 19.99 +20.0 20.05 -15.2 27.9 16.3 32.1 7 10 Alarm State:  0
Wed May 24 10:58:17 PDT 2017 ON: 20.00 +20.0 20.05 -15.1 28.1 16.2 32.1 7 9 Alarm State:  0
Wed May 24 10:57:15 PDT 2017 ON: 20.00 +20.0 20.05 -15.5 27.4 16.7 31.6 7 10 Alarm State:  0
Wed May 24 10:56:14 PDT 2017 ON: 20.00 +20.0 20.05 -15.1 28.0 16.3 32.1 7 9 Alarm State:  0
Wed May 24 10:55:12 PDT 2017 ON: 20.00 +20.0 20.06 -15.0 28.2 16.1 32.2 7 10 Alarm State:  0
Wed May 24 10:54:11 PDT 2017 ON: 19.99 +20.0 20.06 -15.2 27.9 16.3 32.1 7 9 Alarm State:  0
Wed May 24 10:53:09 PDT 2017 ON: 20.00 +20.0 20.04 -15.1 28.1 16.2 32.1 7 10 Alarm State:  0
Wed May 24 10:52:08 PDT 2017 ON: 20.00 +20.0 20.05 -14.7 28.7 15.8 32.3 7 10 Alarm State:  0
Wed May 24 10:51:07 PDT 2017 ON: 19.99 +20.0 20.06 -15.5 27.4 16.7 31.9 7 9 Alarm State:  0
Wed May 24 10:50:05 PDT 2017 ON: 19.99 +20.0 20.04 -15.4 27.6 16.5 32.0 7 9 Alarm State:  0
Wed May 24 10:49:04 PDT 2017 ON: 20.00 +20.0 20.06 -15.5 27.5 16.6 31.7 7 9 Alarm State:  0
Wed May 24 10:48:02 PDT 2017 ON: 20.00 +20.0 20.06 -15.1 28.0 16.3 32.1 7 9 Alarm State:  0
Wed May 24 10:47:01 PDT 2017 ON: 19.99 +20.0 20.05 -14.9 28.4 16.0 32.2 7 10 Alarm State:  0
Wed May 24 10:45:59 PDT 2017 ON: 19.99 +20.0 20.05 -15.2 27.9 16.3 32.0 7 9 Alarm State:  0
Wed May 24 10:44:58 PDT 2017 ON: 20.00 +20.0 20.05 -15.4 27.6 16.5 32.0 7 9 Alarm State:  0
Wed May 24 10:43:56 PDT 2017 ON: 19.99 +20.0 20.06 -15.2 27.9 16.3 32.1 7 9 Alarm State:  0
Wed May 24 10:42:55 PDT 2017 ON: 20.00 +20.0 20.06 -15.5 27.4 16.7 31.7 7 9 Alarm State:  0
Wed May 24 10:41:53 PDT 2017 ON: 19.99 +20.0 20.04 -15.0 28.2 16.1 32.2 7 10 Alarm State:  0
Wed May 24 10:40:52 PDT 2017 ON: 20.00 +20.0 20.06 -15.3 27.8 16.4 31.9 7 9 Alarm State:  0
Wed May 24 10:39:50 PDT 2017 ON: 19.99 +20.0 20.05 -15.3 27.8 16.4 32.1 7 10 Alarm State:  0
Wed May 24 10:38:49 PDT 2017 ON: 19.99 +20.0 20.05 -15.2 27.9 16.3 32.0 7 9 Alarm State:  0
Wed May 24 10:37:47 PDT 2017 ON: 20.00 +20.0 20.04 -15.2 27.9 16.3 32.1 7 10 Alarm State:  0
Wed May 24 10:36:46 PDT 2017 ON: 20.00 +20.0 20.07 -15.4 27.6 16.5 32.1 7 9 Alarm State:  0
Wed May 24 10:35:44 PDT 2017 ON: 19.99 +20.0 20.05 -15.3 27.8 16.4 32.1 7 10 Alarm State:  0
Wed May 24 10:34:43 PDT 2017 ON: 19.99 +20.0 20.05 -15.3 27.7 16.5 32.0 7 9 Alarm State:  0
Wed May 24 10:33:41 PDT 2017 ON: 20.00 +20.0 20.05 -15.2 27.9 16.3 32.1 7 10 Alarm State:  0
Wed May 24 10:32:40 PDT 2017 ON: 19.99 +20.0 20.07 -15.3 27.7 16.5 31.9 7 9 Alarm State:  0
Wed May 24 10:31:38 PDT 2017 ON: 19.99 +20.0 20.04 -15.2 27.9 16.3 32.1 7 10 Alarm State:  0
Wed May 24 10:30:37 PDT 2017 ON: 20.00 +20.0 20.05 -15.1 28.1 16.2 32.1 7 9 Alarm State:  0
Wed May 24 10:29:35 PDT 2017 ON: 20.00 +20.0 20.06 -15.4 27.6 16.5 31.9 7 9 Alarm State:  0
Wed May 24 10:28:34 PDT 2017 ON: 19.99 +20.0 20.06 -14.9 28.3 16.1 32.2 7 10 Alarm State:  0
Wed May 24 10:27:32 PDT 2017 ON: 19.99 +20.0 20.05 -15.0 28.2 16.1 32.1 7 10 Alarm State:  0
Wed May 24 10:26:31 PDT 2017 ON: 20.00 +20.0 20.05 -15.3 27.8 16.4 32.1 7 9 Alarm State:  0
Wed May 24 10:25:29 PDT 2017 ON: 20.00 +20.0 20.07 -15.3 27.7 16.5 32.0 7 9 Alarm State:  0
Wed May 24 10:24:28 PDT 2017 ON: 19.99 +20.0 20.06 -15.2 27.9 16.3 32.1 7 10 Alarm State:  0
Wed May 24 10:23:26 PDT 2017 ON: 19.99 +20.0 20.05 -15.2 27.9 16.3 32.1 7 9 Alarm State:  0
Wed May 24 10:22:25 PDT 2017 ON: 20.00 +20.0 20.06 -15.5 27.5 16.6 31.9 7 9 Alarm State:  0
Wed May 24 10:21:23 PDT 2017 ON: 20.00 +20.0 20.06 -15.1 28.0 16.3 32.1 7 9 Alarm State:  0
Wed May 24 10:20:22 PDT 2017 ON: 19.99 +20.0 20.05 -15.3 27.7 16.5 32.0 7 10 Alarm State:  0
Wed May 24 10:19:20 PDT 2017 ON: 19.99 +20.0 20.06 -15.5 27.5 16.6 32.0 8 9 Alarm State:  0
Wed May 24 10:18:19 PDT 2017 ON: 20.00 +20.0 20.04 -14.9 28.4 16.0 32.2 7 10 Alarm State:  0
Wed May 24 10:17:17 PDT 2017 ON: 20.00 +20.0 20.05 -15.2 27.9 16.3 32.0 7 10 Alarm State:  0
Wed May 24 10:16:16 PDT 2017 ON: 19.99 +20.0 20.05 -14.9 28.4 16.0 32.2 7 10 Alarm State:  0
Wed May 24 10:15:14 PDT 2017 ON: 19.99 +20.0 20.05 -15.3 27.7 16.5 32.0 7 9 Alarm State:  0
Wed May 24 10:14:13 PDT 2017 ON: 20.00 +20.0 20.06 -15.3 27.8 16.4 32.0 7 9 Alarm State:  0
Wed May 24 10:13:11 PDT 2017 ON: 20.00 +20.0 20.05 -15.1 28.1 16.2 32.1 7 10 Alarm State:  0
Wed May 24 10:12:10 PDT 2017 ON: 19.99 +20.0 20.06 -15.3 27.7 16.5 32.0 7 9 Alarm State:  0
Wed May 24 10:11:08 PDT 2017 ON: 19.99 +20.0 20.04 -15.1 28.1 16.2 32.2 7 10 Alarm State:  0
Wed May 24 10:10:07 PDT 2017 ON: 20.00 +20.0 20.06 -15.6 27.3 16.8 31.8 7 9 Alarm State:  0
Wed May 24 10:09:05 PDT 2017 ON: 20.00 +20.0 20.05 -14.9 28.3 16.1 32.1 7 10 Alarm State:  0
Wed May 24 10:08:04 PDT 2017 ON: 19.99 +20.0 20.06 -15.4 27.6 16.5 32.0 8 9 Alarm State:  0
Wed May 24 10:07:02 PDT 2017 ON: 20.00 +20.0 20.05 -15.5 27.4 16.7 32.0 7 9 Alarm State:  0
Wed May 24 10:06:01 PDT 2017 ON: 20.00 +20.0 20.07 -15.5 27.5 16.6 31.9 7 8 Alarm State:  0
Wed May 24 10:05:00 PDT 2017 ON: 20.00 +20.0 20.06 -15.5 27.4 16.7 31.9 7 10 Alarm State:  0
Wed May 24 10:03:58 PDT 2017 ON: 19.99 +20.0 20.05 -15.2 27.9 16.3 32.1 7 10 Alarm State:  0
Wed May 24 10:02:57 PDT 2017 ON: 19.98 +20.0 20.05 -15.3 27.8 16.4 32.1 7 9 Alarm State:  0
Wed May 24 10:01:55 PDT 2017 ON: 20.00 +20.0 20.05 -15.4 27.6 16.5 32.0 7 9 Alarm State:  0
Wed May 24 10:00:54 PDT 2017 ON: 20.00 +20.0 20.05 -15.3 27.8 16.4 32.0 7 10 Alarm State:  0
Wed May 24 09:59:52 PDT 2017 ON: 20.00 +20.0 20.06 -15.0 28.2 16.1 32.1 7 10 Alarm State:  0
Wed May 24 09:58:51 PDT 2017 ON: 19.98 +20.0 20.03 -14.8 28.5 16.0 32.3 7 11 Alarm State:  0
Wed May 24 09:57:49 PDT 2017 ON: 19.99 +20.0 20.03 -14.9 28.3 16.1 32.2 7 10 Alarm State:  0
Wed May 24 09:56:48 PDT 2017 ON: 20.00 +20.0 20.04 -15.3 27.7 16.5 31.9 7 10 Alarm State:  0
Wed May 24 09:55:46 PDT 2017 ON: 20.00 +20.0 20.05 -15.1 28.0 16.3 32.1 7 10 Alarm State:  0
Wed May 24 09:54:45 PDT 2017 ON: 20.00 +20.0 20.06 -15.3 27.7 16.5 32.1 7 10 Alarm State:  0
Wed May 24 09:53:43 PDT 2017 ON: 19.99 +20.0 20.05 -15.4 27.6 16.5 32.0 7 9 Alarm State:  0
Wed May 24 09:52:42 PDT 2017 ON: 20.00 +20.0 20.04 -15.3 27.8 16.4 32.0 7 10 Alarm State:  0
Wed May 24 09:51:40 PDT 2017 ON: 20.00 +20.0 20.06 -15.2 27.9 16.3 32.1 7 10 Alarm State:  0
Wed May 24 09:50:39 PDT 2017 ON: 19.99 +20.0 20.06 -15.1 28.1 16.2 32.2 7 9 Alarm State:  0
Wed May 24 09:49:37 PDT 2017 ON: 20.00 +20.0 20.04 -15.0 28.2 16.1 32.1 7 10 Alarm State:  0
Wed May 24 09:48:36 PDT 2017 ON: 19.99 +20.0 20.07 -15.6 27.3 16.8 31.7 7 9 Alarm State:  0
Wed May 24 09:47:34 PDT 2017 ON: 19.99 +20.0 20.06 -15.3 27.7 16.5 32.0 7 9 Alarm State:  0
Wed May 24 09:46:33 PDT 2017 ON: 19.99 +20.0 20.05 -15.1 28.1 16.2 32.1 7 10 Alarm State:  0
Wed May 24 09:45:31 PDT 2017 ON: 19.99 +20.0 20.04 -15.2 27.9 16.3 32.0 7 10 Alarm State:  0
Wed May 24 09:44:30 PDT 2017 ON: 20.00 +20.0 20.06 -15.4 27.6 16.5 32.0 7 9 Alarm State:  0
Wed May 24 09:43:28 PDT 2017 ON: 20.00 +20.0 20.05 -15.1 28.0 16.3 32.1 7 10 Alarm State:  0
Wed May 24 09:42:27 PDT 2017 ON: 19.99 +20.0 20.06 -15.5 27.4 16.7 31.8 7 10 Alarm State:  0
Wed May 24 09:41:25 PDT 2017 ON: 19.99 +20.0 20.04 -15.2 27.9 16.3 32.1 7 10 Alarm State:  0
Wed May 24 09:40:24 PDT 2017 ON: 20.00 +20.0 20.05 -15.2 27.9 16.3 32.0 7 9 Alarm State:  0
Wed May 24 09:39:22 PDT 2017 ON: 20.00 +20.0 20.05 -14.9 28.3 16.1 32.2 7 10 Alarm State:  0
Wed May 24 09:38:21 PDT 2017 ON: 19.99 +20.0 20.06 -15.5 27.5 16.6 31.9 8 9 Alarm State:  0
Wed May 24 09:37:19 PDT 2017 ON: 20.00 +20.0 20.06 -15.3 27.8 16.4 32.0 7 9 Alarm State:  0
Wed May 24 09:36:18 PDT 2017 ON: 20.00 +20.0 20.06 -15.3 27.8 16.4 32.0 7 10 Alarm State:  0
Wed May 24 09:35:16 PDT 2017 ON: 19.99 +20.0 20.05 -15.3 27.7 16.5 32.0 7 10 Alarm State:  0
Wed May 24 09:34:15 PDT 2017 ON: 19.99 +20.0 20.04 -15.1 28.1 16.2 32.1 7 9 Alarm State:  0
Wed May 24 09:33:13 PDT 2017 ON: 20.00 +20.0 20.06 -15.3 27.8 16.4 31.9 7 9 Alarm State:  0
Wed May 24 09:32:12 PDT 2017 ON: 20.00 +20.0 20.06 -15.1 28.1 16.2 32.1 7 10 Alarm State:  0
Wed May 24 09:31:10 PDT 2017 ON: 19.99 +20.0 20.06 -15.4 27.6 16.5 32.0 7 9 Alarm State:  0
Wed May 24 09:30:09 PDT 2017 ON: 20.00 +20.0 20.06 -15.1 28.0 16.3 32.1 7 9 Alarm State:  0
Wed May 24 09:29:07 PDT 2017 ON: 20.00 +20.0 20.05 -15.3 27.8 16.4 32.0 7 10 Alarm State:  0
Wed May 24 09:28:06 PDT 2017 ON: 19.99 +20.0 20.06 -15.3 27.7 16.5 32.0 7 9 Alarm State:  0
Wed May 24 09:27:04 PDT 2017 ON: 20.00 +20.0 20.06 -15.1 28.0 16.3 32.1 7 9 Alarm State:  0
Wed May 24 09:26:03 PDT 2017 ON: 19.99 +20.0 20.06 -15.2 27.9 16.3 32.1 7 10 Alarm State:  0
Wed May 24 09:25:01 PDT 2017 ON: 19.99 +20.0 20.06 -15.2 27.9 16.3 32.0 7 9 Alarm State:  0
Wed May 24 09:24:00 PDT 2017 ON: 20.00 +20.0 20.04 -15.1 28.1 16.2 32.1 7 10 Alarm State:  0
Wed May 24 09:22:58 PDT 2017 ON: 19.99 +20.0 20.06 -15.5 27.5 16.6 32.0 7 9 Alarm State:  0
Wed May 24 09:21:57 PDT 2017 ON: 19.99 +20.0 20.06 -15.7 27.2 16.8 31.7 7 9 Alarm State:  0
Wed May 24 09:20:55 PDT 2017 ON: 20.00 +20.0 20.05 -15.1 28.1 16.2 32.1 7 9 Alarm State:  0
Wed May 24 09:19:54 PDT 2017 ON: 20.00 +20.0 20.05 -15.3 27.8 16.4 32.1 7 10 Alarm State:  0
Wed May 24 09:18:52 PDT 2017 ON: 20.00 +20.0 20.07 -15.4 27.6 16.5 31.9 7 9 Alarm State:  0
Wed May 24 09:17:51 PDT 2017 ON: 19.99 +20.0 20.06 -15.5 27.5 16.6 32.0 7 9 Alarm State:  0
Wed May 24 09:16:49 PDT 2017 ON: 19.99 +20.0 20.05 -15.5 27.4 16.7 32.0 7 9 Alarm State:  0
Wed May 24 09:15:48 PDT 2017 ON: 20.00 +20.0 20.06 -15.1 28.0 16.3 32.1 7 9 Alarm State:  0
Wed May 24 09:14:46 PDT 2017 ON: 20.00 +20.0 20.07 -15.3 27.8 16.4 32.1 7 9 Alarm State:  0
Wed May 24 09:13:45 PDT 2017 ON: 19.99 +20.0 20.04 -14.9 28.3 16.1 32.2 7 10 Alarm State:  0
Wed May 24 09:12:43 PDT 2017 ON: 20.00 +20.0 20.06 -15.3 27.7 16.5 32.0 7 9 Alarm State:  0
Wed May 24 09:11:42 PDT 2017 ON: 20.00 +20.0 20.05 -15.3 27.8 16.4 32.1 7 9 Alarm State:  0
Wed May 24 09:10:40 PDT 2017 ON: 20.00 +20.0 20.05 -15.0 28.2 16.1 32.2 7 10 Alarm State:  0
Wed May 24 09:09:39 PDT 2017 ON: 19.99 +20.0 20.05 -15.2 27.9 16.3 32.1 7 10 Alarm State:  0
Wed May 24 09:08:37 PDT 2017 ON: 19.99 +20.0 20.03 -15.1 28.1 16.2 32.0 7 11 Alarm State:  0
Wed May 24 09:07:36 PDT 2017 ON: 20.00 +20.0 20.04 -15.1 28.1 16.2 32.2 7 10 Alarm State:  0
Wed May 24 09:06:34 PDT 2017 ON: 20.00 +20.0 20.05 -15.5 27.5 16.6 32.0 7 10 Alarm State:  0
Wed May 24 09:05:33 PDT 2017 ON: 19.99 +20.0 20.06 -15.3 27.8 16.4 32.1 7 9 Alarm State:  0
Wed May 24 09:04:31 PDT 2017 ON: 20.00 +20.0 20.04 -15.2 27.9 16.3 32.1 7 10 Alarm State:  0
Wed May 24 09:03:30 PDT 2017 ON: 20.00 +20.0 20.05 -15.1 28.0 16.3 32.0 7 10 Alarm State:  0
Wed May 24 09:02:28 PDT 2017 ON: 19.99 +20.0 20.06 -15.1 28.1 16.2 32.2 7 10 Alarm State:  0
Wed May 24 09:01:27 PDT 2017 ON: 20.00 +20.0 20.05 -15.1 28.0 16.3 32.0 7 10 Alarm State:  0
Wed May 24 09:00:25 PDT 2017 ON: 19.99 +20.0 20.05 -15.4 27.6 16.5 31.9 7 9 Alarm State:  0
Wed May 24 08:59:24 PDT 2017 ON: 20.00 +20.0 20.05 -15.5 27.5 16.6 31.9 8 9 Alarm State:  0
Wed May 24 08:58:22 PDT 2017 ON: 20.00 +20.0 20.06 -15.2 27.9 16.3 32.1 7 9 Alarm State:  0
Wed May 24 08:57:21 PDT 2017 ON: 19.99 +20.0 20.05 -15.3 27.8 16.4 32.1 7 10 Alarm State:  0
Wed May 24 08:56:19 PDT 2017 ON: 19.99 +20.0 20.04 -15.1 28.1 16.2 32.1 7 10 Alarm State:  0
Wed May 24 08:55:18 PDT 2017 ON: 20.00 +20.0 20.04 -14.9 28.3 16.1 32.2 6 10 Alarm State:  0
Wed May 24 08:54:16 PDT 2017 ON: 20.00 +20.0 20.06 -15.1 28.0 16.3 32.0 7 9 Alarm State:  0
Wed May 24 08:53:15 PDT 2017 ON: 19.99 +20.0 20.06 -15.3 27.7 16.5 32.1 7 9 Alarm State:  0
Wed May 24 08:52:13 PDT 2017 ON: 20.00 +20.0 20.06 -15.3 27.8 16.4 32.1 7 9 Alarm State:  0
Wed May 24 08:51:12 PDT 2017 ON: 20.00 +20.0 20.06 -15.4 27.6 16.5 32.0 8 10 Alarm State:  0
Wed May 24 08:50:10 PDT 2017 ON: 19.99 +20.0 20.05 -15.4 27.6 16.5 32.0 7 9 Alarm State:  0
Wed May 24 08:49:09 PDT 2017 ON: 20.00 +20.0 20.05 -15.2 27.9 16.3 32.1 7 9 Alarm State:  0
Wed May 24 08:48:07 PDT 2017 ON: 20.00 +20.0 20.06 -15.3 27.7 16.5 32.0 7 9 Alarm State:  0
Wed May 24 08:47:06 PDT 2017 ON: 19.99 +20.0 20.06 -15.1 28.0 16.3 32.1 7 10 Alarm State:  0
Wed May 24 08:46:04 PDT 2017 ON: 19.99 +20.0 20.07 -15.6 27.3 16.8 31.8 7 8 Alarm State:  0
Wed May 24 08:45:03 PDT 2017 ON: 20.00 +20.0 20.05 -15.3 27.8 16.4 32.1 7 9 Alarm State:  0
Wed May 24 08:44:01 PDT 2017 ON: 20.00 +20.0 20.06 -15.3 27.8 16.4 32.0 7 9 Alarm State:  0
Wed May 24 08:43:00 PDT 2017 ON: 19.99 +20.0 20.07 -15.3 27.8 16.4 32.0 7 9 Alarm State:  0
Wed May 24 08:41:58 PDT 2017 ON: 19.99 +20.0 20.04 -14.9 28.4 16.0 32.2 7 10 Alarm State:  0
Wed May 24 08:40:57 PDT 2017 ON: 20.00 +20.0 20.05 -15.3 27.8 16.4 32.1 7 9 Alarm State:  0
Wed May 24 08:39:55 PDT 2017 ON: 19.99 +20.0 20.06 -15.2 27.9 16.3 32.1 7 9 Alarm State:  0
Wed May 24 08:38:54 PDT 2017 ON: 19.99 +20.0 20.07 -15.4 27.6 16.5 32.0 7 9 Alarm State:  0
Wed May 24 08:37:52 PDT 2017 ON: 19.99 +20.0 20.04 -15.3 27.8 16.4 32.1 7 10 Alarm State:  0
Wed May 24 08:36:51 PDT 2017 ON: 20.00 +20.0 20.06 -15.3 27.8 16.4 32.1 7 9 Alarm State:  0
Wed May 24 08:35:49 PDT 2017 ON: 20.00 +20.0 20.05 -15.4 27.6 16.5 32.0 7 10 Alarm State:  0
Wed May 24 08:34:48 PDT 2017 ON: 19.99 +20.0 20.07 -15.3 27.8 16.4 32.1 7 9 Alarm State:  0
Wed May 24 08:33:46 PDT 2017 ON: 19.99 +20.0 20.06 -15.4 27.6 16.5 32.0 7 9 Alarm State:  0
Wed May 24 08:32:45 PDT 2017 ON: 20.00 +20.0 20.05 -15.3 27.8 16.4 32.0 7 9 Alarm State:  0
Wed May 24 08:31:43 PDT 2017 ON: 20.00 +20.0 20.07 -15.3 27.7 16.5 32.0 7 9 Alarm State:  0
Wed May 24 08:30:42 PDT 2017 ON: 19.99 +20.0 20.07 -15.3 27.8 16.4 32.1 7 9 Alarm State:  0
Wed May 24 08:29:40 PDT 2017 ON: 19.99 +20.0 20.05 -15.2 27.9 16.3 32.1 7 9 Alarm State:  0
Wed May 24 08:28:39 PDT 2017 ON: 20.00 +20.0 20.04 -15.2 27.9 16.3 32.0 7 10 Alarm State:  0
Wed May 24 08:27:37 PDT 2017 ON: 20.00 +20.0 20.05 -15.2 27.9 16.3 32.1 7 10 Alarm State:  0
Wed May 24 08:26:36 PDT 2017 ON: 20.00 +20.0 20.05 -15.0 28.2 16.1 32.2 7 10 Alarm State:  0
Wed May 24 08:25:34 PDT 2017 ON: 20.00 +20.0 20.05 -15.5 27.5 16.6 32.0 7 9 Alarm State:  0
Wed May 24 08:24:33 PDT 2017 ON: 20.00 +20.0 20.06 -15.5 27.4 16.7 32.0 7 9 Alarm State:  0
Wed May 24 08:23:31 PDT 2017 ON: 20.00 +20.0 20.06 -15.4 27.6 16.5 32.0 7 9 Alarm State:  0
Wed May 24 08:22:30 PDT 2017 ON: 19.99 +20.0 20.06 -15.3 27.7 16.5 32.0 7 9 Alarm State:  0
Wed May 24 08:21:28 PDT 2017 ON: 20.00 +20.0 20.07 -15.5 27.4 16.7 32.0 8 8 Alarm State:  0
Wed May 24 08:20:27 PDT 2017 ON: 20.00 +20.0 20.06 -15.3 27.8 16.4 32.1 7 10 Alarm State:  0
Wed May 24 08:19:25 PDT 2017 ON: 19.99 +20.0 20.04 -15.2 27.9 16.3 32.1 7 10 Alarm State:  0
Wed May 24 08:18:24 PDT 2017 ON: 20.00 +20.0 20.04 -15.0 28.2 16.1 32.1 7 9 Alarm State:  0
Wed May 24 08:17:22 PDT 2017 ON: 20.01 +20.0 20.07 -15.5 27.4 16.7 31.9 7 9 Alarm State:  0
Wed May 24 08:16:21 PDT 2017 ON: 20.00 +20.0 20.07 -15.7 27.2 16.8 31.6 7 9 Alarm State:  0
Wed May 24 08:15:19 PDT 2017 ON: 19.99 +20.0 20.06 -15.3 27.7 16.5 32.1 7 9 Alarm State:  0
Wed May 24 08:14:18 PDT 2017 ON: 20.00 +20.0 20.05 -15.4 27.6 16.5 32.0 7 9 Alarm State:  0
Wed May 24 08:13:16 PDT 2017 ON: 19.99 +20.0 20.06 -15.3 27.7 16.5 32.0 7 9 Alarm State:  0
Wed May 24 08:12:15 PDT 2017 ON: 20.00 +20.0 20.05 -15.1 28.0 16.3 32.0 7 9 Alarm State:  0
Wed May 24 08:11:13 PDT 2017 ON: 20.00 +20.0 20.05 -15.3 27.8 16.4 32.1 7 10 Alarm State:  0
Wed May 24 08:10:12 PDT 2017 ON: 19.99 +20.0 20.06 -15.3 27.8 16.4 32.1 8 9 Alarm State:  0
Wed May 24 08:09:10 PDT 2017 ON: 20.00 +20.0 20.06 -15.3 27.7 16.5 32.1 7 9 Alarm State:  0
Wed May 24 08:08:09 PDT 2017 ON: 19.99 +20.0 20.05 -15.4 27.6 16.5 32.0 7 9 Alarm State:  0
Wed May 24 08:07:07 PDT 2017 ON: 20.00 +20.0 20.06 -15.3 27.8 16.4 32.0 7 9 Alarm State:  0
Wed May 24 08:06:06 PDT 2017 ON: 20.00 +20.0 20.06 -15.1 28.0 16.3 32.1 7 10 Alarm State:  0
Wed May 24 08:05:04 PDT 2017 ON: 19.99 +20.0 20.06 -15.4 27.6 16.5 32.0 7 9 Alarm State:  0
Wed May 24 08:04:03 PDT 2017 ON: 20.00 +20.0 20.05 -15.4 27.6 16.5 32.0 7 9 Alarm State:  0
Wed May 24 08:03:01 PDT 2017 ON: 20.00 +20.0 20.05 -15.2 27.9 16.3 32.1 7 10 Alarm State:  0
Wed May 24 08:02:00 PDT 2017 ON: 19.99 +20.0 20.06 -15.2 27.9 16.3 32.1 7 10 Alarm State:  0
Wed May 24 08:00:58 PDT 2017 ON: 19.99 +20.0 20.04 -15.1 28.1 16.2 32.1 7 10 Alarm State:  0
Wed May 24 07:59:57 PDT 2017 ON: 20.00 +20.0 20.06 -15.4 27.6 16.5 32.0 7 9 Alarm State:  0
Wed May 24 07:58:55 PDT 2017 ON: 19.99 +20.0 20.04 -15.3 27.8 16.4 32.0 7 10 Alarm State:  0
Wed May 24 07:57:54 PDT 2017 ON: 19.99 +20.0 20.05 -15.4 27.6 16.5 32.0 7 9 Alarm State:  0
Wed May 24 07:56:52 PDT 2017 ON: 20.00 +20.0 20.07 -15.5 27.5 16.6 31.9 7 9 Alarm State:  0
Wed May 24 07:55:51 PDT 2017 ON: 19.99 +20.0 20.04 -15.2 27.9 16.3 32.1 7 10 Alarm State:  0
Wed May 24 07:54:49 PDT 2017 ON: 20.00 +20.0 20.06 -15.3 27.7 16.5 32.0 7 9 Alarm State:  0
Wed May 24 07:53:48 PDT 2017 ON: 19.99 +20.0 20.06 -15.3 27.8 16.4 32.1 7 9 Alarm State:  0
Wed May 24 07:52:46 PDT 2017 ON: 20.00 +20.0 20.07 -15.5 27.5 16.6 32.0 7 9 Alarm State:  0
Wed May 24 07:51:45 PDT 2017 ON: 19.99 +20.0 20.05 -15.2 27.9 16.3 32.0 7 10 Alarm State:  0
Wed May 24 07:50:43 PDT 2017 ON: 20.00 +20.0 20.05 -15.3 27.7 16.5 32.0 7 9 Alarm State:  0
Wed May 24 07:49:42 PDT 2017 ON: 20.00 +20.0 20.07 -15.4 27.6 16.5 31.8 7 9 Alarm State:  0
Wed May 24 07:48:40 PDT 2017 ON: 19.99 +20.0 20.05 -15.1 28.0 16.3 32.1 7 10 Alarm State:  0
Wed May 24 07:47:39 PDT 2017 ON: 20.00 +20.0 20.04 -15.2 27.9 16.3 32.0 7 10 Alarm State:  0
Wed May 24 07:46:37 PDT 2017 ON: 20.00 +20.0 20.06 -15.3 27.8 16.4 32.1 7 9 Alarm State:  0
Wed May 24 07:45:36 PDT 2017 ON: 19.99 +20.0 20.04 -15.2 27.9 16.3 32.0 7 11 Alarm State:  0
Wed May 24 07:44:34 PDT 2017 ON: 19.99 +20.0 20.05 -15.3 27.7 16.5 32.0 7 9 Alarm State:  0
Wed May 24 07:43:33 PDT 2017 ON: 20.00 +20.0 20.04 -15.1 28.0 16.3 32.1 7 10 Alarm State:  0
Wed May 24 07:42:31 PDT 2017 ON: 20.01 +20.0 20.06 -15.3 27.8 16.4 32.0 7 9 Alarm State:  0
Wed May 24 07:41:30 PDT 2017 ON: 20.00 +20.0 20.05 -15.1 28.0 16.3 32.1 7 10 Alarm State:  0
Wed May 24 07:40:28 PDT 2017 ON: 19.99 +20.0 20.05 -15.1 28.1 16.2 32.1 7 10 Alarm State:  0
Wed May 24 07:39:27 PDT 2017 ON: 20.00 +20.0 20.05 -15.4 27.6 16.5 32.0 7 9 Alarm State:  0
Wed May 24 07:38:25 PDT 2017 ON: 20.00 +20.0 20.07 -15.4 27.6 16.5 32.0 7 9 Alarm State:  0
Wed May 24 07:37:24 PDT 2017 ON: 19.99 +20.0 20.06 -15.2 27.9 16.3 32.0 7 10 Alarm State:  0
Wed May 24 07:36:22 PDT 2017 ON: 20.00 +20.0 20.05 -15.1 28.1 16.2 32.1 7 10 Alarm State:  0
Wed May 24 07:35:21 PDT 2017 ON: 19.99 +20.0 20.04 -15.3 27.8 16.4 32.0 7 10 Alarm State:  0
Wed May 24 07:34:19 PDT 2017 ON: 19.99 +20.0 20.05 -15.2 27.9 16.3 32.1 7 10 Alarm State:  0
Wed May 24 07:33:18 PDT 2017 ON: 20.00 +20.0 20.06 -15.3 27.7 16.5 32.1 7 9 Alarm State:  0
Wed May 24 07:32:16 PDT 2017 ON: 20.00 +20.0 20.05 -15.1 28.0 16.3 32.2 7 10 Alarm State:  0
Wed May 24 07:31:15 PDT 2017 ON: 19.99 +20.0 20.05 -15.2 27.9 16.3 32.1 7 10 Alarm State:  0
Wed May 24 07:30:13 PDT 2017 ON: 19.99 +20.0 20.05 -15.3 27.8 16.4 32.0 7 9 Alarm State:  0
Wed May 24 07:29:12 PDT 2017 ON: 20.00 +20.0 20.05 -15.1 28.1 16.2 32.1 7 9 Alarm State:  0
Wed May 24 07:28:10 PDT 2017 ON: 19.99 +20.0 20.05 -15.2 27.9 16.3 32.1 7 10 Alarm State:  0
Wed May 24 07:27:09 PDT 2017 ON: 19.99 +20.0 20.05 -15.1 28.0 16.3 32.1 7 10 Alarm State:  0
Wed May 24 07:26:07 PDT 2017 ON: 19.99 +20.0 20.04 -15.1 28.0 16.3 32.1 7 10 Alarm State:  0
Wed May 24 07:25:06 PDT 2017 ON: 19.99 +20.0 20.05 -15.1 28.1 16.2 32.1 7 10 Alarm State:  0
Wed May 24 07:24:04 PDT 2017 ON: 20.00 +20.0 20.05 -15.2 27.9 16.3 32.0 7 9 Alarm State:  0
Wed May 24 07:23:03 PDT 2017 ON: 20.00 +20.0 20.04 -15.0 28.2 16.1 32.1 7 10 Alarm State:  0
Wed May 24 07:22:01 PDT 2017 ON: 20.00 +20.0 20.04 -14.8 28.5 16.0 32.2 7 10 Alarm State:  0
Wed May 24 07:21:00 PDT 2017 ON: 19.99 +20.0 20.05 -15.4 27.6 16.5 32.0 7 10 Alarm State:  0
Wed May 24 07:19:58 PDT 2017 ON: 19.99 +20.0 20.05 -15.5 27.5 16.6 32.0 7 9 Alarm State:  0
Wed May 24 07:18:57 PDT 2017 ON: 20.00 +20.0 20.05 -15.4 27.6 16.5 32.0 7 10 Alarm State:  0
Wed May 24 07:17:55 PDT 2017 ON: 19.99 +20.0 20.05 -15.3 27.7 16.5 32.0 7 10 Alarm State:  0
Wed May 24 07:16:54 PDT 2017 ON: 19.99 +20.0 20.06 -15.3 27.7 16.5 32.0 7 9 Alarm State:  0
Wed May 24 07:15:52 PDT 2017 ON: 20.00 +20.0 20.06 -15.3 27.7 16.5 32.0 7 9 Alarm State:  0
Wed May 24 07:14:51 PDT 2017 ON: 20.00 +20.0 20.05 -15.0 28.2 16.1 32.1 7 10 Alarm State:  0
Wed May 24 07:13:49 PDT 2017 ON: 19.99 +20.0 20.06 -14.9 28.3 16.1 32.1 7 10 Alarm State:  0
Wed May 24 07:12:48 PDT 2017 ON: 19.99 +20.0 20.05 -15.4 27.6 16.5 32.0 7 9 Alarm State:  0
Wed May 24 07:11:46 PDT 2017 ON: 20.00 +20.0 20.05 -15.4 27.6 16.5 32.0 7 9 Alarm State:  0
Wed May 24 07:10:45 PDT 2017 ON: 19.99 +20.0 20.06 -15.3 27.7 16.5 32.0 7 9 Alarm State:  0
Wed May 24 07:09:43 PDT 2017 ON: 19.99 +20.0 20.04 -14.8 28.5 16.0 32.2 7 10 Alarm State:  0
Wed May 24 07:08:42 PDT 2017 ON: 20.00 +20.0 20.05 -15.1 28.1 16.2 32.1 7 10 Alarm State:  0
Wed May 24 07:07:40 PDT 2017 ON: 20.00 +20.0 20.05 -15.3 27.8 16.4 32.0 7 9 Alarm State:  0
Wed May 24 07:06:39 PDT 2017 ON: 20.00 +20.0 20.06 -15.2 27.9 16.3 32.1 7 9 Alarm State:  0
Wed May 24 07:05:37 PDT 2017 ON: 19.99 +20.0 20.06 -15.2 27.9 16.3 32.1 7 10 Alarm State:  0
Wed May 24 07:04:36 PDT 2017 ON: 19.99 +20.0 20.05 -15.3 27.7 16.5 32.1 7 10 Alarm State:  0
Wed May 24 07:03:34 PDT 2017 ON: 20.00 +20.0 20.05 -15.1 28.0 16.3 32.0 7 9 Alarm State:  0
Wed May 24 07:02:33 PDT 2017 ON: 20.00 +20.0 20.07 -15.4 27.6 16.5 32.0 7 9 Alarm State:  0
Wed May 24 07:01:32 PDT 2017 ON: 19.99 +20.0 20.05 -14.9 28.3 16.1 32.1 7 10 Alarm State:  0
Wed May 24 07:00:30 PDT 2017 ON: 19.99 +20.0 20.05 -15.1 28.0 16.3 32.1 7 9 Alarm State:  0
Wed May 24 06:59:29 PDT 2017 ON: 20.00 +20.0 20.06 -15.3 27.7 16.5 32.0 7 9 Alarm State:  0
Wed May 24 06:58:27 PDT 2017 ON: 19.99 +20.0 20.05 -14.9 28.3 16.1 32.1 7 10 Alarm State:  0
Wed May 24 06:57:26 PDT 2017 ON: 20.00 +20.0 20.05 -15.4 27.6 16.5 32.0 7 10 Alarm State:  0
Wed May 24 06:56:14 PDT 2017  Alarm State: 0
Wed May 24 06:56:14 PDT 2017 Chiller did not report ON, got this reading: 
Wed May 24 06:55:13 PDT 2017 ON: 20.00 +20.0 20.06 -15.3 27.7 16.5 32.0 7 9 Alarm State:  0
Wed May 24 06:54:11 PDT 2017 ON: 19.99 +20.0 20.05 -15.1 28.0 16.3 32.2 7 10 Alarm State:  0
Wed May 24 06:53:10 PDT 2017 ON: 19.99 +20.0 20.04 -15.3 27.7 16.5 32.0 7 10 Alarm State:  0
Wed May 24 06:52:08 PDT 2017 ON: 20.00 +20.0 20.07 -15.3 27.7 16.5 32.1 7 9 Alarm State:  0
Wed May 24 06:51:07 PDT 2017 ON: 19.99 +20.0 20.07 -15.2 27.9 16.3 32.1 7 9 Alarm State:  0
Wed May 24 06:50:05 PDT 2017 ON: 19.99 +20.0 20.05 -14.9 28.4 16.0 32.2 7 9 Alarm State:  0
Wed May 24 06:49:04 PDT 2017 ON: 20.00 +20.0 20.06 -15.5 27.5 16.6 31.8 7 9 Alarm State:  0